
Distance (Route):
Temperature : -0.8°C
Humidity : 95.3%
Pressure : 0hPa| Receiver | Frames | First received | Last received |
|---|---|---|---|
| 9A1FER-3 | 411 | 2026-09-05 23:23:09 | 2026-09-06 01:10:24 |
| S57NTA-12 | 152 | 2026-09-05 23:50:18 | 2026-09-06 00:51:16 |
| PETON7-10 | 140 | 2026-09-06 00:08:58 | 2026-09-06 00:59:30 |
| OE5DRO-10 | 94 | 2026-09-06 00:11:37 | 2026-09-06 01:00:43 |
| PG1ADW-2 | 55 | 2026-09-06 00:37:35 | 2026-09-06 00:57:35 |
| OE3JTB-15 | 23 | 2026-09-05 23:56:13 | 2026-09-06 01:03:48 |
| OE5DXL-15 | 19 | 2026-09-06 00:32:26 | 2026-09-06 00:58:31 |
| LZ4TU-5 | 9 | 2026-09-06 00:44:57 | 2026-09-06 00:55:45 |
| Receiver | Date | Latitude | Longitude | Direction | Speed | Altitude | Climb | Temperature | Humidity | Pressure | Voltage | Killtimer | Uptime | BKT | XDATA |
|---|---|---|---|---|---|---|---|---|---|---|---|---|---|---|---|
| 9A1FER-3 | 2026-09-06 01:10:24 | 45.40456 | 17.00985 | 91° | 40km/h | 3916m | -16.8m/s | -0.8°C | 95.3% | 0hPa | 2.6V | 00:00:00 | 02:05:23 | 00:00:00 | |
| 9A1FER-3 | 2026-09-06 01:09:40 | 45.40555 | 17.00430 | 132° | 51km/h | 4620m | -17.5m/s | -1.7°C | 5.0% | 0hPa | 2.6V | 00:00:00 | 02:04:39 | 00:00:00 | |
| 9A1FER-3 | 2026-09-06 01:09:25 | 45.40679 | 17.00221 | 133° | 51km/h | 4873m | -17.0m/s | -2.9°C | 7.8% | 0hPa | 2.6V | 00:00:00 | 02:04:24 | 00:00:00 | |
| 9A1FER-3 | 2026-09-06 01:08:55 | 45.40932 | 16.99776 | 125° | 57km/h | 5379m | -17.2m/s | -5.8°C | 6.4% | 0hPa | 2.6V | 08:17:00 | 02:03:54 | 00:00:00 | |
| 9A1FER-3 | 2026-09-06 01:08:40 | 45.41041 | 16.99514 | 123° | 64km/h | 5635m | -17.2m/s | -7.4°C | 5.8% | 0hPa | 2.5V | 00:00:00 | 02:03:39 | 00:00:00 | |
| 9A1FER-3 | 2026-09-06 01:08:25 | 45.41168 | 16.99214 | 121° | 75km/h | 5886m | -17.7m/s | -8.2°C | 2.2% | 0hPa | 2.5V | 00:00:00 | 02:03:24 | 00:00:00 | |
| 9A1FER-3 | 2026-09-06 01:08:10 | 45.41333 | 16.98886 | 128° | 69km/h | 6143m | -17.9m/s | -9.7°C | 28.7% | 0hPa | 2.5V | 00:00:00 | 02:03:09 | 00:00:00 | |
| 9A1FER-3 | 2026-09-06 01:07:55 | 45.41495 | 16.98590 | 133° | 73km/h | 6404m | -17.1m/s | -10.9°C | 28.0% | 0hPa | 2.5V | 00:00:00 | 02:02:54 | 00:00:00 | |
| 9A1FER-3 | 2026-09-06 01:07:40 | 45.41660 | 16.98275 | 126° | 69km/h | 6661m | -17.4m/s | -11.5°C | 19.3% | 0hPa | 2.5V | 00:00:00 | 02:02:39 | 00:00:00 | |
| 9A1FER-3 | 2026-09-06 01:07:25 | 45.41817 | 16.97970 | 127° | 71km/h | 6920m | -18.1m/s | -13.8°C | 21.3% | 0hPa | 2.5V | 00:00:00 | 02:02:24 | 00:00:00 | |
| 9A1FER-3 | 2026-09-06 01:07:10 | 45.41986 | 16.97671 | 131° | 77km/h | 7183m | -17.8m/s | -16.0°C | 21.0% | 0hPa | 2.5V | 00:00:00 | 02:02:09 | 00:00:00 | |
| 9A1FER-3 | 2026-09-06 01:06:55 | 45.42192 | 16.97376 | 137° | 84km/h | 7448m | -19.3m/s | -17.6°C | 18.6% | 0hPa | 2.5V | 00:00:00 | 02:01:54 | 00:00:00 | |
| 9A1FER-3 | 2026-09-06 01:06:40 | 45.42412 | 16.97049 | 131° | 89km/h | 7722m | -18.9m/s | -19.5°C | 17.3% | 0hPa | 2.5V | 08:19:00 | 02:01:39 | 00:00:00 | |
| 9A1FER-3 | 2026-09-06 01:06:25 | 45.42630 | 16.96680 | 130° | 91km/h | 7993m | -19.0m/s | -21.9°C | 18.9% | 0hPa | 2.5V | 00:00:00 | 02:01:24 | 00:00:00 | |
| 9A1FER-3 | 2026-09-06 01:06:10 | 45.42850 | 16.96302 | 129° | 91km/h | 8268m | -18.5m/s | -24.3°C | 23.8% | 0hPa | 2.5V | 00:00:00 | 02:01:09 | 00:00:00 | |
| 9A1FER-3 | 2026-09-06 01:05:55 | 45.43057 | 16.95903 | 124° | 91km/h | 8542m | -18.7m/s | -26.7°C | 27.1% | 0hPa | 2.5V | 00:00:00 | 02:00:54 | 00:00:00 | |
| 9A1FER-3 | 2026-09-06 01:05:40 | 45.43245 | 16.95488 | 121° | 91km/h | 8824m | -19.2m/s | -29.4°C | 36.2% | 0hPa | 2.5V | 00:00:00 | 02:00:39 | 00:00:00 | |
| 9A1FER-3 | 2026-09-06 01:05:25 | 45.43433 | 16.95078 | 127° | 86km/h | 9108m | -19.4m/s | -32.0°C | 37.7% | 0hPa | 2.5V | 00:00:00 | 02:00:24 | 00:00:00 | |
| 9A1FER-3 | 2026-09-06 01:05:10 | 45.43619 | 16.94692 | 124° | 86km/h | 9401m | -20.4m/s | -34.8°C | 44.2% | 0hPa | 2.5V | 00:00:00 | 02:00:09 | 00:00:00 | |
| 9A1FER-3 | 2026-09-06 01:04:54 | 45.43812 | 16.94287 | 127° | 88km/h | 9722m | -20.7m/s | -37.5°C | 35.7% | 0hPa | 2.6V | 00:00:00 | 01:59:53 | 00:00:00 | |
| 9A1FER-3 | 2026-09-06 01:04:39 | 45.44017 | 16.93916 | 128° | 82km/h | 10024m | -20.8m/s | -39.9°C | 28.7% | 0hPa | 2.6V | 00:00:00 | 01:59:38 | 00:00:00 | |
| 9A1FER-3 | 2026-09-06 01:04:24 | 45.44217 | 16.93568 | 128° | 88km/h | 10334m | -20.7m/s | -42.1°C | 30.7% | 0hPa | 2.6V | 08:21:00 | 01:59:23 | 00:00:00 | |
| 9A1FER-3 | 2026-09-06 01:04:09 | 45.44426 | 16.93202 | 131° | 97km/h | 10647m | -21.5m/s | -44.8°C | 31.4% | 0hPa | 2.5V | 00:00:00 | 01:59:08 | 00:00:00 | |
| 9A1FER-3 | 2026-09-06 01:03:54 | 45.44661 | 16.92795 | 131° | 102km/h | 10968m | -21.8m/s | -47.1°C | 38.3% | 0hPa | 2.5V | 00:00:00 | 01:58:53 | 00:00:00 | |
| OE3JTB-15 | 2026-09-06 01:03:48 | 45.44758 | 16.92634 | 131° | 108km/h | 11098m | -21.7m/s | -48.2°C | 41.9% | 0hPa | 2.5V | 00:00:00 | 01:58:47 | 00:00:00 | |
| 9A1FER-3 | 2026-09-06 01:03:39 | 45.44908 | 16.92373 | 129° | 108km/h | 11292m | -22.5m/s | -49.6°C | 47.7% | 0hPa | 2.5V | 00:00:00 | 01:58:38 | 00:00:00 | |
| 9A1FER-3 | 2026-09-06 01:03:24 | 45.45174 | 16.91924 | 133° | 110km/h | 11626m | -22.8m/s | -52.5°C | 56.8% | 0hPa | 2.6V | 00:00:00 | 01:58:23 | 00:00:00 | |
| OE3JTB-15 | 2026-09-06 01:03:19 | 45.45265 | 16.91775 | 131° | 124km/h | 11739m | -22.6m/s | -53.4°C | 56.5% | 0hPa | 2.6V | 00:00:00 | 00:00:00 | 00:00:00 | |
| 9A1FER-3 | 2026-09-06 01:03:09 | 45.45454 | 16.91480 | 133° | 115km/h | 11967m | -22.8m/s | -55.3°C | 52.6% | 0hPa | 2.6V | 00:00:00 | 01:58:08 | 00:00:00 | |
| 9A1FER-3 | 2026-09-06 01:02:54 | 45.45752 | 16.91028 | 134° | 119km/h | 12308m | -23.3m/s | -57.8°C | 45.8% | 0hPa | 2.6V | 00:00:00 | 01:57:53 | 00:00:00 | |
| 9A1FER-3 | 2026-09-06 01:02:24 | 45.46345 | 16.90057 | 127° | 128km/h | 13016m | -25.4m/s | -62.2°C | 32.1% | 0hPa | 2.6V | 00:00:00 | 01:57:23 | 00:00:00 | |
| 9A1FER-3 | 2026-09-06 01:02:09 | 45.46642 | 16.89508 | 128° | 117km/h | 13386m | -24.7m/s | -64.4°C | 28.9% | 0hPa | 2.6V | 08:23:00 | 01:57:08 | 00:00:00 | |
| 9A1FER-3 | 2026-09-06 01:01:54 | 45.46879 | 16.88983 | 112° | 115km/h | 13760m | -25.5m/s | -63.7°C | 19.1% | 0hPa | 2.6V | 00:00:00 | 01:56:53 | 00:00:00 | |
| 9A1FER-3 | 2026-09-06 01:01:39 | 45.47039 | 16.88407 | 117° | 91km/h | 14144m | -26.2m/s | -64.7°C | 14.3% | 0hPa | 2.6V | 00:00:00 | 01:56:38 | 00:00:00 | |
| 9A1FER-3 | 2026-09-06 01:01:24 | 45.47201 | 16.87985 | 111° | 89km/h | 14541m | -27.4m/s | -63.3°C | 9.4% | 0hPa | 2.6V | 00:00:00 | 01:56:23 | 00:00:00 | |
| 9A1FER-3 | 2026-09-06 01:01:09 | 45.47339 | 16.87539 | 120° | 89km/h | 14954m | -28.5m/s | -62.3°C | 8.2% | 0hPa | 2.5V | 00:00:00 | 01:56:08 | 00:00:00 | |
| 9A1FER-3 | 2026-09-06 01:00:54 | 45.47503 | 16.87120 | 119° | 77km/h | 15386m | -29.2m/s | -61.9°C | 7.7% | 0hPa | 2.5V | 00:00:00 | 01:55:53 | 00:00:00 | |
| OE5DRO-10 | 2026-09-06 01:00:43 | 45.47566 | 16.86841 | 98° | 82km/h | 15710m | -30.5m/s | -59.6°C | 6.5% | 0hPa | 2.5V | 00:00:00 | 00:00:00 | 00:00:00 | |
| 9A1FER-3 | 2026-09-06 01:00:39 | 45.47577 | 16.86723 | 100° | 84km/h | 15833m | -29.9m/s | -60.5°C | 6.8% | 0hPa | 2.6V | 00:00:00 | 01:55:38 | 00:00:00 | |
| 9A1FER-3 | 2026-09-06 01:00:24 | 45.47667 | 16.86298 | 112° | 62km/h | 16288m | -31.3m/s | -58.0°C | 5.6% | 0hPa | 2.5V | 00:00:00 | 01:55:23 | 00:00:00 | |
| 9A1FER-3 | 2026-09-06 01:00:09 | 45.47754 | 16.85992 | 110° | 49km/h | 16766m | -32.2m/s | -58.8°C | 5.9% | 0hPa | 2.5V | 00:00:00 | 01:55:08 | 00:00:00 | |
| OE5DRO-10 | 2026-09-06 01:00:05 | 45.47768 | 16.85922 | 103° | 46km/h | 16896m | -32.7m/s | -58.9°C | 5.9% | 0hPa | 2.5V | 00:00:00 | 00:00:00 | 00:00:00 | |
| 9A1FER-3 | 2026-09-06 00:59:54 | 45.47804 | 16.85736 | 107° | 44km/h | 17259m | -33.7m/s | -58.5°C | 5.8% | 0hPa | 2.5V | 08:26:00 | 01:54:53 | 00:00:00 | |
| OE5DRO-10 | 2026-09-06 00:59:46 | 45.47813 | 16.85617 | 93° | 47km/h | 17532m | -34.6m/s | -58.4°C | 5.6% | 0hPa | 2.6V | 08:26:00 | 00:00:00 | 00:00:00 | |
| 9A1FER-3 | 2026-09-06 00:59:39 | 45.47834 | 16.85506 | 112° | 49km/h | 17775m | -35.0m/s | -58.0°C | 5.3% | 0hPa | 2.6V | 00:00:00 | 01:54:38 | 00:00:00 | |
| PETON7-10 | 2026-09-06 00:59:30 | 45.47883 | 16.85365 | 113° | 37km/h | 18093m | -35.4m/s | -57.4°C | 5.2% | 0hPa | 2.6V | 00:00:00 | 01:54:29 | 00:00:00 | |
| OE5DRO-10 | 2026-09-06 00:59:26 | 45.47898 | 16.85299 | 106° | 53km/h | 18236m | -36.0m/s | -58.6°C | 5.8% | 0hPa | 2.6V | 00:00:00 | 00:00:00 | 00:00:00 | |
| 9A1FER-3 | 2026-09-06 00:59:24 | 45.47905 | 16.85262 | 104° | 53km/h | 18309m | -37.0m/s | -59.0°C | 6.1% | 0hPa | 2.6V | 00:00:00 | 01:54:23 | 00:00:00 | |
| 9A1FER-3 | 2026-09-06 00:59:09 | 45.47986 | 16.85000 | 118° | 38km/h | 18864m | -38.4m/s | -58.2°C | 5.9% | 0hPa | 2.6V | 00:00:00 | 01:54:08 | 00:00:00 | |
| OE5DRO-10 | 2026-09-06 00:59:07 | 45.47998 | 16.84971 | 120° | 33km/h | 18941m | -38.9m/s | -57.4°C | 5.4% | 0hPa | 2.5V | 00:00:00 | 00:00:00 | 00:00:00 | |
| 9A1FER-3 | 2026-09-06 00:58:54 | 45.48060 | 16.84823 | 114° | 27km/h | 19450m | -40.7m/s | -54.2°C | 4.3% | 0hPa | 2.5V | 00:00:00 | 01:53:53 | 00:00:00 | |
| OE5DRO-10 | 2026-09-06 00:58:48 | 45.48070 | 16.84772 | 97° | 29km/h | 19694m | -40.9m/s | -54.8°C | 4.4% | 0hPa | 2.5V | 00:00:00 | 00:00:00 | 00:00:00 | |
| 9A1FER-3 | 2026-09-06 00:58:39 | 45.48077 | 16.84682 | 93° | 31km/h | 20063m | -41.8m/s | -56.9°C | 5.3% | 0hPa | 2.6V | 00:00:00 | 01:53:38 | 00:00:00 | |
| OE5DXL-15 | 2026-09-06 00:58:31 | 45.48077 | 16.84597 | 76° | 18km/h | 20397m | -43.6m/s | -55.6°C | 4.9% | 0hPa | 2.6V | 00:00:00 | 00:00:00 | 00:00:00 | |
| OE5DRO-10 | 2026-09-06 00:58:29 | 45.48073 | 16.84573 | 81° | 27km/h | 20483m | -42.4m/s | -55.9°C | 5.1% | 0hPa | 2.6V | 00:00:00 | 00:00:00 | 00:00:00 | |
| 9A1FER-3 | 2026-09-06 00:58:24 | 45.48071 | 16.84510 | 100° | 24km/h | 20695m | -43.1m/s | -56.0°C | 5.1% | 0hPa | 2.6V | 00:00:00 | 01:53:23 | 00:00:00 | |
| PETON7-10 | 2026-09-06 00:58:14 | 45.48098 | 16.84428 | 119° | 13km/h | 21135m | -44.9m/s | -54.0°C | 4.5% | 0hPa | 2.6V | 00:00:00 | 00:00:00 | 00:00:00 | |
| OE5DRO-10 | 2026-09-06 00:58:10 | 45.48108 | 16.84407 | 121° | 13km/h | 21315m | -46.2m/s | -54.4°C | 4.6% | 0hPa | 2.6V | 00:00:00 | 00:00:00 | 00:00:00 | |
| 9A1FER-3 | 2026-09-06 00:58:09 | 45.48111 | 16.84402 | 131° | 11km/h | 21362m | -45.8m/s | -54.5°C | 4.7% | 0hPa | 2.6V | 00:00:00 | 01:53:08 | 00:00:00 | |
| PETON7-10 | 2026-09-06 00:57:59 | 45.48129 | 16.84375 | 91° | 15km/h | 21830m | -48.5m/s | -54.6°C | 4.9% | 0hPa | 2.6V | 00:00:00 | 00:00:00 | 00:00:00 | |
| 9A1FER-3 | 2026-09-06 00:57:54 | 45.48133 | 16.84355 | 100° | 11km/h | 22071m | -49.0m/s | -53.2°C | 4.4% | 0hPa | 2.6V | 00:00:00 | 01:52:53 | 00:00:00 | |
| OE5DRO-10 | 2026-09-06 00:57:51 | 45.48137 | 16.84338 | 113° | 9km/h | 22217m | -48.6m/s | -53.7°C | 4.5% | 0hPa | 2.6V | 00:00:00 | 00:00:00 | 00:00:00 | |
| OE5DXL-15 | 2026-09-06 00:57:48 | 45.48144 | 16.84325 | 137° | 11km/h | 22363m | -49.5m/s | -54.1°C | 4.8% | 0hPa | 2.5V | 00:00:00 | 00:00:00 | 00:00:00 | |
| PETON7-10 | 2026-09-06 00:57:44 | 45.48155 | 16.84316 | 151° | 9km/h | 22560m | -50.7m/s | -53.3°C | 4.5% | 0hPa | 2.5V | 00:00:00 | 01:52:43 | 00:00:00 | |
| 9A1FER-3 | 2026-09-06 00:57:39 | 45.48159 | 16.84313 | 318° | 13km/h | 22811m | -51.4m/s | -53.2°C | 4.4% | 0hPa | 2.5V | 08:28:00 | 01:52:38 | 00:00:00 | |
| PG1ADW-2 | 2026-09-06 00:57:35 | 45.48152 | 16.84310 | 36° | 15km/h | 23018m | -52.0m/s | -52.8°C | 4.4% | 0hPa | 2.5V | 00:00:00 | 00:00:00 | 00:00:00 | |
| OE5DRO-10 | 2026-09-06 00:57:32 | 45.48144 | 16.84302 | 51° | 15km/h | 23174m | -52.6m/s | -51.7°C | 3.9% | 0hPa | 2.5V | 00:00:00 | 00:00:00 | 00:00:00 | |
| PETON7-10 | 2026-09-06 00:57:29 | 45.48137 | 16.84287 | 65° | 15km/h | 23334m | -53.3m/s | -51.6°C | 3.9% | 0hPa | 2.5V | 00:00:00 | 00:00:00 | 00:00:00 | |
| 9A1FER-3 | 2026-09-06 00:57:24 | 45.48131 | 16.84265 | 66° | 16km/h | 23604m | -55.3m/s | -52.3°C | 4.2% | 0hPa | 2.5V | 00:00:00 | 01:52:23 | 00:00:00 | |
| OE5DXL-15 | 2026-09-06 00:57:18 | 45.48132 | 16.84236 | 113° | 13km/h | 23936m | -55.5m/s | -52.4°C | 4.5% | 0hPa | 2.5V | 00:00:00 | 00:00:00 | 00:00:00 | |
| PETON7-10 | 2026-09-06 00:57:14 | 45.48138 | 16.84212 | 108° | 15km/h | 24160m | -56.9m/s | -52.6°C | 4.6% | 0hPa | 2.5V | 00:00:00 | 00:00:00 | 00:00:00 | |
| OE5DRO-10 | 2026-09-06 00:57:13 | 45.48140 | 16.84206 | 113° | 13km/h | 24217m | -56.4m/s | -52.8°C | 4.7% | 0hPa | 2.5V | 00:00:00 | 00:00:00 | 00:00:00 | |
| 9A1FER-3 | 2026-09-06 00:57:09 | 45.48148 | 16.84179 | 122° | 11km/h | 24445m | -58.1m/s | -52.4°C | 4.7% | 0hPa | 2.5V | 00:00:00 | 01:52:08 | 00:00:00 | |
| PETON7-10 | 2026-09-06 00:56:59 | 45.48168 | 16.84144 | 90° | 9km/h | 25037m | -60.3m/s | -50.0°C | 4.0% | 0hPa | 2.5V | 00:00:00 | 01:51:58 | 00:00:00 | |
| 9A1FER-3 | 2026-09-06 00:56:54 | 45.48168 | 16.84132 | 73° | 11km/h | 25341m | -62.2m/s | -49.7°C | 4.1% | 0hPa | 2.5V | 00:00:00 | 01:51:53 | 00:00:00 | |
| OE5DXL-15 | 2026-09-06 00:56:48 | 45.48162 | 16.84121 | 31° | 11km/h | 25716m | -63.3m/s | -49.6°C | 4.3% | 0hPa | 2.5V | 00:00:00 | 00:00:00 | 00:00:00 | |
| PETON7-10 | 2026-09-06 00:56:44 | 45.48152 | 16.84110 | 56° | 11km/h | 25973m | -64.3m/s | -48.4°C | 3.9% | 0hPa | 2.5V | 08:29:00 | 00:00:00 | 00:00:00 | |
| 9A1FER-3 | 2026-09-06 00:56:39 | 45.48146 | 16.84092 | 81° | 13km/h | 26300m | -66.7m/s | -46.7°C | 3.5% | 0hPa | 2.6V | 00:00:00 | 01:51:38 | 00:00:00 | |
| OE5DRO-10 | 2026-09-06 00:56:35 | 45.48147 | 16.84077 | 101° | 11km/h | 26569m | -67.7m/s | -45.1°C | 3.0% | 0hPa | 2.6V | 00:00:00 | 00:00:00 | 00:00:00 | |
| PG1ADW-2 | 2026-09-06 00:56:34 | 45.48148 | 16.84074 | 104° | 11km/h | 26637m | -67.3m/s | -45.0°C | 3.0% | 0hPa | 2.6V | 00:00:00 | 00:00:00 | 00:00:00 | |
| PETON7-10 | 2026-09-06 00:56:29 | 45.48151 | 16.84052 | 109° | 11km/h | 26976m | -68.3m/s | -45.0°C | 3.1% | 0hPa | 2.6V | 00:00:00 | 00:00:00 | 00:00:00 | |
| 9A1FER-3 | 2026-09-06 00:56:24 | 45.48155 | 16.84029 | 105° | 7km/h | 27323m | -71.3m/s | -45.3°C | 3.1% | 0hPa | 2.6V | 00:00:00 | 01:51:23 | 00:00:00 | |
| OE5DXL-15 | 2026-09-06 00:56:18 | 45.48160 | 16.84008 | 106° | 9km/h | 27755m | -72.7m/s | -45.1°C | 3.2% | 0hPa | 2.6V | 00:00:00 | 00:00:00 | 00:00:00 | |
| OE5DRO-10 | 2026-09-06 00:56:16 | 45.48162 | 16.84003 | 128° | 5km/h | 27900m | -72.2m/s | -44.1°C | 3.0% | 0hPa | 2.6V | 00:00:00 | 00:00:00 | 00:00:00 | |
| PG1ADW-2 | 2026-09-06 00:56:14 | 45.48164 | 16.83999 | 132° | 7km/h | 28046m | -74.0m/s | -43.4°C | 2.8% | 0hPa | 2.6V | 00:00:00 | 00:00:00 | 00:00:00 | |
| 9A1FER-3 | 2026-09-06 00:56:09 | 45.48166 | 16.83992 | 84° | 7km/h | 28420m | -75.6m/s | -44.0°C | 2.9% | 0hPa | 2.6V | 00:00:00 | 01:51:08 | 00:00:00 | |
| PETON7-10 | 2026-09-06 00:55:59 | 45.48160 | 16.83975 | 39° | 13km/h | 29187m | -76.8m/s | -42.3°C | 2.5% | 0hPa | 2.6V | 00:00:00 | 00:00:00 | 00:00:00 | |
| OE5DRO-10 | 2026-09-06 00:55:57 | 45.48156 | 16.83970 | 32° | 13km/h | 29339m | -75.5m/s | -42.3°C | 2.5% | 0hPa | 2.6V | 00:00:00 | 00:00:00 | 00:00:00 | |
| PG1ADW-2 | 2026-09-06 00:55:54 | 45.48150 | 16.83957 | 65° | 16km/h | 29635m | -69.9m/s | -43.5°C | 2.7% | 0hPa | 2.5V | 00:00:00 | 01:50:52 | 08:30:00 | |
| OE5DXL-15 | 2026-09-06 00:55:48 | 45.48143 | 16.83933 | 73° | 16km/h | 29958m | -58.8m/s | -43.6°C | 2.6% | 0hPa | 2.5V | 00:00:00 | 00:00:00 | 08:30:00 | |
| LZ4TU-5 | 2026-09-06 00:55:45 | 45.48142 | 16.83918 | 98° | 13km/h | 30125m | -48.3m/s | 0°C | 0% | 0hPa | 2.6V | 00:00:00 | 00:00:00 | 00:00:00 | |
| PETON7-10 | 2026-09-06 00:55:44 | 45.48143 | 16.83914 | 105° | 20km/h | 30170m | -42.7m/s | -43.6°C | 2.7% | 0hPa | 2.6V | 00:00:00 | 00:00:00 | 00:00:00 | |
| 9A1FER-3 | 2026-09-06 00:55:39 | 45.48156 | 16.83897 | 153° | 24km/h | 30306m | -9.1m/s | -43.9°C | 2.9% | 0hPa | 2.6V | 00:00:00 | 01:50:38 | 00:00:00 | |
| OE5DRO-10 | 2026-09-06 00:55:38 | 45.48160 | 16.83893 | 150° | 22km/h | 30310m | 0.1m/s | -43.9°C | 2.8% | 0hPa | 2.6V | 00:00:00 | 00:00:00 | 00:00:00 | |
| PG1ADW-2 | 2026-09-06 00:55:33 | 45.48182 | 16.83869 | 135° | 24km/h | 30281m | 7.1m/s | -43.9°C | 2.8% | 0hPa | 2.6V | 00:00:00 | 00:00:00 | 00:00:00 | |
| PETON7-10 | 2026-09-06 00:55:29 | 45.48201 | 16.83843 | 140° | 24km/h | 30254m | 6.5m/s | -44.0°C | 2.8% | 0hPa | 2.6V | 00:00:00 | 01:50:28 | 00:00:00 | |
| OE5DRO-10 | 2026-09-06 00:55:19 | 45.48236 | 16.83785 | 101° | 24km/h | 30187m | 6.5m/s | -44.1°C | 2.8% | 0hPa | 2.6V | 00:00:00 | 00:00:00 | 00:00:00 | |
| OE5DXL-15 | 2026-09-06 00:55:18 | 45.48237 | 16.83776 | 104° | 18km/h | 30181m | 5.8m/s | -44.2°C | 2.8% | 0hPa | 2.6V | 00:00:00 | 00:00:00 | 00:00:00 | |
| PETON7-10 | 2026-09-06 00:55:14 | 45.48249 | 16.83744 | 125° | 22km/h | 30155m | 7.3m/s | -44.5°C | 2.9% | 0hPa | 2.6V | 00:00:00 | 00:00:00 | 00:00:00 | |
| PG1ADW-2 | 2026-09-06 00:55:13 | 45.48251 | 16.83738 | 120° | 20km/h | 30147m | 7.3m/s | -44.6°C | 2.9% | 0hPa | 2.6V | 00:00:00 | 00:00:00 | 00:00:00 | |
| 9A1FER-3 | 2026-09-06 00:55:09 | 45.48260 | 16.83713 | 115° | 20km/h | 30120m | 5.9m/s | -44.8°C | 2.9% | 0hPa | 2.6V | 00:00:00 | 01:50:08 | 00:00:00 | |
| OE5DRO-10 | 2026-09-06 00:55:00 | 45.48257 | 16.83639 | 72° | 16km/h | 30058m | 6.1m/s | -44.8°C | 3.0% | 0hPa | 2.6V | 00:00:00 | 00:00:00 | 00:00:00 | |
| PETON7-10 | 2026-09-06 00:54:59 | 45.48256 | 16.83632 | 76° | 15km/h | 30053m | 5.3m/s | -44.8°C | 3.0% | 0hPa | 2.6V | 00:00:00 | 00:00:00 | 00:00:00 | |
| 9A1FER-3 | 2026-09-06 00:54:54 | 45.48255 | 16.83608 | 66° | 16km/h | 30019m | 6.7m/s | -44.7°C | 3.0% | 0hPa | 2.6V | 00:00:00 | 01:49:53 | 00:00:00 | |
| PG1ADW-2 | 2026-09-06 00:54:53 | 45.48253 | 16.83603 | 62° | 16km/h | 30013m | 6.0m/s | -44.8°C | 3.0% | 0hPa | 2.6V | 00:00:00 | 00:00:00 | 00:00:00 | |
| PETON7-10 | 2026-09-06 00:54:44 | 45.48232 | 16.83563 | 90° | 16km/h | 29954m | 6.5m/s | -44.6°C | 3.0% | 0hPa | 2.6V | 00:00:00 | 01:49:43 | 00:00:00 | |
| OE5DRO-10 | 2026-09-06 00:54:41 | 45.48231 | 16.83545 | 75° | 16km/h | 29937m | 7.0m/s | -44.5°C | 3.0% | 0hPa | 2.6V | 00:00:00 | 00:00:00 | 00:00:00 | |
| 9A1FER-3 | 2026-09-06 00:54:39 | 45.48226 | 16.83536 | 25° | 16km/h | 29923m | 6.5m/s | -44.5°C | 2.9% | 0hPa | 2.6V | 00:00:00 | 01:49:38 | 00:00:00 | |
| PG1ADW-2 | 2026-09-06 00:54:33 | 45.48203 | 16.83533 | 25° | 16km/h | 29883m | 5.9m/s | -44.2°C | 2.9% | 0hPa | 2.5V | 00:00:00 | 01:49:32 | 00:00:00 | |
| PETON7-10 | 2026-09-06 00:54:29 | 45.48194 | 16.83515 | 70° | 16km/h | 29857m | 5.4m/s | -44.2°C | 2.9% | 0hPa | 2.5V | 00:00:00 | 00:00:00 | 08:30:00 | |
| 9A1FER-3 | 2026-09-06 00:54:24 | 45.48178 | 16.83502 | 349° | 16km/h | 29826m | 7.3m/s | -44.2°C | 2.8% | 0hPa | 2.6V | 00:00:00 | 01:49:23 | 00:00:00 | |
| PETON7-10 | 2026-09-06 00:54:14 | 45.48142 | 16.83477 | 48° | 13km/h | 29761m | 6.9m/s | -44.5°C | 2.9% | 0hPa | 2.6V | 00:00:00 | 00:00:00 | 00:00:00 | |
| PG1ADW-2 | 2026-09-06 00:54:13 | 45.48138 | 16.83472 | 41° | 11km/h | 29754m | 6.6m/s | -44.6°C | 2.9% | 0hPa | 2.6V | 00:00:00 | 00:00:00 | 00:00:00 | |
| 9A1FER-3 | 2026-09-06 00:54:09 | 45.48126 | 16.83461 | 20° | 11km/h | 29728m | 6.4m/s | -44.7°C | 2.9% | 0hPa | 2.6V | 00:00:00 | 01:49:08 | 00:00:00 | |
| OE5DRO-10 | 2026-09-06 00:54:03 | 45.48106 | 16.83460 | 12° | 11km/h | 29689m | 7.4m/s | -44.8°C | 2.9% | 0hPa | 2.6V | 00:00:00 | 00:00:00 | 08:30:00 | |
| PETON7-10 | 2026-09-06 00:53:59 | 45.48096 | 16.83456 | 10° | 13km/h | 29663m | 5.8m/s | -44.9°C | 3.0% | 0hPa | 2.6V | 00:00:00 | 01:48:58 | 00:00:00 | |
| 9A1FER-3 | 2026-09-06 00:53:54 | 45.48086 | 16.83452 | 5° | 13km/h | 29631m | 7.5m/s | -45.0°C | 3.0% | 0hPa | 2.6V | 00:00:00 | 01:48:53 | 00:00:00 | |
| PG1ADW-2 | 2026-09-06 00:53:53 | 45.48083 | 16.83452 | 357° | 13km/h | 29624m | 7.1m/s | -45.0°C | 3.0% | 0hPa | 2.5V | 00:00:00 | 00:00:00 | 00:00:00 | |
| OE5DXL-15 | 2026-09-06 00:53:52 | 45.48078 | 16.83453 | 354° | 11km/h | 29617m | 5.9m/s | -45.0°C | 3.1% | 0hPa | 2.5V | 00:00:00 | 00:00:00 | 00:00:00 | |
| PETON7-10 | 2026-09-06 00:53:44 | 45.48053 | 16.83458 | 63° | 9km/h | 29564m | 6.8m/s | -44.9°C | 3.1% | 0hPa | 2.7V | 00:00:00 | 00:00:00 | 00:00:00 | |
| 9A1FER-3 | 2026-09-06 00:53:39 | 45.48044 | 16.83446 | 23° | 9km/h | 29533m | 6.1m/s | -44.8°C | 3.1% | 0hPa | 2.6V | 00:00:00 | 01:48:38 | 00:00:00 | |
| PG1ADW-2 | 2026-09-06 00:53:33 | 45.48024 | 16.83440 | 3° | 9km/h | 29494m | 5.6m/s | -44.6°C | 3.0% | 0hPa | 2.6V | 00:00:00 | 00:00:00 | 00:00:00 | |
| PETON7-10 | 2026-09-06 00:53:29 | 45.48024 | 16.83439 | 147° | 9km/h | 29468m | 6.8m/s | -44.4°C | 3.0% | 0hPa | 2.6V | 00:00:00 | 00:00:00 | 00:00:00 | |
| OE5DRO-10 | 2026-09-06 00:53:25 | 45.48021 | 16.83428 | 71° | 9km/h | 29442m | 7.3m/s | -44.2°C | 2.9% | 0hPa | 2.6V | 00:00:00 | 00:00:00 | 00:00:00 | |
| 9A1FER-3 | 2026-09-06 00:53:24 | 45.48020 | 16.83423 | 65° | 9km/h | 29436m | 5.7m/s | -44.1°C | 2.9% | 0hPa | 2.6V | 00:00:00 | 01:48:23 | 00:00:00 | |
| LZ4TU-5 | 2026-09-06 00:53:22 | 45.48015 | 16.83415 | 32° | 15km/h | 29424m | 7.4m/s | 0°C | 0% | 0hPa | 2.6V | 00:00:00 | 00:00:00 | 00:00:00 | |
| LZ4TU-5 | 2026-09-06 00:53:17 | 45.48006 | 16.83417 | 238° | 7km/h | 29392m | 6.0m/s | 0°C | 0% | 0hPa | 2.6V | 00:00:00 | 00:00:00 | 00:00:00 | |
| PETON7-10 | 2026-09-06 00:53:14 | 45.48010 | 16.83423 | 201° | 5km/h | 29373m | 5.8m/s | -43.9°C | 2.8% | 0hPa | 2.6V | 00:00:00 | 01:48:13 | 00:00:00 | |
| PG1ADW-2 | 2026-09-06 00:53:13 | 45.48012 | 16.83423 | 174° | 7km/h | 29367m | 7.3m/s | -43.9°C | 2.8% | 0hPa | 2.6V | 00:00:00 | 01:48:12 | 00:00:00 | |
| 9A1FER-3 | 2026-09-06 00:53:09 | 45.48015 | 16.83416 | 17° | 7km/h | 29343m | 5.8m/s | -43.8°C | 2.8% | 0hPa | 2.6V | 00:00:00 | 01:48:08 | 08:30:00 | |
| OE5DRO-10 | 2026-09-06 00:53:06 | 45.48008 | 16.83419 | 319° | 7km/h | 29325m | 6.7m/s | -43.9°C | 2.8% | 0hPa | 2.5V | 00:00:00 | 00:00:00 | 00:00:00 | |
| 9A1FER-3 | 2026-09-06 00:52:54 | 45.48002 | 16.83413 | 348° | 7km/h | 29252m | 4.4m/s | -44.2°C | 2.9% | 0hPa | 2.5V | 00:00:00 | 01:47:53 | 00:00:00 | |
| PG1ADW-2 | 2026-09-06 00:52:53 | 45.47999 | 16.83414 | 338° | 5km/h | 29246m | 6.7m/s | -44.3°C | 2.9% | 0hPa | 2.5V | 00:00:00 | 00:00:00 | 08:30:00 | |
| OE5DXL-15 | 2026-09-06 00:52:52 | 45.47997 | 16.83416 | 323° | 5km/h | 29240m | 7.0m/s | -44.3°C | 2.9% | 0hPa | 2.7V | 00:00:00 | 00:00:00 | 00:00:00 | |
| OE5DRO-10 | 2026-09-06 00:52:47 | 45.47992 | 16.83424 | 350° | 5km/h | 29209m | 5.2m/s | -44.4°C | 2.9% | 0hPa | 2.7V | 00:00:00 | 00:00:00 | 00:00:00 | |
| PETON7-10 | 2026-09-06 00:52:44 | 45.47989 | 16.83419 | 84° | 5km/h | 29190m | 6.2m/s | -44.4°C | 2.9% | 0hPa | 2.7V | 00:00:00 | 00:00:00 | 00:00:00 | |
| 9A1FER-3 | 2026-09-06 00:52:39 | 45.47985 | 16.83410 | 351° | 5km/h | 29159m | 6.4m/s | -44.5°C | 2.9% | 0hPa | 2.7V | 00:00:00 | 01:47:38 | 00:00:00 | |
| PG1ADW-2 | 2026-09-06 00:52:33 | 45.47983 | 16.83413 | 20° | 5km/h | 29122m | 3.9m/s | -44.7°C | 2.9% | 0hPa | 2.7V | 00:00:00 | 00:00:00 | 00:00:00 | |
| PETON7-10 | 2026-09-06 00:52:29 | 45.47986 | 16.83403 | 126° | 5km/h | 29098m | 5.2m/s | -44.9°C | 3.0% | 0hPa | 2.7V | 00:00:00 | 01:47:28 | 00:00:00 | |
| OE5DRO-10 | 2026-09-06 00:52:28 | 45.47988 | 16.83398 | 122° | 5km/h | 29092m | 6.8m/s | -45.0°C | 3.0% | 0hPa | 2.7V | 00:00:00 | 00:00:00 | 00:00:00 | |
| 9A1FER-3 | 2026-09-06 00:52:24 | 45.47989 | 16.83390 | 94° | 5km/h | 29067m | 7.0m/s | -45.0°C | 3.0% | 0hPa | 2.7V | 00:00:00 | 01:47:23 | 00:00:00 | |
| OE5DXL-15 | 2026-09-06 00:52:22 | 45.47989 | 16.83388 | 313° | 9km/h | 29055m | 5.7m/s | -45.0°C | 3.0% | 0hPa | 2.5V | 00:00:00 | 00:00:00 | 00:00:00 | |
| PETON7-10 | 2026-09-06 00:52:14 | 45.47982 | 16.83399 | 28° | 5km/h | 29004m | 6.8m/s | -45.1°C | 3.0% | 0hPa | 2.5V | 00:00:00 | 00:00:00 | 08:30:00 | |
| PG1ADW-2 | 2026-09-06 00:52:13 | 45.47982 | 16.83398 | 51° | 5km/h | 28998m | 5.1m/s | -45.1°C | 3.0% | 0hPa | 2.7V | 00:00:00 | 00:00:00 | 00:00:00 | |
| 9A1FER-3 | 2026-09-06 00:52:09 | 45.47984 | 16.83391 | 141° | 5km/h | 28973m | 6.0m/s | -45.4°C | 3.0% | 0hPa | 2.7V | 00:00:00 | 01:47:08 | 00:00:00 | |
| PETON7-10 | 2026-09-06 00:51:59 | 45.47996 | 16.83394 | 179° | 9km/h | 28909m | 7.8m/s | -45.4°C | 2.9% | 0hPa | 2.7V | 00:00:00 | 00:00:00 | 00:00:00 | |
| 9A1FER-3 | 2026-09-06 00:51:54 | 45.48002 | 16.83389 | 48° | 11km/h | 28877m | 4.6m/s | -45.9°C | 3.0% | 0hPa | 2.7V | 00:00:00 | 01:46:53 | 00:00:00 | |
| PG1ADW-2 | 2026-09-06 00:51:53 | 45.48002 | 16.83388 | 117° | 13km/h | 28872m | 5.6m/s | -45.9°C | 3.1% | 0hPa | 2.7V | 00:00:00 | 01:46:52 | 00:00:00 | |
| OE5DRO-10 | 2026-09-06 00:51:50 | 45.48007 | 16.83386 | 172° | 15km/h | 28853m | 6.1m/s | -46.0°C | 3.1% | 0hPa | 2.7V | 00:00:00 | 00:00:00 | 00:00:00 | |
| PETON7-10 | 2026-09-06 00:51:44 | 45.48030 | 16.83388 | 178° | 16km/h | 28814m | 4.6m/s | -46.5°C | 3.2% | 0hPa | 2.7V | 00:00:00 | 01:46:43 | 00:00:00 | |
| 9A1FER-3 | 2026-09-06 00:51:39 | 45.48042 | 16.83386 | 149° | 15km/h | 28783m | 7.5m/s | -46.7°C | 3.3% | 0hPa | 2.7V | 00:00:00 | 01:46:38 | 00:00:00 | |
| PG1ADW-2 | 2026-09-06 00:51:33 | 45.48067 | 16.83375 | 170° | 13km/h | 28744m | 7.6m/s | -46.6°C | 3.3% | 0hPa | 2.6V | 00:00:00 | 00:00:00 | 00:00:00 | |
| OE5DRO-10 | 2026-09-06 00:51:31 | 45.48079 | 16.83371 | 165° | 11km/h | 28731m | 4.8m/s | -46.6°C | 3.3% | 0hPa | 2.6V | 00:00:00 | 00:00:00 | 00:00:00 | |
| PETON7-10 | 2026-09-06 00:51:29 | 45.48088 | 16.83367 | 164° | 9km/h | 28719m | 6.7m/s | -46.6°C | 3.3% | 0hPa | 2.6V | 00:00:00 | 00:00:00 | 00:00:00 | |
| 9A1FER-3 | 2026-09-06 00:51:24 | 45.48091 | 16.83358 | 113° | 9km/h | 28688m | 5.7m/s | -46.4°C | 3.2% | 0hPa | 2.5V | 00:00:00 | 01:46:23 | 00:00:00 | |
| S57NTA-12 | 2026-09-06 00:51:16 | 45.48108 | 16.83346 | 152° | 15km/h | 28643m | 4.7m/s | -46.4°C | 0.9% | 0hPa | 2.5V | 00:00:00 | 00:00:00 | 00:00:00 | |
| PETON7-10 | 2026-09-06 00:51:14 | 45.48113 | 16.83340 | 110° | 7km/h | 28623m | 5.5m/s | -46.3°C | 3.2% | 0hPa | 2.5V | 00:00:00 | 00:00:00 | 00:00:00 | |
| PG1ADW-2 | 2026-09-06 00:51:13 | 45.48114 | 16.83337 | 101° | 7km/h | 28617m | 6.8m/s | -46.3°C | 3.2% | 0hPa | 2.5V | 00:00:00 | 00:00:00 | 00:00:00 | |
| OE5DRO-10 | 2026-09-06 00:51:12 | 45.48114 | 16.83334 | 106° | 7km/h | 28610m | 6.5m/s | -46.3°C | 3.2% | 0hPa | 2.5V | 00:00:00 | 00:00:00 | 08:30:00 | |
| 9A1FER-3 | 2026-09-06 00:51:09 | 45.48115 | 16.83327 | 77° | 7km/h | 28593m | 7.4m/s | -46.2°C | 3.2% | 0hPa | 2.5V | 00:00:00 | 01:46:08 | 00:00:00 | |
| PETON7-10 | 2026-09-06 00:50:59 | 45.48113 | 16.83304 | 161° | 5km/h | 28526m | 6.5m/s | -46.2°C | 3.2% | 0hPa | 2.5V | 00:00:00 | 01:45:58 | 00:00:00 | |
| 9A1FER-3 | 2026-09-06 00:50:54 | 45.48115 | 16.83312 | 285° | 7km/h | 28495m | 5.6m/s | -46.2°C | 3.2% | 0hPa | 2.5V | 00:00:00 | 01:45:53 | 08:30:00 | |
| PG1ADW-2 | 2026-09-06 00:50:53 | 45.48115 | 16.83314 | 243° | 7km/h | 28489m | 7.5m/s | -46.2°C | 3.2% | 0hPa | 2.6V | 00:00:00 | 00:00:00 | 00:00:00 | |
| LZ4TU-5 | 2026-09-06 00:50:47 | 45.48119 | 16.83305 | 118° | 4km/h | 28448m | 7.4m/s | 0°C | 0% | 0hPa | 2.7V | 00:00:00 | 00:00:00 | 00:00:00 | |
| PETON7-10 | 2026-09-06 00:50:44 | 45.48122 | 16.83306 | 237° | 11km/h | 28429m | 6.1m/s | -46.0°C | 3.1% | 0hPa | 2.7V | 00:00:00 | 00:00:00 | 00:00:00 | |
| LZ4TU-5 | 2026-09-06 00:50:42 | 45.48123 | 16.83313 | 261° | 11km/h | 28416m | 5.9m/s | 0°C | 0% | 0hPa | 2.6V | 00:00:00 | 00:00:00 | 00:00:00 | |
| 9A1FER-3 | 2026-09-06 00:50:39 | 45.48127 | 16.83321 | 187° | 11km/h | 28396m | 5.9m/s | -46.1°C | 3.1% | 0hPa | 2.6V | 00:00:00 | 01:45:38 | 00:00:00 | |
| OE5DRO-10 | 2026-09-06 00:50:34 | 45.48134 | 16.83309 | 115° | 9km/h | 28364m | 7.6m/s | -46.2°C | 3.2% | 0hPa | 2.6V | 00:00:00 | 00:00:00 | 00:00:00 | |
| PETON7-10 | 2026-09-06 00:50:29 | 45.48145 | 16.83294 | 182° | 9km/h | 28332m | 4.6m/s | -46.2°C | 3.3% | 0hPa | 2.6V | 00:00:00 | 00:00:00 | 00:00:00 | |
| S57NTA-12 | 2026-09-06 00:50:26 | 45.48150 | 16.83295 | 186° | 13km/h | 28320m | 7.2m/s | -46.2°C | 0.8% | 0hPa | 2.6V | 00:00:00 | 00:00:00 | 00:00:00 | |
| 9A1FER-3 | 2026-09-06 00:50:24 | 45.48161 | 16.83293 | 162° | 7km/h | 28303m | 6.5m/s | -46.0°C | 3.3% | 0hPa | 2.6V | 00:00:00 | 01:45:23 | 00:00:00 | |
| OE5DRO-10 | 2026-09-06 00:50:15 | 45.48171 | 16.83280 | 106° | 5km/h | 28244m | 4.6m/s | -45.7°C | 3.2% | 0hPa | 2.6V | 00:00:00 | 00:00:00 | 00:00:00 | |
| PETON7-10 | 2026-09-06 00:50:14 | 45.48172 | 16.83278 | 115° | 5km/h | 28239m | 6.8m/s | -45.7°C | 3.2% | 0hPa | 2.7V | 00:00:00 | 01:45:13 | 00:00:00 | |
| PG1ADW-2 | 2026-09-06 00:50:13 | 45.48173 | 16.83276 | 129° | 5km/h | 28232m | 7.1m/s | -45.6°C | 3.2% | 0hPa | 2.7V | 00:00:00 | 00:00:00 | 00:00:00 | |
| 9A1FER-3 | 2026-09-06 00:50:09 | 45.48176 | 16.83270 | 156° | 5km/h | 28205m | 6.1m/s | -45.6°C | 3.1% | 0hPa | 2.7V | 00:00:00 | 01:45:08 | 00:00:00 | |
| S57NTA-12 | 2026-09-06 00:50:06 | 45.48179 | 16.83269 | 187° | 7km/h | 28192m | 5.8m/s | -45.6°C | 0.8% | 0hPa | 2.6V | 00:00:00 | 00:00:00 | 00:00:00 | |
| PETON7-10 | 2026-09-06 00:49:59 | 45.48185 | 16.83275 | 123° | 5km/h | 28142m | 5.0m/s | -45.4°C | 3.1% | 0hPa | 2.6V | 00:00:00 | 00:00:00 | 08:30:00 | |
| OE5DRO-10 | 2026-09-06 00:49:56 | 45.48184 | 16.83268 | 65° | 5km/h | 28123m | 5.5m/s | -45.4°C | 3.1% | 0hPa | 2.7V | 00:00:00 | 00:00:00 | 00:00:00 | |
| 9A1FER-3 | 2026-09-06 00:49:54 | 45.48183 | 16.83263 | 99° | 5km/h | 28109m | 6.6m/s | -45.3°C | 3.0% | 0hPa | 2.7V | 00:00:00 | 01:44:53 | 00:00:00 | |
| PG1ADW-2 | 2026-09-06 00:49:53 | 45.48184 | 16.83261 | 104° | 5km/h | 28103m | 5.6m/s | -45.3°C | 3.0% | 0hPa | 2.7V | 00:00:00 | 00:00:00 | 08:30:00 | |
| S57NTA-12 | 2026-09-06 00:49:45 | 45.48179 | 16.83263 | 296° | 4km/h | 28058m | 6.8m/s | -45.3°C | 0.8% | 0hPa | 2.5V | 00:00:00 | 00:00:00 | 00:00:00 | |
| PETON7-10 | 2026-09-06 00:49:44 | 45.48177 | 16.83265 | 347° | 5km/h | 28045m | 5.4m/s | -45.2°C | 3.0% | 0hPa | 2.5V | 00:00:00 | 00:00:00 | 00:00:00 | |
| 9A1FER-3 | 2026-09-06 00:49:39 | 45.48174 | 16.83260 | 55° | 7km/h | 28012m | 8.1m/s | -45.2°C | 3.0% | 0hPa | 2.5V | 00:00:00 | 01:44:38 | 00:00:00 | |
| OE5DRO-10 | 2026-09-06 00:49:37 | 45.48171 | 16.83256 | 34° | 9km/h | 28001m | 4.5m/s | -45.3°C | 2.9% | 0hPa | 2.5V | 00:00:00 | 00:00:00 | 00:00:00 | |
| PG1ADW-2 | 2026-09-06 00:49:33 | 45.48168 | 16.83250 | 123° | 13km/h | 27975m | 5.7m/s | -45.5°C | 3.0% | 0hPa | 2.5V | 00:00:00 | 00:00:00 | 00:00:00 | |
| PETON7-10 | 2026-09-06 00:49:29 | 45.48169 | 16.83248 | 155° | 15km/h | 27950m | 7.9m/s | -45.8°C | 3.1% | 0hPa | 2.5V | 00:00:00 | 01:44:28 | 00:00:00 | |
| S57NTA-12 | 2026-09-06 00:49:25 | 45.48177 | 16.83242 | 148° | 13km/h | 27930m | 7.4m/s | -46.0°C | 0.8% | 0hPa | 2.5V | 00:00:00 | 00:00:00 | 00:00:00 | |
| 9A1FER-3 | 2026-09-06 00:49:24 | 45.48182 | 16.83238 | 150° | 15km/h | 27918m | 6.7m/s | -46.0°C | 3.1% | 0hPa | 2.5V | 00:00:00 | 01:44:23 | 00:00:00 | |
| OE5DRO-10 | 2026-09-06 00:49:18 | 45.48198 | 16.83214 | 115° | 13km/h | 27879m | 7.4m/s | -46.2°C | 3.1% | 0hPa | 2.5V | 00:00:00 | 00:00:00 | 00:00:00 | |
| PETON7-10 | 2026-09-06 00:49:14 | 45.48204 | 16.83190 | 92° | 13km/h | 27854m | 6.5m/s | -46.4°C | 3.2% | 0hPa | 2.7V | 00:00:00 | 00:00:00 | 00:00:00 | |
| PG1ADW-2 | 2026-09-06 00:49:13 | 45.48204 | 16.83186 | 91° | 9km/h | 27848m | 6.5m/s | -46.5°C | 3.2% | 0hPa | 2.7V | 00:00:00 | 01:44:12 | 00:00:00 | |
| 9A1FER-3 | 2026-09-06 00:49:09 | 45.48207 | 16.83177 | 110° | 11km/h | 27823m | 7.3m/s | -46.6°C | 3.2% | 0hPa | 2.7V | 00:00:00 | 01:44:08 | 00:00:00 | |
| LZ4TU-5 | 2026-09-06 00:49:05 | 45.48209 | 16.83158 | 110° | 20km/h | 27797m | 7.5m/s | 0°C | 0% | 0hPa | 2.7V | 00:00:00 | 00:00:00 | 00:00:00 | |
| S57NTA-12 | 2026-09-06 00:49:04 | 45.48209 | 16.83158 | 110° | 20km/h | 27797m | 7.5m/s | -46.7°C | 0.9% | 0hPa | 2.7V | 00:00:00 | 00:00:00 | 00:00:00 | |
| LZ4TU-5 | 2026-09-06 00:49:00 | 45.48217 | 16.83135 | 119° | 9km/h | 27773m | 6.8m/s | 0°C | 0% | 0hPa | 2.7V | 00:00:00 | 00:00:00 | 00:00:00 | |
| OE5DRO-10 | 2026-09-06 00:48:59 | 45.48219 | 16.83132 | 147° | 11km/h | 27760m | 7.5m/s | -46.9°C | 3.2% | 0hPa | 2.7V | 00:00:00 | 00:00:00 | 00:00:00 | |
| 9A1FER-3 | 2026-09-06 00:48:54 | 45.48219 | 16.83124 | 72° | 15km/h | 27728m | 5.8m/s | -47.1°C | 3.3% | 0hPa | 2.7V | 00:00:00 | 01:43:53 | 00:00:00 | |
| PG1ADW-2 | 2026-09-06 00:48:53 | 45.48218 | 16.83120 | 93° | 16km/h | 27722m | 7.1m/s | -47.2°C | 3.3% | 0hPa | 2.7V | 00:00:00 | 00:00:00 | 00:00:00 | |
| PETON7-10 | 2026-09-06 00:48:44 | 45.48235 | 16.83075 | 133° | 16km/h | 27666m | 6.7m/s | -47.3°C | 3.4% | 0hPa | 2.6V | 00:00:00 | 01:43:43 | 00:00:00 | |
| OE5DRO-10 | 2026-09-06 00:48:40 | 45.48240 | 16.83060 | 113° | 18km/h | 27643m | 6.8m/s | -47.3°C | 3.4% | 0hPa | 2.6V | 00:00:00 | 00:00:00 | 00:00:00 | |
| 9A1FER-3 | 2026-09-06 00:48:39 | 45.48241 | 16.83055 | 116° | 18km/h | 27636m | 5.7m/s | -47.3°C | 3.4% | 0hPa | 2.6V | 00:00:00 | 01:43:38 | 08:30:00 | |
| PG1ADW-2 | 2026-09-06 00:48:33 | 45.48251 | 16.83017 | 113° | 16km/h | 27598m | 5.5m/s | -47.2°C | 3.3% | 0hPa | 2.6V | 00:00:00 | 00:00:00 | 00:00:00 | |
| PETON7-10 | 2026-09-06 00:48:29 | 45.48256 | 16.82987 | 102° | 15km/h | 27574m | 5.9m/s | -47.3°C | 3.3% | 0hPa | 2.6V | 00:00:00 | 00:00:00 | 00:00:00 | |
| 9A1FER-3 | 2026-09-06 00:48:24 | 45.48264 | 16.82960 | 93° | 15km/h | 27543m | 5.8m/s | -47.5°C | 3.4% | 0hPa | 2.7V | 00:00:00 | 01:43:23 | 00:00:00 | |
| S57NTA-12 | 2026-09-06 00:48:23 | 45.48264 | 16.82961 | 94° | 11km/h | 27543m | 5.8m/s | -47.5°C | 0.9% | 0hPa | 2.7V | 00:00:00 | 00:00:00 | 00:00:00 | |
| OE5DRO-10 | 2026-09-06 00:48:21 | 45.48264 | 16.82947 | 109° | 16km/h | 27526m | 6.0m/s | -47.4°C | 3.4% | 0hPa | 2.7V | 00:00:00 | 00:00:00 | 08:30:00 | |
| PETON7-10 | 2026-09-06 00:48:14 | 45.48271 | 16.82918 | 99° | 18km/h | 27483m | 5.6m/s | -47.4°C | 3.4% | 0hPa | 2.5V | 00:00:00 | 00:00:00 | 00:00:00 | |
| PG1ADW-2 | 2026-09-06 00:48:13 | 45.48272 | 16.82911 | 89° | 18km/h | 27477m | 7.0m/s | -47.3°C | 3.4% | 0hPa | 2.5V | 00:00:00 | 00:00:00 | 00:00:00 | |
| 9A1FER-3 | 2026-09-06 00:48:09 | 45.48269 | 16.82881 | 92° | 18km/h | 27452m | 6.0m/s | -47.2°C | 3.4% | 0hPa | 2.5V | 00:00:00 | 01:43:08 | 00:00:00 | |
| PETON7-10 | 2026-09-06 00:47:59 | 45.48269 | 16.82823 | 67° | 16km/h | 27390m | 5.2m/s | -47.2°C | 3.4% | 0hPa | 2.5V | 00:00:00 | 01:42:58 | 00:00:00 | |
| S57NTA-12 | 2026-09-06 00:47:58 | 45.48269 | 16.82823 | 67° | 16km/h | 27390m | 5.2m/s | -47.3°C | 0.9% | 0hPa | 2.5V | 00:00:00 | 00:00:00 | 00:00:00 | |
| 9A1FER-3 | 2026-09-06 00:47:54 | 45.48262 | 16.82787 | 72° | 16km/h | 27359m | 6.3m/s | -47.3°C | 3.4% | 0hPa | 2.5V | 00:00:00 | 01:42:53 | 00:00:00 | |
| PG1ADW-2 | 2026-09-06 00:47:53 | 45.48261 | 16.82781 | 71° | 16km/h | 27354m | 5.4m/s | -47.3°C | 3.4% | 0hPa | 2.5V | 00:00:00 | 01:42:52 | 00:00:00 | |
| PETON7-10 | 2026-09-06 00:47:44 | 45.48249 | 16.82741 | 58° | 18km/h | 27300m | 5.4m/s | -47.4°C | 3.4% | 0hPa | 2.6V | 00:00:00 | 00:00:00 | 08:30:00 | |
| OE5DRO-10 | 2026-09-06 00:47:43 | 45.48247 | 16.82735 | 59° | 16km/h | 27295m | 4.4m/s | -47.4°C | 3.4% | 0hPa | 2.7V | 00:00:00 | 00:00:00 | 00:00:00 | |
| 9A1FER-3 | 2026-09-06 00:47:39 | 45.48232 | 16.82707 | 55° | 15km/h | 27272m | 6.2m/s | -47.3°C | 3.3% | 0hPa | 2.7V | 00:00:00 | 01:42:38 | 00:00:00 | |
| S57NTA-12 | 2026-09-06 00:47:38 | 45.48232 | 16.82707 | 56° | 24km/h | 27272m | 6.3m/s | -47.4°C | 0.9% | 0hPa | 2.7V | 00:00:00 | 00:00:00 | 00:00:00 | |
| PG1ADW-2 | 2026-09-06 00:47:33 | 45.48221 | 16.82678 | 55° | 11km/h | 27235m | 5.9m/s | -47.4°C | 3.3% | 0hPa | 2.7V | 00:00:00 | 00:00:00 | 00:00:00 | |
| PETON7-10 | 2026-09-06 00:47:29 | 45.48216 | 16.82662 | 53° | 13km/h | 27211m | 7.4m/s | -47.4°C | 3.4% | 0hPa | 2.7V | 00:00:00 | 00:00:00 | 00:00:00 | |
| 9A1FER-3 | 2026-09-06 00:47:24 | 45.48202 | 16.82641 | 58° | 9km/h | 27181m | 5.3m/s | -47.4°C | 3.4% | 0hPa | 2.7V | 00:00:00 | 01:42:23 | 00:00:00 | |
| S57NTA-12 | 2026-09-06 00:47:17 | 45.48194 | 16.82620 | 102° | 7km/h | 27144m | 4.6m/s | -47.4°C | 0.9% | 0hPa | 2.7V | 00:00:00 | 00:00:00 | 00:00:00 | |
| PETON7-10 | 2026-09-06 00:47:14 | 45.48192 | 16.82612 | 69° | 9km/h | 27119m | 7.2m/s | -47.3°C | 3.4% | 0hPa | 2.7V | 00:00:00 | 01:42:13 | 00:00:00 | |
| PG1ADW-2 | 2026-09-06 00:47:13 | 45.48192 | 16.82611 | 102° | 11km/h | 27112m | 6.0m/s | -47.3°C | 3.4% | 0hPa | 2.7V | 00:00:00 | 00:00:00 | 00:00:00 | |
| 9A1FER-3 | 2026-09-06 00:47:09 | 45.48191 | 16.82598 | 65° | 11km/h | 27088m | 5.4m/s | -47.4°C | 3.4% | 0hPa | 2.7V | 00:00:00 | 01:42:08 | 00:00:00 | |
| LZ4TU-5 | 2026-09-06 00:47:06 | 45.48190 | 16.82584 | 112° | 15km/h | 27069m | 5.1m/s | 0°C | 0% | 0hPa | 2.7V | 00:00:00 | 00:00:00 | 00:00:00 | |
| OE5DRO-10 | 2026-09-06 00:47:05 | 45.48192 | 16.82580 | 117° | 11km/h | 27063m | 5.3m/s | -47.4°C | 3.4% | 0hPa | 2.7V | 00:00:00 | 00:00:00 | 00:00:00 | |
| PETON7-10 | 2026-09-06 00:46:59 | 45.48199 | 16.82566 | 127° | 11km/h | 27025m | 4.8m/s | -47.4°C | 3.4% | 0hPa | 2.7V | 00:00:00 | 00:00:00 | 00:00:00 | |
| 9A1FER-3 | 2026-09-06 00:46:54 | 45.48197 | 16.82542 | 85° | 13km/h | 26995m | 5.7m/s | -47.4°C | 3.4% | 0hPa | 2.6V | 00:00:00 | 01:41:53 | 00:00:00 | |
| PG1ADW-2 | 2026-09-06 00:46:53 | 45.48197 | 16.82535 | 79° | 13km/h | 26988m | 7.0m/s | -47.4°C | 3.4% | 0hPa | 2.6V | 00:00:00 | 00:00:00 | 08:30:00 | |
| OE5DRO-10 | 2026-09-06 00:46:46 | 45.48198 | 16.82518 | 134° | 13km/h | 26943m | 5.2m/s | -47.5°C | 3.4% | 0hPa | 2.5V | 00:00:00 | 00:00:00 | 00:00:00 | |
| PETON7-10 | 2026-09-06 00:46:44 | 45.48199 | 16.82513 | 110° | 15km/h | 26931m | 7.2m/s | -47.5°C | 3.4% | 0hPa | 2.5V | 00:00:00 | 00:00:00 | 00:00:00 | |
| 9A1FER-3 | 2026-09-06 00:46:39 | 45.48197 | 16.82476 | 76° | 13km/h | 26900m | 5.4m/s | -47.6°C | 3.4% | 0hPa | 2.5V | 00:00:00 | 01:41:38 | 00:00:00 | |
| S57NTA-12 | 2026-09-06 00:46:35 | 45.48197 | 16.82454 | 108° | 5km/h | 26875m | 7.3m/s | -47.8°C | 1.0% | 0hPa | 2.5V | 00:00:00 | 00:00:00 | 00:00:00 | |
| PG1ADW-2 | 2026-09-06 00:46:33 | 45.48197 | 16.82453 | 323° | 9km/h | 26862m | 5.7m/s | -47.7°C | 3.5% | 0hPa | 2.5V | 00:00:00 | 01:41:32 | 00:00:00 | |
| PETON7-10 | 2026-09-06 00:46:29 | 45.48190 | 16.82449 | 33° | 9km/h | 26836m | 7.7m/s | -47.6°C | 3.4% | 0hPa | 2.5V | 00:00:00 | 01:41:28 | 00:00:00 | |
| OE5DRO-10 | 2026-09-06 00:46:27 | 45.48184 | 16.82442 | 51° | 11km/h | 26823m | 5.9m/s | -47.6°C | 3.5% | 0hPa | 2.5V | 00:00:00 | 00:00:00 | 00:00:00 | |
| 9A1FER-3 | 2026-09-06 00:46:24 | 45.48178 | 16.82425 | 74° | 9km/h | 26804m | 6.9m/s | -47.5°C | 3.4% | 0hPa | 2.7V | 00:00:00 | 01:41:23 | 08:30:00 | |
| PETON7-10 | 2026-09-06 00:46:14 | 45.48184 | 16.82410 | 73° | 11km/h | 26740m | 7.6m/s | -47.3°C | 3.3% | 0hPa | 2.6V | 00:00:00 | 00:00:00 | 00:00:00 | |
| PG1ADW-2 | 2026-09-06 00:46:13 | 45.48183 | 16.82406 | 79° | 13km/h | 26733m | 6.0m/s | -47.3°C | 3.3% | 0hPa | 2.6V | 00:00:00 | 00:00:00 | 00:00:00 | |
| 9A1FER-3 | 2026-09-06 00:46:09 | 45.48183 | 16.82383 | 106° | 11km/h | 26707m | 7.8m/s | -47.4°C | 3.3% | 0hPa | 2.6V | 00:00:00 | 01:41:08 | 00:00:00 | |
| OE5DRO-10 | 2026-09-06 00:46:08 | 45.48185 | 16.82377 | 119° | 11km/h | 26700m | 6.0m/s | -47.4°C | 3.4% | 0hPa | 2.6V | 00:00:00 | 00:00:00 | 00:00:00 | |
| PETON7-10 | 2026-09-06 00:45:59 | 45.48196 | 16.82366 | 43° | 13km/h | 26640m | 5.0m/s | -47.6°C | 3.4% | 0hPa | 2.6V | 00:00:00 | 00:00:00 | 00:00:00 | |
| S57NTA-12 | 2026-09-06 00:45:54 | 45.48195 | 16.82341 | 108° | 18km/h | 26608m | 7.1m/s | -47.6°C | 0.9% | 0hPa | 2.6V | 00:00:00 | 00:00:00 | 00:00:00 | |
| PG1ADW-2 | 2026-09-06 00:45:53 | 45.48197 | 16.82336 | 112° | 20km/h | 26601m | 6.4m/s | -47.5°C | 3.3% | 0hPa | 2.6V | 00:00:00 | 00:00:00 | 00:00:00 | |
| OE5DRO-10 | 2026-09-06 00:45:49 | 45.48201 | 16.82318 | 107° | 22km/h | 26576m | 6.4m/s | -47.7°C | 3.3% | 0hPa | 2.6V | 00:00:00 | 00:00:00 | 00:00:00 | |
| PETON7-10 | 2026-09-06 00:45:44 | 45.48205 | 16.82295 | 104° | 26km/h | 26544m | 7.0m/s | -47.9°C | 3.4% | 0hPa | 2.6V | 00:00:00 | 01:40:43 | 00:00:00 | |
| S57NTA-12 | 2026-09-06 00:45:34 | 45.48224 | 16.82206 | 109° | 26km/h | 26480m | 6.1m/s | -48.4°C | 0.9% | 0hPa | 2.6V | 00:00:00 | 00:00:00 | 00:00:00 | |
| PG1ADW-2 | 2026-09-06 00:45:33 | 45.48225 | 16.82197 | 104° | 24km/h | 26473m | 7.0m/s | -48.4°C | 3.5% | 0hPa | 2.6V | 00:00:00 | 00:00:00 | 00:00:00 | |
| OE5DRO-10 | 2026-09-06 00:45:30 | 45.48225 | 16.82173 | 77° | 22km/h | 26453m | 6.6m/s | -48.6°C | 3.4% | 0hPa | 2.6V | 00:00:00 | 00:00:00 | 08:30:00 | |
| PETON7-10 | 2026-09-06 00:45:29 | 45.48224 | 16.82166 | 71° | 22km/h | 26446m | 7.4m/s | -48.6°C | 3.5% | 0hPa | 2.7V | 00:00:00 | 00:00:00 | 08:30:00 | |
| 9A1FER-3 | 2026-09-06 00:45:24 | 45.48212 | 16.82136 | 60° | 24km/h | 26412m | 7.1m/s | -48.7°C | 3.5% | 0hPa | 2.6V | 00:00:00 | 01:40:23 | 00:00:00 | |
| S57NTA-12 | 2026-09-06 00:45:14 | 45.48179 | 16.82073 | 30° | 26km/h | 26345m | 7.4m/s | -49.1°C | 1.0% | 0hPa | 2.6V | 00:00:00 | 00:00:00 | 00:00:00 | |
| PG1ADW-2 | 2026-09-06 00:45:12 | 45.48167 | 16.82062 | 34° | 20km/h | 26331m | 6.0m/s | -49.0°C | 3.5% | 0hPa | 2.6V | 00:00:00 | 01:40:11 | 00:00:00 | |
| OE5DRO-10 | 2026-09-06 00:45:11 | 45.48160 | 16.82056 | 32° | 22km/h | 26324m | 7.9m/s | -49.1°C | 3.5% | 0hPa | 2.6V | 00:00:00 | 00:00:00 | 00:00:00 | |
| 9A1FER-3 | 2026-09-06 00:45:09 | 45.48149 | 16.82045 | 38° | 22km/h | 26311m | 6.8m/s | -49.1°C | 3.5% | 0hPa | 2.6V | 00:00:00 | 01:40:08 | 00:00:00 | |
| PETON7-10 | 2026-09-06 00:44:59 | 45.48094 | 16.82020 | 350° | 15km/h | 26242m | 6.1m/s | -49.7°C | 3.7% | 0hPa | 2.6V | 00:00:00 | 01:39:58 | 00:00:00 | |
| LZ4TU-5 | 2026-09-06 00:44:57 | 45.48084 | 16.82020 | 10° | 18km/h | 26228m | 5.8m/s | 0°C | 0% | 0hPa | 2.6V | 00:00:00 | 00:00:00 | 00:00:00 | |
| 9A1FER-3 | 2026-09-06 00:44:54 | 45.48074 | 16.82016 | 37° | 13km/h | 26208m | 6.2m/s | -49.8°C | 3.7% | 0hPa | 2.6V | 00:00:00 | 01:39:53 | 00:00:00 | |
| S57NTA-12 | 2026-09-06 00:44:53 | 45.48072 | 16.82013 | 47° | 13km/h | 26201m | 7.5m/s | -49.8°C | 1.0% | 0hPa | 2.6V | 00:00:00 | 00:00:00 | 00:00:00 | |
| PG1ADW-2 | 2026-09-06 00:44:52 | 45.48070 | 16.82010 | 50° | 15km/h | 26194m | 6.8m/s | -49.8°C | 3.6% | 0hPa | 2.6V | 00:00:00 | 00:00:00 | 00:00:00 | |
| PETON7-10 | 2026-09-06 00:44:44 | 45.48046 | 16.81997 | 341° | 15km/h | 26140m | 7.2m/s | -50.3°C | 3.8% | 0hPa | 2.7V | 00:00:00 | 00:00:00 | 00:00:00 | |
| 9A1FER-3 | 2026-09-06 00:44:39 | 45.48030 | 16.81994 | 53° | 16km/h | 26109m | 6.5m/s | -50.3°C | 3.8% | 0hPa | 2.7V | 00:00:00 | 01:39:38 | 00:00:00 | |
| OE5DXL-15 | 2026-09-06 00:44:36 | 45.48024 | 16.81977 | 64° | 18km/h | 26091m | 5.9m/s | -50.3°C | 3.8% | 0hPa | 2.7V | 00:00:00 | 00:00:00 | 00:00:00 | |
| OE5DRO-10 | 2026-09-06 00:44:33 | 45.48018 | 16.81962 | 61° | 18km/h | 26071m | 5.9m/s | -50.3°C | 3.8% | 0hPa | 2.7V | 00:00:00 | 00:00:00 | 00:00:00 | |
| PG1ADW-2 | 2026-09-06 00:44:32 | 45.48016 | 16.81957 | 62° | 18km/h | 26065m | 6.9m/s | -50.3°C | 3.8% | 0hPa | 2.6V | 00:00:00 | 00:00:00 | 00:00:00 | |
| PETON7-10 | 2026-09-06 00:44:29 | 45.48012 | 16.81947 | 52° | 20km/h | 26045m | 6.6m/s | -50.5°C | 3.8% | 0hPa | 2.6V | 00:00:00 | 00:00:00 | 00:00:00 | |
| 9A1FER-3 | 2026-09-06 00:44:24 | 45.47994 | 16.81927 | 37° | 18km/h | 26012m | 5.5m/s | -50.6°C | 3.8% | 0hPa | 2.6V | 00:00:00 | 01:39:23 | 00:00:00 | |
| PETON7-10 | 2026-09-06 00:44:14 | 45.47949 | 16.81882 | 22° | 15km/h | 25948m | 7.9m/s | -50.4°C | 3.6% | 0hPa | 2.6V | 00:00:00 | 01:39:13 | 00:00:00 | |
| PG1ADW-2 | 2026-09-06 00:44:12 | 45.47945 | 16.81880 | 21° | 15km/h | 25934m | 6.5m/s | -50.4°C | 3.6% | 0hPa | 2.6V | 00:00:00 | 00:00:00 | 00:00:00 | |
| 9A1FER-3 | 2026-09-06 00:44:09 | 45.47935 | 16.81873 | 25° | 16km/h | 25914m | 7.3m/s | -50.7°C | 3.7% | 0hPa | 2.6V | 00:00:00 | 01:39:08 | 08:30:00 | |
| OE5DXL-15 | 2026-09-06 00:44:02 | 45.47907 | 16.81857 | 351° | 20km/h | 25870m | 6.2m/s | -51.7°C | 4.0% | 0hPa | 2.5V | 00:00:00 | 00:00:00 | 00:00:00 | |
| PETON7-10 | 2026-09-06 00:43:59 | 45.47900 | 16.81862 | 331° | 9km/h | 25851m | 5.8m/s | -51.9°C | 4.1% | 0hPa | 2.5V | 00:00:00 | 00:00:00 | 00:00:00 | |
| OE5DRO-10 | 2026-09-06 00:43:55 | 45.47888 | 16.81878 | 306° | 7km/h | 25826m | 5.4m/s | -52.0°C | 4.2% | 0hPa | 2.6V | 00:00:00 | 00:00:00 | 00:00:00 | |
| 9A1FER-3 | 2026-09-06 00:43:54 | 45.47886 | 16.81882 | 316° | 7km/h | 25820m | 6.6m/s | -52.0°C | 4.1% | 0hPa | 2.6V | 00:00:00 | 01:38:53 | 00:00:00 | |
| PG1ADW-2 | 2026-09-06 00:43:52 | 45.47882 | 16.81884 | 30° | 5km/h | 25808m | 5.1m/s | -51.9°C | 4.1% | 0hPa | 2.6V | 00:00:00 | 01:38:51 | 08:30:00 | |
| S57NTA-12 | 2026-09-06 00:43:49 | 45.47883 | 16.81883 | 168° | 5km/h | 25795m | 6.4m/s | -51.9°C | 1.1% | 0hPa | 2.6V | 00:00:00 | 00:00:00 | 00:00:00 | |
| PETON7-10 | 2026-09-06 00:43:44 | 45.47889 | 16.81886 | 260° | 7km/h | 25758m | 6.9m/s | -51.9°C | 4.0% | 0hPa | 2.6V | 00:00:00 | 00:00:00 | 00:00:00 | |
| 9A1FER-3 | 2026-09-06 00:43:39 | 45.47886 | 16.81898 | 7° | 7km/h | 25729m | 4.9m/s | -52.1°C | 4.2% | 0hPa | 2.6V | 00:00:00 | 01:38:38 | 00:00:00 | |
| OE5DRO-10 | 2026-09-06 00:43:36 | 45.47889 | 16.81896 | 164° | 7km/h | 25711m | 6.0m/s | -52.3°C | 4.2% | 0hPa | 2.6V | 00:00:00 | 00:00:00 | 00:00:00 | |
| PG1ADW-2 | 2026-09-06 00:43:32 | 45.47896 | 16.81892 | 157° | 9km/h | 25686m | 7.3m/s | -52.3°C | 4.3% | 0hPa | 2.6V | 00:00:00 | 00:00:00 | 00:00:00 | |
| S57NTA-12 | 2026-09-06 00:43:29 | 45.47903 | 16.81886 | 129° | 9km/h | 25667m | 7.3m/s | -52.3°C | 1.2% | 0hPa | 2.6V | 00:00:00 | 00:00:00 | 00:00:00 | |
| 9A1FER-3 | 2026-09-06 00:43:24 | 45.47906 | 16.81872 | 106° | 11km/h | 25638m | 4.9m/s | -52.2°C | 4.3% | 0hPa | 2.6V | 00:00:00 | 01:38:23 | 00:00:00 | |
| OE5DRO-10 | 2026-09-06 00:43:17 | 45.47910 | 16.81858 | 130° | 11km/h | 25593m | 6.1m/s | -52.0°C | 4.2% | 0hPa | 2.6V | 00:00:00 | 00:00:00 | 00:00:00 | |
| PETON7-10 | 2026-09-06 00:43:14 | 45.47917 | 16.81848 | 140° | 11km/h | 25575m | 4.3m/s | -51.8°C | 4.2% | 0hPa | 2.6V | 00:00:00 | 00:00:00 | 08:30:00 | |
| PG1ADW-2 | 2026-09-06 00:43:12 | 45.47923 | 16.81840 | 120° | 13km/h | 25563m | 6.8m/s | -51.7°C | 4.2% | 0hPa | 2.6V | 00:00:00 | 00:00:00 | 00:00:00 | |
| S57NTA-12 | 2026-09-06 00:43:09 | 45.47928 | 16.81826 | 135° | 13km/h | 25544m | 6.1m/s | -51.6°C | 1.1% | 0hPa | 2.6V | 00:00:00 | 00:00:00 | 00:00:00 | |
| PETON7-10 | 2026-09-06 00:42:59 | 45.47948 | 16.81808 | 124° | 16km/h | 25482m | 4.8m/s | -51.3°C | 4.0% | 0hPa | 2.6V | 00:00:00 | 00:00:00 | 00:00:00 | |
| OE5DRO-10 | 2026-09-06 00:42:58 | 45.47950 | 16.81804 | 125° | 16km/h | 25476m | 7.5m/s | -51.3°C | 4.0% | 0hPa | 2.6V | 00:00:00 | 00:00:00 | 00:00:00 | |
| 9A1FER-3 | 2026-09-06 00:42:54 | 45.47958 | 16.81780 | 103° | 15km/h | 25451m | 4.9m/s | -51.3°C | 4.0% | 0hPa | 2.6V | 00:00:00 | 01:37:53 | 00:00:00 | |
| PG1ADW-2 | 2026-09-06 00:42:52 | 45.47961 | 16.81769 | 130° | 15km/h | 25439m | 6.7m/s | -51.3°C | 4.0% | 0hPa | 2.6V | 00:00:00 | 00:00:00 | 00:00:00 | |
| S57NTA-12 | 2026-09-06 00:42:46 | 45.47976 | 16.81756 | 149° | 15km/h | 25409m | 5.8m/s | -51.2°C | 1.1% | 0hPa | 2.7V | 00:00:00 | 00:00:00 | 00:00:00 | |
| PETON7-10 | 2026-09-06 00:42:44 | 45.47987 | 16.81746 | 140° | 15km/h | 25390m | 5.5m/s | -51.2°C | 4.0% | 0hPa | 2.7V | 00:00:00 | 01:37:43 | 00:00:00 | |
| 9A1FER-3 | 2026-09-06 00:42:39 | 45.47994 | 16.81723 | 107° | 13km/h | 25359m | 5.4m/s | -51.2°C | 4.0% | 0hPa | 2.7V | 00:00:00 | 01:37:38 | 00:00:00 | |
| PG1ADW-2 | 2026-09-06 00:42:32 | 45.48007 | 16.81699 | 146° | 13km/h | 25315m | 7.2m/s | -51.4°C | 4.0% | 0hPa | 2.6V | 00:00:00 | 01:37:31 | 00:00:00 | |
| PETON7-10 | 2026-09-06 00:42:29 | 45.48014 | 16.81687 | 124° | 13km/h | 25297m | 6.9m/s | -51.5°C | 4.1% | 0hPa | 2.6V | 00:00:00 | 00:00:00 | 00:00:00 | |
| S57NTA-12 | 2026-09-06 00:42:25 | 45.48018 | 16.81675 | 89° | 13km/h | 25278m | 7.4m/s | -51.5°C | 1.1% | 0hPa | 2.7V | 00:00:00 | 00:00:00 | 00:00:00 | |
| 9A1FER-3 | 2026-09-06 00:42:24 | 45.48015 | 16.81664 | 60° | 13km/h | 25265m | 5.4m/s | -51.4°C | 4.0% | 0hPa | 2.7V | 00:00:00 | 01:37:23 | 00:00:00 | |
| OE5DRO-10 | 2026-09-06 00:42:20 | 45.48010 | 16.81650 | 73° | 11km/h | 25241m | 7.2m/s | -51.6°C | 4.1% | 0hPa | 2.7V | 00:00:00 | 00:00:00 | 00:00:00 | |
| PETON7-10 | 2026-09-06 00:42:14 | 45.48016 | 16.81625 | 111° | 11km/h | 25203m | 5.3m/s | -51.5°C | 4.1% | 0hPa | 2.7V | 00:00:00 | 00:00:00 | 00:00:00 | |
| PG1ADW-2 | 2026-09-06 00:42:12 | 45.48019 | 16.81615 | 118° | 9km/h | 25191m | 7.1m/s | -51.6°C | 4.1% | 0hPa | 2.7V | 00:00:00 | 00:00:00 | 00:00:00 | |
| 9A1FER-3 | 2026-09-06 00:42:09 | 45.48021 | 16.81606 | 84° | 9km/h | 25172m | 7.3m/s | -51.7°C | 4.1% | 0hPa | 2.7V | 00:00:00 | 01:37:08 | 00:00:00 | |
| S57NTA-12 | 2026-09-06 00:42:04 | 45.48017 | 16.81599 | 3° | 5km/h | 25148m | 5.1m/s | -51.7°C | 1.2% | 0hPa | 2.7V | 00:00:00 | 00:00:00 | 00:00:00 | |
| OE5DRO-10 | 2026-09-06 00:42:01 | 45.48014 | 16.81589 | 99° | 11km/h | 25126m | 4.8m/s | -51.5°C | 4.1% | 0hPa | 2.7V | 00:00:00 | 00:00:00 | 00:00:00 | |
| PETON7-10 | 2026-09-06 00:41:59 | 45.48016 | 16.81580 | 122° | 9km/h | 25113m | 5.5m/s | -51.5°C | 4.0% | 0hPa | 2.7V | 00:00:00 | 01:36:58 | 00:00:00 | |
| 9A1FER-3 | 2026-09-06 00:41:54 | 45.48019 | 16.81563 | 16° | 9km/h | 25083m | 6.8m/s | -51.4°C | 4.0% | 0hPa | 2.7V | 00:00:00 | 01:36:53 | 08:30:00 | |
| PG1ADW-2 | 2026-09-06 00:41:52 | 45.48017 | 16.81564 | 344° | 11km/h | 25072m | 6.7m/s | -51.4°C | 4.0% | 0hPa | 2.6V | 00:00:00 | 00:00:00 | 00:00:00 | |
| PETON7-10 | 2026-09-06 00:41:44 | 45.48032 | 16.81546 | 143° | 13km/h | 25022m | 7.5m/s | -51.4°C | 4.0% | 0hPa | 2.7V | 00:00:00 | 00:00:00 | 00:00:00 | |
| OE5DRO-10 | 2026-09-06 00:41:42 | 45.48038 | 16.81541 | 147° | 15km/h | 25010m | 6.1m/s | -51.4°C | 4.0% | 0hPa | 2.6V | 00:00:00 | 00:00:00 | 00:00:00 | |
| 9A1FER-3 | 2026-09-06 00:41:39 | 45.48042 | 16.81537 | 162° | 15km/h | 24992m | 6.4m/s | -51.4°C | 4.1% | 0hPa | 2.5V | 00:00:00 | 01:36:38 | 00:00:00 | |
| PG1ADW-2 | 2026-09-06 00:41:32 | 45.48066 | 16.81523 | 157° | 18km/h | 24950m | 6.7m/s | -51.3°C | 4.0% | 0hPa | 2.5V | 00:00:00 | 00:00:00 | 00:00:00 | |
| PETON7-10 | 2026-09-06 00:41:29 | 45.48076 | 16.81516 | 144° | 18km/h | 24931m | 5.8m/s | -51.3°C | 4.0% | 0hPa | 2.5V | 00:00:00 | 00:00:00 | 00:00:00 | |
| S57NTA-12 | 2026-09-06 00:41:24 | 45.48094 | 16.81505 | 157° | 18km/h | 24901m | 6.3m/s | -51.3°C | 1.1% | 0hPa | 2.5V | 00:00:00 | 00:00:00 | 00:00:00 | |
| OE5DRO-10 | 2026-09-06 00:41:23 | 45.48098 | 16.81502 | 145° | 22km/h | 24895m | 6.3m/s | -51.2°C | 4.0% | 0hPa | 2.5V | 00:00:00 | 00:00:00 | 00:00:00 | |
| PETON7-10 | 2026-09-06 00:41:14 | 45.48138 | 16.81469 | 161° | 24km/h | 24839m | 5.1m/s | -51.4°C | 4.0% | 0hPa | 2.5V | 00:00:00 | 01:36:13 | 00:00:00 | |
| PG1ADW-2 | 2026-09-06 00:41:12 | 45.48151 | 16.81461 | 153° | 26km/h | 24826m | 6.6m/s | -51.5°C | 4.0% | 0hPa | 2.5V | 00:00:00 | 01:36:11 | 00:00:00 | |
| 9A1FER-3 | 2026-09-06 00:41:09 | 45.48169 | 16.81448 | 155° | 26km/h | 24807m | 5.7m/s | -51.5°C | 4.0% | 0hPa | 2.5V | 00:00:00 | 01:36:08 | 00:00:00 | |
| OE5DRO-10 | 2026-09-06 00:41:04 | 45.48190 | 16.81425 | 149° | 29km/h | 24777m | 6.5m/s | -51.5°C | 3.9% | 0hPa | 2.7V | 00:00:00 | 00:00:00 | 00:00:00 | |
| PETON7-10 | 2026-09-06 00:40:59 | 45.48215 | 16.81405 | 155° | 33km/h | 24745m | 7.6m/s | -51.6°C | 4.0% | 0hPa | 2.7V | 00:00:00 | 00:00:00 | 08:30:00 | |
| 9A1FER-3 | 2026-09-06 00:40:54 | 45.48249 | 16.81373 | 139° | 31km/h | 24715m | 5.5m/s | -51.8°C | 4.0% | 0hPa | 2.6V | 00:00:00 | 01:35:53 | 00:00:00 | |
| PG1ADW-2 | 2026-09-06 00:40:52 | 45.48264 | 16.81356 | 140° | 29km/h | 24703m | 5.8m/s | -51.9°C | 4.0% | 0hPa | 2.6V | 00:00:00 | 00:00:00 | 08:30:00 | |
| OE5DRO-10 | 2026-09-06 00:40:45 | 45.48300 | 16.81299 | 129° | 27km/h | 24661m | 6.4m/s | -52.1°C | 4.1% | 0hPa | 2.6V | 00:00:00 | 00:00:00 | 00:00:00 | |
| PETON7-10 | 2026-09-06 00:40:44 | 45.48305 | 16.81291 | 128° | 27km/h | 24654m | 6.4m/s | -52.1°C | 4.1% | 0hPa | 2.6V | 00:00:00 | 00:00:00 | 00:00:00 | |
| S57NTA-12 | 2026-09-06 00:40:41 | 45.48314 | 16.81273 | 131° | 31km/h | 24641m | 7.3m/s | -52.2°C | 1.2% | 0hPa | 2.6V | 00:00:00 | 00:00:00 | 00:00:00 | |
| 9A1FER-3 | 2026-09-06 00:40:39 | 45.48329 | 16.81248 | 125° | 27km/h | 24624m | 7.0m/s | -52.1°C | 4.1% | 0hPa | 2.6V | 00:00:00 | 01:35:38 | 00:00:00 | |
| PG1ADW-2 | 2026-09-06 00:40:32 | 45.48355 | 16.81191 | 123° | 29km/h | 24579m | 5.2m/s | 0°C | 0% | 0hPa | 2.6V | 00:00:00 | 00:00:00 | 00:00:00 | |
| PETON7-10 | 2026-09-06 00:40:29 | 45.48365 | 16.81167 | 115° | 29km/h | 24561m | 6.0m/s | -52.3°C | 4.2% | 0hPa | 2.6V | 00:00:00 | 01:35:28 | 00:00:00 | |
| OE5DRO-10 | 2026-09-06 00:40:26 | 45.48370 | 16.81142 | 108° | 31km/h | 24544m | 6.1m/s | -52.2°C | 4.2% | 0hPa | 2.6V | 00:00:00 | 00:00:00 | 00:00:00 | |
| 9A1FER-3 | 2026-09-06 00:40:24 | 45.48376 | 16.81123 | 121° | 31km/h | 24532m | 7.3m/s | -52.2°C | 4.2% | 0hPa | 2.6V | 00:00:00 | 01:35:23 | 00:00:00 | |
| S57NTA-12 | 2026-09-06 00:40:20 | 45.48389 | 16.81095 | 119° | 33km/h | 24513m | 6.7m/s | -52.4°C | 1.2% | 0hPa | 2.5V | 00:00:00 | 00:00:00 | 00:00:00 | |
| PETON7-10 | 2026-09-06 00:40:14 | 45.48403 | 16.81024 | 91° | 27km/h | 24470m | 5.5m/s | -52.1°C | 4.0% | 0hPa | 2.5V | 00:00:00 | 00:00:00 | 00:00:00 | |
| PG1ADW-2 | 2026-09-06 00:40:12 | 45.48403 | 16.81001 | 96° | 26km/h | 24457m | 6.1m/s | 0°C | 0% | 0hPa | 2.7V | 00:00:00 | 00:00:00 | 00:00:00 | |
| 9A1FER-3 | 2026-09-06 00:40:09 | 45.48407 | 16.80969 | 101° | 26km/h | 24439m | 5.0m/s | -52.2°C | 4.0% | 0hPa | 2.7V | 00:00:00 | 01:35:08 | 00:00:00 | |
| OE5DRO-10 | 2026-09-06 00:40:07 | 45.48410 | 16.80949 | 107° | 26km/h | 24427m | 6.6m/s | -52.4°C | 4.0% | 0hPa | 2.7V | 00:00:00 | 00:00:00 | 00:00:00 | |
| S57NTA-12 | 2026-09-06 00:40:00 | 45.48423 | 16.80896 | 106° | 26km/h | 24391m | 6.4m/s | -52.9°C | 1.2% | 0hPa | 2.7V | 00:00:00 | 00:00:00 | 00:00:00 | |
| PETON7-10 | 2026-09-06 00:39:59 | 45.48426 | 16.80880 | 99° | 26km/h | 24379m | 5.6m/s | -53.4°C | 4.4% | 0hPa | 2.7V | 00:00:00 | 00:00:00 | 00:00:00 | |
| 9A1FER-3 | 2026-09-06 00:39:54 | 45.48426 | 16.80839 | 80° | 26km/h | 24347m | 5.0m/s | -53.4°C | 4.5% | 0hPa | 2.7V | 00:00:00 | 01:34:53 | 00:00:00 | |
| PG1ADW-2 | 2026-09-06 00:39:52 | 45.48424 | 16.80823 | 79° | 26km/h | 24335m | 6.5m/s | 0°C | 0% | 0hPa | 2.7V | 00:00:00 | 01:34:51 | 00:00:00 | |
| OE5DRO-10 | 2026-09-06 00:39:48 | 45.48417 | 16.80785 | 75° | 26km/h | 24309m | 6.0m/s | -53.5°C | 4.4% | 0hPa | 2.7V | 00:00:00 | 00:00:00 | 08:30:00 | |
| PETON7-10 | 2026-09-06 00:39:44 | 45.48410 | 16.80744 | 77° | 24km/h | 24284m | 6.8m/s | -53.4°C | 4.4% | 0hPa | 2.6V | 00:00:00 | 01:34:43 | 00:00:00 | |
| S57NTA-12 | 2026-09-06 00:39:40 | 45.48406 | 16.80718 | 82° | 26km/h | 24266m | 6.2m/s | -53.4°C | 1.2% | 0hPa | 2.6V | 00:00:00 | 00:00:00 | 00:00:00 | |
| 9A1FER-3 | 2026-09-06 00:39:39 | 45.48404 | 16.80701 | 77° | 24km/h | 24255m | 6.3m/s | -53.3°C | 4.3% | 0hPa | 2.6V | 00:00:00 | 01:34:38 | 08:30:00 | |
| PETON7-10 | 2026-09-06 00:39:29 | 45.48389 | 16.80619 | 90° | 18km/h | 24193m | 5.6m/s | -53.5°C | 4.5% | 0hPa | 2.6V | 00:00:00 | 00:00:00 | 00:00:00 | |
| PG1ADW-2 | 2026-09-06 00:39:28 | 45.48389 | 16.80610 | 93° | 16km/h | 24188m | 5.7m/s | 0°C | 0% | 0hPa | 2.6V | 00:00:00 | 00:00:00 | 00:00:00 | |
| 9A1FER-3 | 2026-09-06 00:39:24 | 45.48391 | 16.80582 | 101° | 16km/h | 24163m | 5.4m/s | -53.5°C | 4.5% | 0hPa | 2.6V | 00:00:00 | 01:34:23 | 00:00:00 | |
| S57NTA-12 | 2026-09-06 00:39:19 | 45.48396 | 16.80557 | 108° | 15km/h | 24139m | 5.5m/s | -53.4°C | 1.3% | 0hPa | 2.6V | 00:00:00 | 00:00:00 | 00:00:00 | |
| OE5DXL-15 | 2026-09-06 00:39:16 | 45.48395 | 16.80533 | 69° | 18km/h | 24115m | 7.2m/s | -53.2°C | 4.4% | 0hPa | 2.6V | 00:00:00 | 00:00:00 | 08:30:00 | |
| PETON7-10 | 2026-09-06 00:39:14 | 45.48391 | 16.80523 | 61° | 18km/h | 24103m | 5.5m/s | -53.1°C | 4.4% | 0hPa | 2.6V | 00:00:00 | 00:00:00 | 00:00:00 | |
| 9A1FER-3 | 2026-09-06 00:39:09 | 45.48386 | 16.80500 | 81° | 18km/h | 24073m | 4.8m/s | -53.1°C | 4.3% | 0hPa | 2.6V | 00:00:00 | 01:34:08 | 00:00:00 | |
| PG1ADW-2 | 2026-09-06 00:39:08 | 45.48385 | 16.80495 | 80° | 20km/h | 24069m | 5.2m/s | 0°C | 0% | 0hPa | 2.6V | 00:00:00 | 00:00:00 | 00:00:00 | |
| PETON7-10 | 2026-09-06 00:38:59 | 45.48378 | 16.80427 | 84° | 20km/h | 24014m | 7.3m/s | -53.1°C | 4.3% | 0hPa | 2.6V | 00:00:00 | 01:33:58 | 00:00:00 | |
| S57NTA-12 | 2026-09-06 00:38:58 | 45.48377 | 16.80427 | 85° | 18km/h | 24014m | 7.4m/s | -53.2°C | 1.3% | 0hPa | 2.6V | 00:00:00 | 00:00:00 | 00:00:00 | |
| 9A1FER-3 | 2026-09-06 00:38:54 | 45.48369 | 16.80401 | 45° | 20km/h | 23984m | 5.6m/s | -53.3°C | 4.4% | 0hPa | 2.6V | 00:00:00 | 01:33:53 | 00:00:00 | |
| PG1ADW-2 | 2026-09-06 00:38:48 | 45.48345 | 16.80368 | 53° | 20km/h | 23949m | 6.1m/s | 0°C | 0% | 0hPa | 2.6V | 00:00:00 | 00:00:00 | 00:00:00 | |
| OE5DXL-15 | 2026-09-06 00:38:45 | 45.48338 | 16.80349 | 75° | 22km/h | 23931m | 7.0m/s | -53.3°C | 4.3% | 0hPa | 2.6V | 00:00:00 | 00:00:00 | 00:00:00 | |
| PETON7-10 | 2026-09-06 00:38:44 | 45.48337 | 16.80342 | 85° | 16km/h | 23924m | 5.8m/s | -53.3°C | 4.3% | 0hPa | 2.6V | 00:00:00 | 00:00:00 | 08:30:00 | |
| 9A1FER-3 | 2026-09-06 00:38:39 | 45.48336 | 16.80315 | 70° | 16km/h | 23895m | 5.2m/s | -53.3°C | 4.3% | 0hPa | 2.7V | 00:00:00 | 01:33:38 | 00:00:00 | |
| S57NTA-12 | 2026-09-06 00:38:38 | 45.48336 | 16.80315 | 70° | 16km/h | 23895m | 5.2m/s | -53.3°C | 1.3% | 0hPa | 2.7V | 00:00:00 | 00:00:00 | 00:00:00 | |
| OE5DRO-10 | 2026-09-06 00:38:30 | 45.48309 | 16.80279 | 61° | 16km/h | 23844m | 3.7m/s | -53.8°C | 4.5% | 0hPa | 2.7V | 00:00:00 | 00:00:00 | 00:00:00 | |
| PETON7-10 | 2026-09-06 00:38:29 | 45.48308 | 16.80275 | 67° | 16km/h | 23838m | 6.8m/s | -53.9°C | 4.5% | 0hPa | 2.7V | 00:00:00 | 00:00:00 | 00:00:00 | |
| 9A1FER-3 | 2026-09-06 00:38:24 | 45.48297 | 16.80251 | 40° | 16km/h | 23809m | 4.6m/s | -54.0°C | 4.6% | 0hPa | 2.7V | 00:00:00 | 01:33:23 | 00:00:00 | |
| S57NTA-12 | 2026-09-06 00:38:16 | 45.48279 | 16.80226 | 28° | 15km/h | 23769m | 7.1m/s | -53.9°C | 1.3% | 0hPa | 2.7V | 00:00:00 | 00:00:00 | 00:00:00 | |
| PETON7-10 | 2026-09-06 00:38:14 | 45.48266 | 16.80219 | 16° | 16km/h | 23750m | 7.1m/s | -53.8°C | 4.6% | 0hPa | 2.7V | 00:00:00 | 01:33:13 | 00:00:00 | |
| 9A1FER-3 | 2026-09-06 00:38:09 | 45.48243 | 16.80206 | 38° | 15km/h | 23721m | 5.6m/s | -53.8°C | 4.6% | 0hPa | 2.7V | 00:00:00 | 01:33:08 | 00:00:00 | |
| OE5DRO-10 | 2026-09-06 00:38:04 | 45.48229 | 16.80191 | 32° | 15km/h | 23692m | 4.9m/s | -53.7°C | 4.6% | 0hPa | 2.7V | 00:00:00 | 00:00:00 | 00:00:00 | |
| PETON7-10 | 2026-09-06 00:37:59 | 45.48211 | 16.80188 | 6° | 16km/h | 23663m | 5.1m/s | -53.6°C | 4.6% | 0hPa | 2.6V | 00:00:00 | 00:00:00 | 00:00:00 | |
| 9A1FER-3 | 2026-09-06 00:37:54 | 45.48193 | 16.80186 | 25° | 15km/h | 23632m | 5.6m/s | -53.5°C | 4.5% | 0hPa | 2.7V | 00:00:00 | 01:32:53 | 00:00:00 | |
| S57NTA-12 | 2026-09-06 00:37:53 | 45.48192 | 16.80186 | 26° | 16km/h | 23632m | 5.6m/s | -53.6°C | 1.3% | 0hPa | 2.7V | 00:00:00 | 00:00:00 | 00:00:00 | |
| OE5DRO-10 | 2026-09-06 00:37:45 | 45.48161 | 16.80163 | 2° | 18km/h | 23579m | 5.5m/s | -53.3°C | 4.4% | 0hPa | 2.7V | 00:00:00 | 00:00:00 | 00:00:00 | |
| PETON7-10 | 2026-09-06 00:37:44 | 45.48157 | 16.80163 | 4° | 18km/h | 23573m | 7.1m/s | -53.3°C | 4.4% | 0hPa | 2.7V | 00:00:00 | 00:00:00 | 00:00:00 | |
| 9A1FER-3 | 2026-09-06 00:37:39 | 45.48139 | 16.80158 | 14° | 20km/h | 23545m | 4.5m/s | -53.5°C | 4.5% | 0hPa | 2.7V | 00:00:00 | 01:32:38 | 00:00:00 | |
| PG1ADW-2 | 2026-09-06 00:37:35 | 45.48122 | 16.80143 | 44° | 26km/h | 23522m | 7.1m/s | 0°C | 0% | 0hPa | 2.7V | 00:00:00 | 00:00:00 | 00:00:00 | |
| S57NTA-12 | 2026-09-06 00:37:34 | 45.48118 | 16.80137 | 52° | 22km/h | 23516m | 5.3m/s | -53.5°C | 1.3% | 0hPa | 2.7V | 00:00:00 | 00:00:00 | 00:00:00 | |
| PETON7-10 | 2026-09-06 00:37:29 | 45.48100 | 16.80109 | 34° | 24km/h | 23485m | 5.3m/s | -53.3°C | 4.5% | 0hPa | 2.7V | 00:00:00 | 01:32:28 | 00:00:00 | |
| OE5DRO-10 | 2026-09-06 00:37:26 | 45.48089 | 16.80104 | 16° | 26km/h | 23469m | 5.9m/s | -53.2°C | 4.4% | 0hPa | 2.7V | 00:00:00 | 00:00:00 | 00:00:00 | |
| 9A1FER-3 | 2026-09-06 00:37:24 | 45.48078 | 16.80099 | 22° | 26km/h | 23457m | 5.8m/s | -53.1°C | 4.4% | 0hPa | 2.7V | 00:00:00 | 01:32:23 | 08:30:00 | |
| PETON7-10 | 2026-09-06 00:37:14 | 45.48020 | 16.80045 | 31° | 27km/h | 23399m | 6.8m/s | -52.8°C | 4.3% | 0hPa | 2.7V | 00:00:00 | 00:00:00 | 00:00:00 | |
| S57NTA-12 | 2026-09-06 00:37:12 | 45.48015 | 16.80042 | 29° | 24km/h | 23392m | 4.8m/s | -52.9°C | 1.3% | 0hPa | 2.6V | 00:00:00 | 00:00:00 | 00:00:00 | |
| 9A1FER-3 | 2026-09-06 00:37:09 | 45.47994 | 16.80027 | 23° | 27km/h | 23369m | 7.3m/s | -52.9°C | 4.3% | 0hPa | 2.6V | 00:00:00 | 01:32:08 | 00:00:00 | |
| OE5DRO-10 | 2026-09-06 00:37:07 | 45.47981 | 16.80018 | 30° | 26km/h | 23357m | 7.0m/s | -53.0°C | 4.4% | 0hPa | 2.6V | 00:00:00 | 00:00:00 | 00:00:00 | |
| PETON7-10 | 2026-09-06 00:36:59 | 45.47933 | 16.79968 | 24° | 24km/h | 23311m | 6.0m/s | -52.9°C | 4.4% | 0hPa | 2.6V | 00:00:00 | 00:00:00 | 00:00:00 | |
| 9A1FER-3 | 2026-09-06 00:36:54 | 45.47906 | 16.79953 | 27° | 22km/h | 23283m | 4.5m/s | -52.9°C | 4.4% | 0hPa | 2.6V | 00:00:00 | 01:31:53 | 00:00:00 | |
| S57NTA-12 | 2026-09-06 00:36:51 | 45.47893 | 16.79947 | 18° | 27km/h | 23271m | 5.9m/s | -52.9°C | 1.3% | 0hPa | 2.6V | 00:00:00 | 00:00:00 | 00:00:00 | |
| PETON7-10 | 2026-09-06 00:36:44 | 45.47845 | 16.79935 | 2° | 16km/h | 23225m | 6.0m/s | -52.6°C | 4.2% | 0hPa | 2.6V | 00:00:00 | 01:31:43 | 00:00:00 | |
| 9A1FER-3 | 2026-09-06 00:36:39 | 45.47823 | 16.79938 | 355° | 16km/h | 23194m | 7.2m/s | -52.7°C | 4.3% | 0hPa | 2.6V | 00:00:00 | 01:31:38 | 00:00:00 | |
| OE5DXL-15 | 2026-09-06 00:36:38 | 45.47819 | 16.79939 | 358° | 18km/h | 23188m | 6.1m/s | -52.6°C | 4.2% | 0hPa | 2.6V | 00:00:00 | 00:00:00 | 00:00:00 | |
| PETON7-10 | 2026-09-06 00:36:29 | 45.47783 | 16.79945 | 13° | 18km/h | 23135m | 7.4m/s | -52.8°C | 4.2% | 0hPa | 2.7V | 00:00:00 | 00:00:00 | 08:30:00 | |
| 9A1FER-3 | 2026-09-06 00:36:24 | 45.47762 | 16.79950 | 310° | 16km/h | 23105m | 6.3m/s | -53.3°C | 4.3% | 0hPa | 2.6V | 00:00:00 | 01:31:23 | 00:00:00 | |
| PETON7-10 | 2026-09-06 00:36:14 | 45.47740 | 16.80004 | 339° | 13km/h | 23043m | 6.0m/s | -53.6°C | 4.4% | 0hPa | 2.6V | 00:00:00 | 00:00:00 | 00:00:00 | |
| 9A1FER-3 | 2026-09-06 00:36:09 | 45.47733 | 16.80024 | 260° | 11km/h | 23013m | 6.2m/s | -53.5°C | 4.4% | 0hPa | 2.6V | 00:00:00 | 01:31:08 | 00:00:00 | |
| PETON7-10 | 2026-09-06 00:35:59 | 45.47732 | 16.80059 | 15° | 11km/h | 22954m | 6.7m/s | -53.4°C | 4.3% | 0hPa | 2.6V | 00:00:00 | 01:30:58 | 00:00:00 | |
| 9A1FER-3 | 2026-09-06 00:35:54 | 45.47734 | 16.80077 | 265° | 11km/h | 22923m | 5.9m/s | -54.0°C | 4.4% | 0hPa | 2.6V | 00:00:00 | 01:30:53 | 00:00:00 | |
| S57NTA-12 | 2026-09-06 00:35:48 | 45.47735 | 16.80110 | 291° | 13km/h | 22894m | 5.3m/s | -54.4°C | 1.3% | 0hPa | 2.6V | 00:00:00 | 00:00:00 | 00:00:00 | |
| PETON7-10 | 2026-09-06 00:35:44 | 45.47734 | 16.80118 | 253° | 7km/h | 22863m | 5.0m/s | -54.1°C | 4.6% | 0hPa | 2.6V | 00:00:00 | 00:00:00 | 00:00:00 | |
| 9A1FER-3 | 2026-09-06 00:35:39 | 45.47742 | 16.80128 | 232° | 9km/h | 22832m | 4.4m/s | -54.0°C | 4.6% | 0hPa | 2.6V | 00:00:00 | 01:30:38 | 00:00:00 | |
| PETON7-10 | 2026-09-06 00:35:29 | 45.47755 | 16.80127 | 154° | 13km/h | 22771m | 6.7m/s | -53.7°C | 4.5% | 0hPa | 2.6V | 00:00:00 | 00:00:00 | 00:00:00 | |
| S57NTA-12 | 2026-09-06 00:35:26 | 45.47763 | 16.80125 | 184° | 15km/h | 22753m | 5.2m/s | -53.7°C | 1.3% | 0hPa | 2.6V | 00:00:00 | 00:00:00 | 00:00:00 | |
| 9A1FER-3 | 2026-09-06 00:35:24 | 45.47770 | 16.80128 | 205° | 15km/h | 22742m | 6.6m/s | -53.7°C | 4.4% | 0hPa | 2.6V | 00:00:00 | 01:30:23 | 00:00:00 | |
| OE5DRO-10 | 2026-09-06 00:35:15 | 45.47795 | 16.80124 | 125° | 20km/h | 22690m | 7.3m/s | -54.1°C | 4.6% | 0hPa | 2.6V | 00:00:00 | 00:00:00 | 00:00:00 | |
| PETON7-10 | 2026-09-06 00:35:14 | 45.47797 | 16.80120 | 127° | 20km/h | 22684m | 5.1m/s | -54.1°C | 4.6% | 0hPa | 2.6V | 00:00:00 | 01:30:13 | 00:00:00 | |
| 9A1FER-3 | 2026-09-06 00:35:09 | 45.47814 | 16.80097 | 146° | 22km/h | 22653m | 5.6m/s | -54.0°C | 4.5% | 0hPa | 2.6V | 00:00:00 | 01:30:08 | 08:30:00 | |
| PETON7-10 | 2026-09-06 00:34:59 | 45.47848 | 16.80044 | 103° | 22km/h | 22593m | 5.1m/s | -54.1°C | 4.6% | 0hPa | 2.6V | 00:00:00 | 00:00:00 | 00:00:00 | |
| 9A1FER-3 | 2026-09-06 00:34:54 | 45.47857 | 16.80004 | 124° | 18km/h | 22564m | 5.6m/s | -54.0°C | 4.5% | 0hPa | 2.6V | 00:00:00 | 01:29:53 | 00:00:00 | |
| PETON7-10 | 2026-09-06 00:34:44 | 45.47890 | 16.79955 | 120° | 18km/h | 22504m | 5.9m/s | -54.3°C | 4.5% | 0hPa | 2.6V | 00:00:00 | 00:00:00 | 00:00:00 | |
| S57NTA-12 | 2026-09-06 00:34:42 | 45.47892 | 16.79950 | 116° | 15km/h | 22498m | 6.1m/s | -54.3°C | 1.3% | 0hPa | 2.6V | 00:00:00 | 00:00:00 | 00:00:00 | |
| 9A1FER-3 | 2026-09-06 00:34:39 | 45.47899 | 16.79932 | 136° | 18km/h | 22475m | 7.7m/s | -54.3°C | 4.6% | 0hPa | 2.6V | 00:00:00 | 01:29:38 | 00:00:00 | |
| PETON7-10 | 2026-09-06 00:34:29 | 45.47943 | 16.79909 | 148° | 20km/h | 22414m | 6.1m/s | -54.5°C | 4.6% | 0hPa | 2.6V | 00:00:00 | 01:29:28 | 00:00:00 | |
| OE5DRO-10 | 2026-09-06 00:34:25 | 45.47958 | 16.79890 | 132° | 20km/h | 22391m | 4.8m/s | -54.5°C | 4.6% | 0hPa | 2.6V | 00:00:00 | 00:00:00 | 00:00:00 | |
| 9A1FER-3 | 2026-09-06 00:34:24 | 45.47961 | 16.79885 | 133° | 22km/h | 22385m | 7.2m/s | -54.6°C | 4.6% | 0hPa | 2.6V | 00:00:00 | 01:29:23 | 00:00:00 | |
| S57NTA-12 | 2026-09-06 00:34:21 | 45.47969 | 16.79874 | 133° | 20km/h | 22373m | 6.5m/s | -54.7°C | 1.4% | 0hPa | 2.6V | 00:00:00 | 00:00:00 | 00:00:00 | |
| PETON7-10 | 2026-09-06 00:34:14 | 45.47996 | 16.79832 | 129° | 22km/h | 22324m | 6.7m/s | -54.6°C | 4.7% | 0hPa | 2.6V | 00:00:00 | 00:00:00 | 08:30:00 | |
| 9A1FER-3 | 2026-09-06 00:34:09 | 45.48009 | 16.79794 | 106° | 20km/h | 22296m | 5.3m/s | -55.0°C | 4.9% | 0hPa | 2.6V | 00:00:00 | 01:29:08 | 00:00:00 | |
| OE5DRO-10 | 2026-09-06 00:34:05 | 45.48016 | 16.79765 | 98° | 18km/h | 22273m | 6.6m/s | -54.9°C | 4.9% | 0hPa | 2.6V | 00:00:00 | 00:00:00 | 00:00:00 | |
| S57NTA-12 | 2026-09-06 00:34:01 | 45.48017 | 16.79741 | 96° | 22km/h | 22255m | 6.5m/s | -54.8°C | 1.4% | 0hPa | 2.6V | 00:00:00 | 00:00:00 | 00:00:00 | |
| PETON7-10 | 2026-09-06 00:33:59 | 45.48018 | 16.79717 | 86° | 20km/h | 22237m | 5.4m/s | -54.6°C | 4.8% | 0hPa | 2.6V | 00:00:00 | 00:00:00 | 00:00:00 | |
| OE5DXL-15 | 2026-09-06 00:33:56 | 45.48018 | 16.79697 | 96° | 16km/h | 22219m | 6.3m/s | 0°C | 0% | 0hPa | 2.6V | 00:00:00 | 00:00:00 | 00:00:00 | |
| 9A1FER-3 | 2026-09-06 00:33:54 | 45.48018 | 16.79686 | 89° | 18km/h | 22207m | 4.6m/s | -54.4°C | 4.7% | 0hPa | 2.6V | 00:00:00 | 01:28:53 | 00:00:00 | |
| OE5DRO-10 | 2026-09-06 00:33:46 | 45.48027 | 16.79629 | 106° | 20km/h | 22159m | 5.5m/s | -54.3°C | 4.7% | 0hPa | 2.6V | 00:00:00 | 00:00:00 | 00:00:00 | |
| PETON7-10 | 2026-09-06 00:33:44 | 45.48029 | 16.79615 | 95° | 16km/h | 22149m | 6.1m/s | -54.2°C | 4.6% | 0hPa | 2.6V | 00:00:00 | 01:28:43 | 00:00:00 | |
| S57NTA-12 | 2026-09-06 00:33:41 | 45.48030 | 16.79597 | 101° | 15km/h | 22132m | 6.9m/s | -54.3°C | 1.4% | 0hPa | 2.6V | 00:00:00 | 00:00:00 | 00:00:00 | |
| 9A1FER-3 | 2026-09-06 00:33:39 | 45.48032 | 16.79588 | 108° | 15km/h | 22120m | 6.5m/s | -54.2°C | 4.6% | 0hPa | 2.6V | 00:00:00 | 01:28:38 | 00:00:00 | |
| PETON7-10 | 2026-09-06 00:33:29 | 45.48047 | 16.79529 | 115° | 9km/h | 22062m | 5.0m/s | -54.0°C | 4.5% | 0hPa | 2.6V | 00:00:00 | 00:00:00 | 00:00:00 | |
| OE5DXL-15 | 2026-09-06 00:33:26 | 45.48051 | 16.79520 | 159° | 7km/h | 22044m | 7.0m/s | 0°C | 0% | 0hPa | 2.6V | 00:00:00 | 00:00:00 | 00:00:00 | |
| 9A1FER-3 | 2026-09-06 00:33:24 | 45.48057 | 16.79519 | 174° | 9km/h | 22033m | 5.3m/s | -54.0°C | 4.5% | 0hPa | 2.6V | 00:00:00 | 01:28:23 | 00:00:00 | |
| S57NTA-12 | 2026-09-06 00:33:21 | 45.48062 | 16.79516 | 136° | 7km/h | 22016m | 5.3m/s | -54.1°C | 1.3% | 0hPa | 2.6V | 00:00:00 | 00:00:00 | 00:00:00 | |
| PETON7-10 | 2026-09-06 00:33:14 | 45.48067 | 16.79496 | 114° | 5km/h | 21977m | 5.1m/s | -54.2°C | 4.4% | 0hPa | 2.6V | 00:00:00 | 00:00:00 | 00:00:00 | |
| 9A1FER-3 | 2026-09-06 00:33:09 | 45.48074 | 16.79492 | 194° | 5km/h | 21949m | 5.1m/s | -54.5°C | 4.5% | 0hPa | 2.6V | 00:00:00 | 01:28:08 | 00:00:00 | |
| S57NTA-12 | 2026-09-06 00:33:00 | 45.48083 | 16.79495 | 57° | 5km/h | 21900m | 4.8m/s | -54.9°C | 1.4% | 0hPa | 2.6V | 00:00:00 | 00:00:00 | 00:00:00 | |
| PETON7-10 | 2026-09-06 00:32:59 | 45.48082 | 16.79494 | 83° | 9km/h | 21894m | 6.9m/s | -54.8°C | 4.7% | 0hPa | 2.6V | 00:00:00 | 01:27:58 | 00:00:00 | |
| OE5DXL-15 | 2026-09-06 00:32:56 | 45.48086 | 16.79489 | 168° | 11km/h | 21879m | 6.4m/s | 0°C | 0% | 0hPa | 2.6V | 00:00:00 | 01:27:55 | 00:00:00 | |
| 9A1FER-3 | 2026-09-06 00:32:54 | 45.48088 | 16.79491 | 228° | 11km/h | 21867m | 5.0m/s | -55.1°C | 4.7% | 0hPa | 2.6V | 00:00:00 | 01:27:53 | 08:30:00 | |
| PETON7-10 | 2026-09-06 00:32:44 | 45.48105 | 16.79491 | 109° | 13km/h | 21810m | 4.8m/s | -55.1°C | 4.9% | 0hPa | 2.6V | 00:00:00 | 00:00:00 | 00:00:00 | |
| 9A1FER-3 | 2026-09-06 00:32:39 | 45.48115 | 16.79473 | 162° | 9km/h | 21783m | 4.7m/s | -54.9°C | 4.8% | 0hPa | 2.6V | 00:00:00 | 01:27:38 | 00:00:00 | |
| S57NTA-12 | 2026-09-06 00:32:38 | 45.48116 | 16.79473 | 163° | 7km/h | 21783m | 4.8m/s | -55.0°C | 1.4% | 0hPa | 2.6V | 00:00:00 | 00:00:00 | 00:00:00 | |
| PETON7-10 | 2026-09-06 00:32:29 | 45.48143 | 16.79466 | 150° | 13km/h | 21726m | 5.2m/s | -54.8°C | 4.7% | 0hPa | 2.6V | 00:00:00 | 00:00:00 | 00:00:00 | |
| OE5DXL-15 | 2026-09-06 00:32:26 | 45.48148 | 16.79465 | 194° | 11km/h | 21709m | 5.3m/s | 0°C | 0% | 0hPa | 2.6V | 00:00:00 | 00:00:00 | 00:00:00 | |
| 9A1FER-3 | 2026-09-06 00:32:24 | 45.48152 | 16.79468 | 217° | 13km/h | 21698m | 6.6m/s | -54.7°C | 4.6% | 0hPa | 2.6V | 00:00:00 | 01:27:23 | 00:00:00 | |
| S57NTA-12 | 2026-09-06 00:32:19 | 45.48167 | 16.79480 | 198° | 15km/h | 21669m | 6.2m/s | -54.6°C | 1.4% | 0hPa | 2.6V | 00:00:00 | 00:00:00 | 00:00:00 | |
| PETON7-10 | 2026-09-06 00:32:11 | 45.48192 | 16.79485 | 188° | 15km/h | 21625m | 5.4m/s | -54.5°C | 4.6% | 0hPa | 2.6V | 00:00:00 | 01:27:10 | 00:00:00 | |
| 9A1FER-3 | 2026-09-06 00:32:09 | 45.48199 | 16.79485 | 167° | 15km/h | 21614m | 7.0m/s | -54.5°C | 4.6% | 0hPa | 2.6V | 00:00:00 | 01:27:08 | 00:00:00 | |
| S57NTA-12 | 2026-09-06 00:31:57 | 45.48236 | 16.79463 | 124° | 15km/h | 21551m | 5.3m/s | -54.9°C | 1.4% | 0hPa | 2.7V | 00:00:00 | 00:00:00 | 00:00:00 | |
| PETON7-10 | 2026-09-06 00:31:56 | 45.48241 | 16.79454 | 136° | 24km/h | 21539m | 6.5m/s | -54.9°C | 4.7% | 0hPa | 2.7V | 00:00:00 | 00:00:00 | 08:30:00 | |
| 9A1FER-3 | 2026-09-06 00:31:54 | 45.48249 | 16.79446 | 151° | 26km/h | 21528m | 5.6m/s | -54.9°C | 4.8% | 0hPa | 2.6V | 00:00:00 | 01:26:53 | 00:00:00 | |
| PETON7-10 | 2026-09-06 00:31:41 | 45.48314 | 16.79376 | 138° | 29km/h | 21454m | 5.3m/s | -55.1°C | 4.8% | 0hPa | 2.6V | 00:00:00 | 00:00:00 | 00:00:00 | |
| 9A1FER-3 | 2026-09-06 00:31:39 | 45.48325 | 16.79361 | 135° | 29km/h | 21442m | 5.2m/s | -55.1°C | 4.8% | 0hPa | 2.6V | 00:00:00 | 01:26:38 | 00:00:00 | |
| S57NTA-12 | 2026-09-06 00:31:37 | 45.48336 | 16.79345 | 136° | 31km/h | 21430m | 4.7m/s | -55.1°C | 1.5% | 0hPa | 2.6V | 00:00:00 | 00:00:00 | 00:00:00 | |
| PETON7-10 | 2026-09-06 00:31:26 | 45.48383 | 16.79257 | 127° | 29km/h | 21369m | 6.6m/s | -55.0°C | 4.7% | 0hPa | 2.6V | 00:00:00 | 01:26:25 | 00:00:00 | |
| 9A1FER-3 | 2026-09-06 00:31:24 | 45.48393 | 16.79240 | 129° | 27km/h | 21357m | 6.1m/s | -55.1°C | 4.8% | 0hPa | 2.6V | 00:00:00 | 01:26:23 | 00:00:00 | |
| S57NTA-12 | 2026-09-06 00:31:17 | 45.48415 | 16.79174 | 98° | 27km/h | 21317m | 5.5m/s | -55.2°C | 1.5% | 0hPa | 2.7V | 00:00:00 | 00:00:00 | 00:00:00 | |
| PETON7-10 | 2026-09-06 00:31:11 | 45.48422 | 16.79117 | 110° | 24km/h | 21282m | 6.7m/s | -55.0°C | 4.7% | 0hPa | 2.7V | 00:00:00 | 00:00:00 | 00:00:00 | |
| 9A1FER-3 | 2026-09-06 00:31:09 | 45.48427 | 16.79099 | 112° | 22km/h | 21271m | 7.0m/s | -55.0°C | 4.7% | 0hPa | 2.7V | 00:00:00 | 01:26:08 | 00:00:00 | |
| S57NTA-12 | 2026-09-06 00:30:56 | 45.48451 | 16.79006 | 130° | 22km/h | 21196m | 4.9m/s | -55.3°C | 1.4% | 0hPa | 2.7V | 00:00:00 | 00:00:00 | 00:00:00 | |
| 9A1FER-3 | 2026-09-06 00:30:54 | 45.48458 | 16.78995 | 140° | 22km/h | 21184m | 5.0m/s | -55.6°C | 4.8% | 0hPa | 2.7V | 00:00:00 | 01:25:53 | 00:00:00 | |
| PETON7-10 | 2026-09-06 00:30:41 | 45.48501 | 16.78916 | 132° | 27km/h | 21110m | 6.7m/s | -56.0°C | 4.7% | 0hPa | 2.7V | 00:00:00 | 01:25:40 | 00:00:00 | |
| 9A1FER-3 | 2026-09-06 00:30:39 | 45.48510 | 16.78903 | 133° | 31km/h | 21099m | 6.0m/s | -56.0°C | 4.7% | 0hPa | 2.7V | 00:00:00 | 01:25:38 | 08:30:00 | |
| S57NTA-12 | 2026-09-06 00:30:35 | 45.48523 | 16.78872 | 116° | 33km/h | 21076m | 4.7m/s | -56.1°C | 1.5% | 0hPa | 2.6V | 00:00:00 | 00:00:00 | 00:00:00 | |
| PETON7-10 | 2026-09-06 00:30:26 | 45.48550 | 16.78767 | 116° | 38km/h | 21024m | 6.0m/s | -56.9°C | 5.0% | 0hPa | 2.6V | 00:00:00 | 00:00:00 | 00:00:00 | |
| 9A1FER-3 | 2026-09-06 00:30:24 | 45.48556 | 16.78749 | 110° | 37km/h | 21013m | 7.0m/s | -56.9°C | 5.0% | 0hPa | 2.7V | 00:00:00 | 01:25:23 | 00:00:00 | |
| S57NTA-12 | 2026-09-06 00:30:13 | 45.48589 | 16.78629 | 111° | 44km/h | 20955m | 6.5m/s | -57.8°C | 1.7% | 0hPa | 2.7V | 00:00:00 | 00:00:00 | 00:00:00 | |
| PETON7-10 | 2026-09-06 00:30:09 | 45.48606 | 16.78561 | 107° | 40km/h | 20926m | 6.4m/s | -57.7°C | 5.5% | 0hPa | 2.7V | 00:00:00 | 00:00:00 | 00:00:00 | |
| OE5DRO-10 | 2026-09-06 00:30:04 | 45.48615 | 16.78493 | 93° | 40km/h | 20898m | 6.6m/s | -57.6°C | 5.5% | 0hPa | 2.7V | 00:00:00 | 00:00:00 | 00:00:00 | |
| 9A1FER-3 | 2026-09-06 00:29:54 | 45.48621 | 16.78348 | 101° | 40km/h | 20840m | 6.6m/s | -57.4°C | 5.3% | 0hPa | 2.7V | 00:00:00 | 01:24:53 | 00:00:00 | |
| S57NTA-12 | 2026-09-06 00:29:52 | 45.48623 | 16.78333 | 98° | 42km/h | 20834m | 5.5m/s | -57.4°C | 1.7% | 0hPa | 2.7V | 00:00:00 | 00:00:00 | 00:00:00 | |
| OE5DRO-10 | 2026-09-06 00:29:45 | 45.48614 | 16.78215 | 77° | 38km/h | 20785m | 6.3m/s | -57.2°C | 5.3% | 0hPa | 2.7V | 00:00:00 | 00:00:00 | 00:00:00 | |
| 9A1FER-3 | 2026-09-06 00:29:39 | 45.48613 | 16.78135 | 95° | 38km/h | 20750m | 5.3m/s | -57.1°C | 5.2% | 0hPa | 2.7V | 00:00:00 | 01:24:38 | 00:00:00 | |
| S57NTA-12 | 2026-09-06 00:29:32 | 45.48601 | 16.78049 | 62° | 42km/h | 20715m | 6.1m/s | -57.1°C | 1.7% | 0hPa | 2.7V | 00:00:00 | 00:00:00 | 00:00:00 | |
| PETON7-10 | 2026-09-06 00:29:24 | 45.48575 | 16.77940 | 86° | 33km/h | 20663m | 5.0m/s | -57.0°C | 5.2% | 0hPa | 2.7V | 00:00:00 | 00:00:00 | 00:00:00 | |
| S57NTA-12 | 2026-09-06 00:29:12 | 45.48528 | 16.77821 | 68° | 26km/h | 20602m | 7.1m/s | -57.3°C | 1.7% | 0hPa | 2.7V | 00:00:00 | 00:00:00 | 00:00:00 | |
| 9A1FER-3 | 2026-09-06 00:29:09 | 45.48521 | 16.77786 | 70° | 24km/h | 20579m | 5.0m/s | -57.1°C | 5.4% | 0hPa | 2.7V | 00:00:00 | 01:24:08 | 00:00:00 | |
| OE5DRO-10 | 2026-09-06 00:29:05 | 45.48506 | 16.77754 | 47° | 20km/h | 20555m | 4.7m/s | -56.9°C | 5.3% | 0hPa | 2.6V | 00:00:00 | 00:00:00 | 08:30:00 | |
| PETON7-10 | 2026-09-06 00:28:54 | 45.48473 | 16.77686 | 62° | 18km/h | 20489m | 5.3m/s | -56.6°C | 5.2% | 0hPa | 2.6V | 00:00:00 | 00:00:00 | 00:00:00 | |
| S57NTA-12 | 2026-09-06 00:28:52 | 45.48470 | 16.77680 | 60° | 20km/h | 20483m | 6.1m/s | -56.6°C | 1.6% | 0hPa | 2.7V | 00:00:00 | 00:00:00 | 00:00:00 | |
| OE5DRO-10 | 2026-09-06 00:28:46 | 45.48455 | 16.77636 | 79° | 16km/h | 20443m | 4.9m/s | -56.2°C | 5.1% | 0hPa | 2.7V | 00:00:00 | 00:00:00 | 00:00:00 | |
| 9A1FER-3 | 2026-09-06 00:28:39 | 45.48450 | 16.77594 | 95° | 16km/h | 20403m | 4.6m/s | -55.9°C | 5.0% | 0hPa | 2.7V | 00:00:00 | 01:23:38 | 00:00:00 | |
| S57NTA-12 | 2026-09-06 00:28:31 | 45.48454 | 16.77551 | 84° | 18km/h | 20363m | 3.9m/s | -55.9°C | 1.5% | 0hPa | 2.7V | 00:00:00 | 00:00:00 | 00:00:00 | |
| OE5DRO-10 | 2026-09-06 00:28:27 | 45.48449 | 16.77524 | 82° | 22km/h | 20334m | 4.7m/s | -56.1°C | 4.9% | 0hPa | 2.7V | 00:00:00 | 00:00:00 | 00:00:00 | |
| 9A1FER-3 | 2026-09-06 00:28:24 | 45.48451 | 16.77508 | 116° | 24km/h | 20318m | 5.9m/s | -56.1°C | 4.9% | 0hPa | 2.7V | 00:00:00 | 01:23:23 | 08:30:00 | |
| S57NTA-12 | 2026-09-06 00:28:11 | 45.48481 | 16.77419 | 110° | 26km/h | 20252m | 5.2m/s | -56.6°C | 1.6% | 0hPa | 2.6V | 00:00:00 | 00:00:00 | 00:00:00 | |
| PETON7-10 | 2026-09-06 00:28:09 | 45.48488 | 16.77396 | 120° | 22km/h | 20235m | 4.6m/s | -56.5°C | 5.0% | 0hPa | 2.6V | 00:00:00 | 00:00:00 | 00:00:00 | |
| OE5DRO-10 | 2026-09-06 00:28:08 | 45.48491 | 16.77389 | 118° | 24km/h | 20230m | 6.5m/s | -56.4°C | 5.0% | 0hPa | 2.7V | 00:00:00 | 00:00:00 | 00:00:00 | |
| 9A1FER-3 | 2026-09-06 00:27:54 | 45.48527 | 16.77289 | 116° | 29km/h | 20151m | 4.5m/s | -57.2°C | 5.3% | 0hPa | 2.6V | 00:00:00 | 01:22:53 | 00:00:00 | |
| S57NTA-12 | 2026-09-06 00:27:51 | 45.48534 | 16.77259 | 101° | 31km/h | 20134m | 5.1m/s | -57.1°C | 1.6% | 0hPa | 2.6V | 00:00:00 | 00:00:00 | 00:00:00 | |
| OE5DRO-10 | 2026-09-06 00:27:49 | 45.48536 | 16.77238 | 101° | 27km/h | 20122m | 5.4m/s | -57.0°C | 5.2% | 0hPa | 2.6V | 00:00:00 | 00:00:00 | 00:00:00 | |
| 9A1FER-3 | 2026-09-06 00:27:39 | 45.48556 | 16.77135 | 101° | 24km/h | 20067m | 6.4m/s | -57.1°C | 5.2% | 0hPa | 2.6V | 00:00:00 | 01:22:38 | 00:00:00 | |
| OE5DRO-10 | 2026-09-06 00:27:30 | 45.48564 | 16.77062 | 110° | 20km/h | 20017m | 5.9m/s | -57.1°C | 5.3% | 0hPa | 2.6V | 00:00:00 | 00:00:00 | 00:00:00 | |
| 9A1FER-3 | 2026-09-06 00:27:24 | 45.48570 | 16.77012 | 84° | 20km/h | 19983m | 6.8m/s | -57.0°C | 5.2% | 0hPa | 2.6V | 00:00:00 | 01:22:23 | 00:00:00 | |
| OE5DRO-10 | 2026-09-06 00:27:11 | 45.48568 | 16.76923 | 108° | 24km/h | 19915m | 4.7m/s | -56.7°C | 5.2% | 0hPa | 2.6V | 00:00:00 | 00:00:00 | 00:00:00 | |
| S57NTA-12 | 2026-09-06 00:27:10 | 45.48570 | 16.76915 | 103° | 24km/h | 19910m | 5.3m/s | -56.7°C | 1.6% | 0hPa | 2.6V | 00:00:00 | 00:00:00 | 00:00:00 | |
| 9A1FER-3 | 2026-09-06 00:27:09 | 45.48571 | 16.76907 | 97° | 24km/h | 19904m | 5.0m/s | -56.6°C | 5.2% | 0hPa | 2.6V | 00:00:00 | 01:22:08 | 00:00:00 | |
| 9A1FER-3 | 2026-09-06 00:26:54 | 45.48580 | 16.76783 | 96° | 22km/h | 19824m | 5.1m/s | -56.3°C | 5.1% | 0hPa | 2.6V | 00:00:00 | 01:21:53 | 00:00:00 | |
| OE5DRO-10 | 2026-09-06 00:26:52 | 45.48581 | 16.76768 | 94° | 20km/h | 19813m | 4.3m/s | -56.3°C | 5.1% | 0hPa | 2.6V | 00:00:00 | 00:00:00 | 00:00:00 | |
| S57NTA-12 | 2026-09-06 00:26:48 | 45.48579 | 16.76744 | 86° | 16km/h | 19790m | 5.2m/s | -56.2°C | 1.6% | 0hPa | 2.6V | 00:00:00 | 00:00:00 | 00:00:00 | |
| 9A1FER-3 | 2026-09-06 00:26:39 | 45.48582 | 16.76667 | 104° | 18km/h | 19741m | 5.7m/s | -55.7°C | 5.0% | 0hPa | 2.6V | 00:00:00 | 01:21:38 | 00:00:00 | |
| OE5DRO-10 | 2026-09-06 00:26:33 | 45.48585 | 16.76632 | 91° | 24km/h | 19710m | 4.9m/s | -55.6°C | 4.9% | 0hPa | 2.6V | 00:00:00 | 00:00:00 | 00:00:00 | |
| S57NTA-12 | 2026-09-06 00:26:26 | 45.48586 | 16.76584 | 98° | 20km/h | 19677m | 4.6m/s | -55.6°C | 1.5% | 0hPa | 2.6V | 00:00:00 | 00:00:00 | 00:00:00 | |
| 9A1FER-3 | 2026-09-06 00:26:24 | 45.48590 | 16.76567 | 134° | 18km/h | 19662m | 4.7m/s | -55.5°C | 4.9% | 0hPa | 2.6V | 00:00:00 | 01:21:23 | 00:00:00 | |
| PETON7-10 | 2026-09-06 00:26:22 | 45.48595 | 16.76559 | 122° | 20km/h | 19651m | 4.9m/s | -55.4°C | 4.8% | 0hPa | 2.6V | 00:00:00 | 00:00:00 | 00:00:00 | |
| 9A1FER-3 | 2026-09-06 00:26:09 | 45.48625 | 16.76482 | 140° | 24km/h | 19583m | 4.4m/s | -55.3°C | 4.7% | 0hPa | 2.6V | 00:00:00 | 01:21:08 | 08:30:00 | |
| PETON7-10 | 2026-09-06 00:26:07 | 45.48632 | 16.76470 | 121° | 27km/h | 19572m | 3.5m/s | -55.4°C | 4.8% | 0hPa | 2.6V | 00:00:00 | 01:21:06 | 00:00:00 | |
| S57NTA-12 | 2026-09-06 00:26:05 | 45.48635 | 16.76463 | 119° | 24km/h | 19568m | 6.1m/s | -55.4°C | 1.5% | 0hPa | 2.6V | 00:00:00 | 00:00:00 | 00:00:00 | |
| 9A1FER-3 | 2026-09-06 00:25:54 | 45.48671 | 16.76374 | 121° | 26km/h | 19508m | 4.3m/s | -55.3°C | 4.8% | 0hPa | 2.6V | 00:00:00 | 01:20:53 | 00:00:00 | |
| OE5DRO-10 | 2026-09-06 00:25:46 | 45.48684 | 16.76299 | 103° | 22km/h | 19466m | 5.9m/s | -55.4°C | 4.8% | 0hPa | 2.6V | 00:00:00 | 00:00:00 | 08:30:00 | |
| S57NTA-12 | 2026-09-06 00:25:45 | 45.48685 | 16.76293 | 111° | 16km/h | 19461m | 4.3m/s | -55.4°C | 1.5% | 0hPa | 2.6V | 00:00:00 | 00:00:00 | 00:00:00 | |
| 9A1FER-3 | 2026-09-06 00:25:39 | 45.48703 | 16.76252 | 121° | 22km/h | 19430m | 5.5m/s | -55.2°C | 4.7% | 0hPa | 2.6V | 00:00:00 | 01:20:38 | 00:00:00 | |
| PETON7-10 | 2026-09-06 00:25:36 | 45.48712 | 16.76227 | 116° | 31km/h | 19415m | 5.2m/s | -55.3°C | 4.7% | 0hPa | 2.6V | 00:00:00 | 00:00:00 | 00:00:00 | |
| OE5DRO-10 | 2026-09-06 00:25:26 | 45.48730 | 16.76162 | 122° | 29km/h | 19363m | 4.5m/s | -55.7°C | 4.8% | 0hPa | 2.6V | 00:00:00 | 00:00:00 | 00:00:00 | |
| 9A1FER-3 | 2026-09-06 00:25:24 | 45.48738 | 16.76143 | 114° | 29km/h | 19353m | 4.8m/s | -55.6°C | 4.8% | 0hPa | 2.6V | 00:00:00 | 01:20:23 | 00:00:00 | |
| 9A1FER-3 | 2026-09-06 00:25:09 | 45.48783 | 16.76004 | 111° | 27km/h | 19278m | 4.5m/s | -56.1°C | 4.9% | 0hPa | 2.7V | 00:00:00 | 01:20:08 | 00:00:00 | |
| OE5DRO-10 | 2026-09-06 00:25:07 | 45.48789 | 16.75986 | 120° | 33km/h | 19268m | 5.2m/s | -56.2°C | 4.9% | 0hPa | 2.7V | 00:00:00 | 00:00:00 | 00:00:00 | |
| S57NTA-12 | 2026-09-06 00:25:04 | 45.48796 | 16.75968 | 120° | 29km/h | 19258m | 5.6m/s | -56.2°C | 1.6% | 0hPa | 2.7V | 00:00:00 | 00:00:00 | 00:00:00 | |
| 9A1FER-3 | 2026-09-06 00:24:54 | 45.48847 | 16.75884 | 121° | 40km/h | 19203m | 3.9m/s | -56.3°C | 4.9% | 0hPa | 2.7V | 00:00:00 | 01:19:53 | 00:00:00 | |
| OE5DRO-10 | 2026-09-06 00:24:48 | 45.48880 | 16.75808 | 123° | 47km/h | 19172m | 4.5m/s | -56.6°C | 4.9% | 0hPa | 2.7V | 00:00:00 | 00:00:00 | 00:00:00 | |
| S57NTA-12 | 2026-09-06 00:24:42 | 45.48911 | 16.75751 | 130° | 38km/h | 19145m | 4.9m/s | -57.1°C | 1.6% | 0hPa | 2.6V | 00:00:00 | 00:00:00 | 00:00:00 | |
| 9A1FER-3 | 2026-09-06 00:24:39 | 45.48936 | 16.75702 | 121° | 55km/h | 19124m | 4.0m/s | -56.9°C | 5.1% | 0hPa | 2.6V | 00:00:00 | 01:19:38 | 00:00:00 | |
| OE5DRO-10 | 2026-09-06 00:24:29 | 45.49001 | 16.75533 | 112° | 55km/h | 19077m | 3.3m/s | -57.2°C | 5.2% | 0hPa | 2.6V | 00:00:00 | 00:00:00 | 00:00:00 | |
| 9A1FER-3 | 2026-09-06 00:24:24 | 45.49029 | 16.75442 | 114° | 53km/h | 19054m | 4.6m/s | -57.2°C | 5.1% | 0hPa | 2.6V | 00:00:00 | 01:19:23 | 00:00:00 | |
| S57NTA-12 | 2026-09-06 00:24:21 | 45.49041 | 16.75406 | 117° | 55km/h | 19044m | 3.8m/s | -57.3°C | 1.7% | 0hPa | 2.6V | 00:00:00 | 00:00:00 | 00:00:00 | |
| OE5DRO-10 | 2026-09-06 00:24:10 | 45.49106 | 16.75196 | 114° | 51km/h | 18985m | 3.4m/s | -58.2°C | 5.5% | 0hPa | 2.6V | 00:00:00 | 00:00:00 | 00:00:00 | |
| 9A1FER-3 | 2026-09-06 00:24:09 | 45.49112 | 16.75178 | 115° | 51km/h | 18981m | 5.0m/s | -58.2°C | 5.4% | 0hPa | 2.6V | 00:00:00 | 01:19:08 | 00:00:00 | |
| S57NTA-12 | 2026-09-06 00:23:58 | 45.49164 | 16.75003 | 117° | 51km/h | 18932m | 6.5m/s | -58.4°C | 1.7% | 0hPa | 2.6V | 00:00:00 | 00:00:00 | 00:00:00 | |
| 9A1FER-3 | 2026-09-06 00:23:54 | 45.49196 | 16.74927 | 125° | 49km/h | 18906m | 5.2m/s | -58.7°C | 5.6% | 0hPa | 2.6V | 00:00:00 | 01:18:53 | 08:30:00 | |
| OE5DRO-10 | 2026-09-06 00:23:51 | 45.49216 | 16.74883 | 121° | 49km/h | 18892m | 4.8m/s | -58.9°C | 5.7% | 0hPa | 2.6V | 00:00:00 | 00:00:00 | 00:00:00 | |
| 9A1FER-3 | 2026-09-06 00:23:39 | 45.49290 | 16.74696 | 121° | 47km/h | 18826m | 5.1m/s | -59.0°C | 5.9% | 0hPa | 2.7V | 00:00:00 | 01:18:38 | 00:00:00 | |
| S57NTA-12 | 2026-09-06 00:23:36 | 45.49302 | 16.74666 | 120° | 49km/h | 18815m | 5.1m/s | -59.1°C | 1.9% | 0hPa | 2.7V | 00:00:00 | 00:00:00 | 00:00:00 | |
| OE5DRO-10 | 2026-09-06 00:23:32 | 45.49338 | 16.74591 | 130° | 49km/h | 18789m | 5.4m/s | -58.9°C | 5.8% | 0hPa | 2.7V | 00:00:00 | 00:00:00 | 00:00:00 | |
| S57NTA-12 | 2026-09-06 00:23:15 | 45.49458 | 16.74360 | 121° | 53km/h | 18703m | 4.6m/s | -58.7°C | 1.9% | 0hPa | 2.7V | 00:00:00 | 00:00:00 | 00:00:00 | |
| OE5DRO-10 | 2026-09-06 00:23:13 | 45.49478 | 16.74313 | 120° | 57km/h | 18687m | 5.8m/s | -58.5°C | 5.6% | 0hPa | 2.7V | 00:00:00 | 00:00:00 | 00:00:00 | |
| 9A1FER-3 | 2026-09-06 00:23:09 | 45.49503 | 16.74247 | 119° | 58km/h | 18665m | 4.8m/s | -58.5°C | 5.7% | 0hPa | 2.7V | 00:00:00 | 01:18:08 | 00:00:00 | |
| 9A1FER-3 | 2026-09-06 00:22:54 | 45.49597 | 16.73965 | 111° | 62km/h | 18585m | 5.6m/s | -58.2°C | 5.4% | 0hPa | 2.7V | 00:00:00 | 01:17:53 | 00:00:00 | |
| S57NTA-12 | 2026-09-06 00:22:53 | 45.49597 | 16.73965 | 112° | 55km/h | 18585m | 5.7m/s | -58.2°C | 1.8% | 0hPa | 2.7V | 00:00:00 | 00:00:00 | 00:00:00 | |
| 9A1FER-3 | 2026-09-06 00:22:39 | 45.49666 | 16.73643 | 103° | 62km/h | 18506m | 4.1m/s | -58.6°C | 5.5% | 0hPa | 2.7V | 00:00:00 | 01:17:38 | 00:00:00 | |
| PETON7-10 | 2026-09-06 00:22:34 | 45.49679 | 16.73531 | 101° | 58km/h | 18481m | 4.6m/s | -58.7°C | 5.6% | 0hPa | 2.7V | 00:00:00 | 01:17:33 | 00:00:00 | |
| S57NTA-12 | 2026-09-06 00:22:32 | 45.49682 | 16.73508 | 102° | 64km/h | 18476m | 5.0m/s | -58.8°C | 1.9% | 0hPa | 2.7V | 00:00:00 | 00:00:00 | 00:00:00 | |
| 9A1FER-3 | 2026-09-06 00:22:24 | 45.49704 | 16.73310 | 98° | 53km/h | 18429m | 5.7m/s | -59.4°C | 5.8% | 0hPa | 2.7V | 00:00:00 | 01:17:23 | 00:00:00 | |
| PETON7-10 | 2026-09-06 00:22:18 | 45.49716 | 16.73196 | 104° | 53km/h | 18397m | 5.8m/s | -59.7°C | 6.1% | 0hPa | 2.7V | 00:00:00 | 00:00:00 | 08:30:00 | |
| 9A1FER-3 | 2026-09-06 00:22:09 | 45.49747 | 16.73028 | 100° | 47km/h | 18348m | 4.7m/s | -59.9°C | 6.1% | 0hPa | 2.6V | 00:00:00 | 01:17:08 | 00:00:00 | |
| S57NTA-12 | 2026-09-06 00:22:08 | 45.49747 | 16.73028 | 100° | 58km/h | 18348m | 4.8m/s | -59.9°C | 2.1% | 0hPa | 2.6V | 00:00:00 | 00:00:00 | 00:00:00 | |
| PETON7-10 | 2026-09-06 00:22:03 | 45.49758 | 16.72919 | 99° | 44km/h | 18315m | 4.7m/s | -59.7°C | 6.2% | 0hPa | 2.6V | 00:00:00 | 00:00:00 | 00:00:00 | |
| 9A1FER-3 | 2026-09-06 00:21:54 | 45.49774 | 16.72781 | 93° | 42km/h | 18268m | 6.3m/s | -59.5°C | 6.0% | 0hPa | 2.6V | 00:00:00 | 01:16:53 | 00:00:00 | |
| PETON7-10 | 2026-09-06 00:21:48 | 45.49777 | 16.72688 | 96° | 42km/h | 18236m | 5.4m/s | -59.3°C | 6.0% | 0hPa | 2.6V | 00:00:00 | 01:16:47 | 00:00:00 | |
| S57NTA-12 | 2026-09-06 00:21:47 | 45.49777 | 16.72688 | 96° | 38km/h | 18236m | 5.5m/s | -59.3°C | 2.1% | 0hPa | 2.6V | 00:00:00 | 00:00:00 | 00:00:00 | |
| 9A1FER-3 | 2026-09-06 00:21:39 | 45.49793 | 16.72558 | 99° | 44km/h | 18189m | 4.4m/s | -58.9°C | 5.7% | 0hPa | 2.6V | 00:00:00 | 01:16:38 | 08:30:00 | |
| PETON7-10 | 2026-09-06 00:21:33 | 45.49805 | 16.72467 | 100° | 44km/h | 18158m | 6.1m/s | -58.8°C | 5.7% | 0hPa | 2.6V | 00:00:00 | 00:00:00 | 00:00:00 | |
| S57NTA-12 | 2026-09-06 00:21:27 | 45.49814 | 16.72390 | 106° | 46km/h | 18130m | 5.9m/s | -58.9°C | 1.9% | 0hPa | 2.6V | 00:00:00 | 00:00:00 | 00:00:00 | |
| 9A1FER-3 | 2026-09-06 00:21:24 | 45.49827 | 16.72329 | 108° | 49km/h | 18109m | 4.6m/s | -59.3°C | 5.7% | 0hPa | 2.6V | 00:00:00 | 01:16:23 | 00:00:00 | |
| PETON7-10 | 2026-09-06 00:21:18 | 45.49851 | 16.72239 | 117° | 55km/h | 18075m | 5.8m/s | -59.9°C | 6.1% | 0hPa | 2.6V | 00:00:00 | 00:00:00 | 00:00:00 | |
| 9A1FER-3 | 2026-09-06 00:21:09 | 45.49912 | 16.72088 | 119° | 55km/h | 18027m | 5.7m/s | -59.9°C | 6.1% | 0hPa | 2.6V | 00:00:00 | 01:16:08 | 00:00:00 | |
| S57NTA-12 | 2026-09-06 00:21:06 | 45.49925 | 16.72049 | 115° | 58km/h | 18018m | 5.5m/s | -59.9°C | 2.1% | 0hPa | 2.6V | 00:00:00 | 00:00:00 | 00:00:00 | |
| PETON7-10 | 2026-09-06 00:21:03 | 45.49945 | 16.71978 | 112° | 53km/h | 17996m | 4.8m/s | -59.8°C | 6.2% | 0hPa | 2.6V | 00:00:00 | 01:16:02 | 00:00:00 | |
| 9A1FER-3 | 2026-09-06 00:20:54 | 45.50000 | 16.71824 | 114° | 51km/h | 17946m | 4.2m/s | -59.6°C | 6.2% | 0hPa | 2.6V | 00:00:00 | 01:15:53 | 00:00:00 | |
| PETON7-10 | 2026-09-06 00:20:48 | 45.50029 | 16.71716 | 112° | 51km/h | 17913m | 6.1m/s | -59.4°C | 6.1% | 0hPa | 2.6V | 00:00:00 | 00:00:00 | 00:00:00 | |
| S57NTA-12 | 2026-09-06 00:20:45 | 45.50038 | 16.71683 | 114° | 49km/h | 17903m | 5.9m/s | -59.3°C | 2.1% | 0hPa | 2.6V | 00:00:00 | 00:00:00 | 00:00:00 | |
| 9A1FER-3 | 2026-09-06 00:20:39 | 45.50065 | 16.71583 | 102° | 47km/h | 17865m | 4.3m/s | -59.2°C | 5.8% | 0hPa | 2.6V | 00:00:00 | 01:15:38 | 00:00:00 | |
| PETON7-10 | 2026-09-06 00:20:33 | 45.50089 | 16.71457 | 110° | 46km/h | 17832m | 5.3m/s | -59.2°C | 5.9% | 0hPa | 2.6V | 00:00:00 | 00:00:00 | 00:00:00 | |
| 9A1FER-3 | 2026-09-06 00:20:24 | 45.50116 | 16.71324 | 99° | 46km/h | 17782m | 5.2m/s | -59.0°C | 6.0% | 0hPa | 2.6V | 00:00:00 | 01:15:23 | 00:00:00 | |
| S57NTA-12 | 2026-09-06 00:20:23 | 45.50116 | 16.71324 | 100° | 49km/h | 17782m | 5.2m/s | -59.1°C | 2.1% | 0hPa | 2.6V | 00:00:00 | 00:00:00 | 00:00:00 | |
| PETON7-10 | 2026-09-06 00:20:18 | 45.50127 | 16.71221 | 98° | 46km/h | 17751m | 5.1m/s | -59.0°C | 5.8% | 0hPa | 2.6V | 00:00:00 | 01:15:17 | 00:00:00 | |
| 9A1FER-3 | 2026-09-06 00:20:09 | 45.50135 | 16.71077 | 95° | 49km/h | 17701m | 5.6m/s | -59.2°C | 5.9% | 0hPa | 2.6V | 00:00:00 | 01:15:08 | 00:00:00 | |
| PETON7-10 | 2026-09-06 00:20:03 | 45.50141 | 16.70973 | 93° | 49km/h | 17669m | 6.1m/s | -59.2°C | 6.0% | 0hPa | 2.6V | 00:00:00 | 00:00:00 | 08:30:00 | |
| S57NTA-12 | 2026-09-06 00:20:01 | 45.50142 | 16.70956 | 94° | 47km/h | 17663m | 5.0m/s | -59.2°C | 2.1% | 0hPa | 2.6V | 00:00:00 | 00:00:00 | 00:00:00 | |
| 9A1FER-3 | 2026-09-06 00:19:54 | 45.50135 | 16.70815 | 84° | 49km/h | 17620m | 6.2m/s | -59.1°C | 6.0% | 0hPa | 2.6V | 00:00:00 | 01:14:53 | 00:00:00 | |
| PETON7-10 | 2026-09-06 00:19:48 | 45.50130 | 16.70705 | 90° | 46km/h | 17587m | 4.9m/s | -59.1°C | 5.9% | 0hPa | 2.6V | 00:00:00 | 00:00:00 | 00:00:00 | |
| S57NTA-12 | 2026-09-06 00:19:40 | 45.50121 | 16.70584 | 80° | 47km/h | 17550m | 5.8m/s | -58.9°C | 2.1% | 0hPa | 2.6V | 00:00:00 | 00:00:00 | 00:00:00 | |
| 9A1FER-3 | 2026-09-06 00:19:39 | 45.50117 | 16.70551 | 82° | 42km/h | 17540m | 4.3m/s | -58.8°C | 5.9% | 0hPa | 2.6V | 00:00:00 | 01:14:38 | 00:00:00 | |
| PETON7-10 | 2026-09-06 00:19:32 | 45.50113 | 16.70441 | 94° | 40km/h | 17500m | 6.5m/s | -58.6°C | 5.9% | 0hPa | 2.6V | 00:00:00 | 01:14:31 | 00:00:00 | |
| 9A1FER-3 | 2026-09-06 00:19:24 | 45.50110 | 16.70326 | 92° | 42km/h | 17459m | 5.0m/s | -58.5°C | 5.9% | 0hPa | 2.6V | 00:00:00 | 01:14:23 | 08:30:00 | |
| OE5DRO-10 | 2026-09-06 00:19:20 | 45.50112 | 16.70268 | 95° | 40km/h | 17438m | 4.6m/s | -58.3°C | 5.9% | 0hPa | 2.7V | 00:00:00 | 00:00:00 | 00:00:00 | |
| PETON7-10 | 2026-09-06 00:19:17 | 45.50115 | 16.70223 | 99° | 40km/h | 17424m | 4.0m/s | -58.3°C | 5.8% | 0hPa | 2.7V | 00:00:00 | 00:00:00 | 00:00:00 | |
| 9A1FER-3 | 2026-09-06 00:19:09 | 45.50132 | 16.70107 | 100° | 40km/h | 17381m | 5.9m/s | -58.1°C | 5.7% | 0hPa | 2.7V | 00:00:00 | 01:14:08 | 00:00:00 | |
| PETON7-10 | 2026-09-06 00:19:02 | 45.50146 | 16.70008 | 106° | 40km/h | 17346m | 6.3m/s | 0°C | 0% | 0hPa | 2.7V | 00:00:00 | 00:00:00 | 00:00:00 | |
| S57NTA-12 | 2026-09-06 00:18:59 | 45.50152 | 16.69983 | 112° | 37km/h | 17336m | 4.2m/s | -58.0°C | 2.0% | 0hPa | 2.7V | 00:00:00 | 00:00:00 | 00:00:00 | |
| OE5DRO-10 | 2026-09-06 00:18:55 | 45.50169 | 16.69915 | 113° | 44km/h | 17312m | 4.5m/s | -57.8°C | 5.5% | 0hPa | 2.7V | 00:00:00 | 00:00:00 | 00:00:00 | |
| 9A1FER-3 | 2026-09-06 00:18:54 | 45.50174 | 16.69900 | 111° | 44km/h | 17307m | 5.5m/s | -57.8°C | 5.5% | 0hPa | 2.7V | 00:00:00 | 01:13:53 | 00:00:00 | |
| PETON7-10 | 2026-09-06 00:18:47 | 45.50206 | 16.69804 | 119° | 47km/h | 17272m | 5.6m/s | 0°C | 0% | 0hPa | 2.7V | 00:00:00 | 01:13:46 | 00:00:00 | |
| 9A1FER-3 | 2026-09-06 00:18:39 | 45.50249 | 16.69694 | 115° | 51km/h | 17231m | 4.5m/s | -58.7°C | 5.7% | 0hPa | 2.7V | 00:00:00 | 01:13:38 | 00:00:00 | |
| S57NTA-12 | 2026-09-06 00:18:38 | 45.50249 | 16.69694 | 116° | 44km/h | 17231m | 4.5m/s | -58.8°C | 2.1% | 0hPa | 2.6V | 00:00:00 | 00:00:00 | 00:00:00 | |
| OE5DRO-10 | 2026-09-06 00:18:36 | 45.50264 | 16.69649 | 117° | 55km/h | 17217m | 4.0m/s | 0°C | 0% | 0hPa | 2.6V | 00:00:00 | 00:00:00 | 00:00:00 | |
| 9A1FER-3 | 2026-09-06 00:18:24 | 45.50335 | 16.69442 | 110° | 57km/h | 17156m | 5.2m/s | -59.6°C | 6.2% | 0hPa | 2.6V | 00:00:00 | 01:13:23 | 00:00:00 | |
| S57NTA-12 | 2026-09-06 00:18:18 | 45.50358 | 16.69349 | 110° | 58km/h | 17130m | 6.2m/s | -59.5°C | 2.3% | 0hPa | 2.6V | 00:00:00 | 00:00:00 | 00:00:00 | |
| OE5DRO-10 | 2026-09-06 00:18:17 | 45.50368 | 16.69309 | 111° | 57km/h | 17119m | 5.8m/s | 0°C | 0% | 0hPa | 2.6V | 00:00:00 | 00:00:00 | 00:00:00 | |
| 9A1FER-3 | 2026-09-06 00:18:09 | 45.50407 | 16.69151 | 104° | 55km/h | 17078m | 4.3m/s | -59.3°C | 6.2% | 0hPa | 2.6V | 00:00:00 | 01:13:08 | 00:00:00 | |
| OE5DRO-10 | 2026-09-06 00:17:58 | 45.50451 | 16.68942 | 111° | 60km/h | 17022m | 4.7m/s | 0°C | 0% | 0hPa | 2.6V | 00:00:00 | 00:00:00 | 00:00:00 | |
| S57NTA-12 | 2026-09-06 00:17:57 | 45.50451 | 16.68942 | 112° | 57km/h | 17022m | 4.7m/s | -59.0°C | 2.2% | 0hPa | 2.6V | 00:00:00 | 00:00:00 | 00:00:00 | |
| 9A1FER-3 | 2026-09-06 00:17:54 | 45.50473 | 16.68867 | 112° | 53km/h | 17002m | 5.9m/s | -58.8°C | 5.9% | 0hPa | 2.6V | 00:00:00 | 01:12:53 | 00:00:00 | |
| 9A1FER-3 | 2026-09-06 00:17:39 | 45.50543 | 16.68601 | 113° | 49km/h | 16929m | 3.8m/s | -59.1°C | 6.1% | 0hPa | 2.6V | 00:00:00 | 01:12:38 | 00:00:00 | |
| S57NTA-12 | 2026-09-06 00:17:37 | 45.50548 | 16.68585 | 113° | 49km/h | 16925m | 5.7m/s | -59.2°C | 2.2% | 0hPa | 2.6V | 00:00:00 | 00:00:00 | 00:00:00 | |
| S57NTA-12 | 2026-09-06 00:17:15 | 45.50663 | 16.68210 | 117° | 53km/h | 16808m | 4.4m/s | -58.9°C | 2.2% | 0hPa | 2.6V | 00:00:00 | 00:00:00 | 00:00:00 | |
| 9A1FER-3 | 2026-09-06 00:17:09 | 45.50697 | 16.68088 | 110° | 60km/h | 16771m | 3.9m/s | -58.6°C | 6.0% | 0hPa | 2.6V | 00:00:00 | 01:12:08 | 08:30:00 | |
| PETON7-10 | 2026-09-06 00:17:03 | 45.50734 | 16.67974 | 120° | 60km/h | 16741m | 5.8m/s | 0°C | 0% | 0hPa | 2.7V | 00:00:00 | 00:00:00 | 00:00:00 | |
| 9A1FER-3 | 2026-09-06 00:16:54 | 45.50799 | 16.67800 | 116° | 60km/h | 16694m | 6.2m/s | -58.5°C | 6.0% | 0hPa | 2.7V | 00:00:00 | 01:11:53 | 00:00:00 | |
| S57NTA-12 | 2026-09-06 00:16:53 | 45.50799 | 16.67800 | 116° | 57km/h | 16694m | 6.2m/s | -58.6°C | 2.2% | 0hPa | 2.7V | 00:00:00 | 00:00:00 | 00:00:00 | |
| PETON7-10 | 2026-09-06 00:16:46 | 45.50843 | 16.67640 | 109° | 62km/h | 16652m | 4.0m/s | 0°C | 0% | 0hPa | 2.7V | 00:00:00 | 00:00:00 | 00:00:00 | |
| 9A1FER-3 | 2026-09-06 00:16:39 | 45.50878 | 16.67492 | 110° | 64km/h | 16616m | 3.9m/s | -58.4°C | 6.0% | 0hPa | 2.7V | 00:00:00 | 01:11:38 | 00:00:00 | |
| OE5DRO-10 | 2026-09-06 00:16:36 | 45.50893 | 16.67431 | 112° | 75km/h | 16601m | 4.2m/s | 0°C | 0% | 0hPa | 2.7V | 00:00:00 | 00:00:00 | 00:00:00 | |
| S57NTA-12 | 2026-09-06 00:16:32 | 45.50911 | 16.67368 | 109° | 64km/h | 16587m | 5.0m/s | -58.4°C | 2.3% | 0hPa | 2.7V | 00:00:00 | 00:00:00 | 00:00:00 | |
| PETON7-10 | 2026-09-06 00:16:31 | 45.50920 | 16.67322 | 105° | 71km/h | 16577m | 5.1m/s | 0°C | 0% | 0hPa | 2.7V | 00:00:00 | 01:11:30 | 00:00:00 | |
| 9A1FER-3 | 2026-09-06 00:16:24 | 45.50944 | 16.67156 | 104° | 68km/h | 16540m | 4.6m/s | -58.1°C | 6.0% | 0hPa | 2.7V | 00:00:00 | 01:11:23 | 00:00:00 | |
| PETON7-10 | 2026-09-06 00:16:16 | 45.50987 | 16.66962 | 108° | 71km/h | 16499m | 4.1m/s | 0°C | 0% | 0hPa | 2.6V | 00:00:00 | 00:00:00 | 08:30:00 | |
| S57NTA-12 | 2026-09-06 00:16:12 | 45.51006 | 16.66871 | 105° | 66km/h | 16481m | 5.4m/s | -58.7°C | 2.5% | 0hPa | 2.6V | 00:00:00 | 00:00:00 | 00:00:00 | |
| 9A1FER-3 | 2026-09-06 00:16:09 | 45.51015 | 16.66802 | 99° | 71km/h | 16465m | 4.5m/s | -58.7°C | 6.3% | 0hPa | 2.6V | 00:00:00 | 01:11:08 | 00:00:00 | |
| 9A1FER-3 | 2026-09-06 00:15:54 | 45.51075 | 16.66424 | 106° | 75km/h | 16390m | 4.5m/s | -59.3°C | 6.4% | 0hPa | 2.6V | 00:00:00 | 01:10:53 | 00:00:00 | |
| S57NTA-12 | 2026-09-06 00:15:49 | 45.51098 | 16.66323 | 110° | 73km/h | 16370m | 4.6m/s | -59.5°C | 2.6% | 0hPa | 2.6V | 00:00:00 | 00:00:00 | 00:00:00 | |
| 9A1FER-3 | 2026-09-06 00:15:39 | 45.51184 | 16.66049 | 118° | 84km/h | 16314m | 4.8m/s | -60.4°C | 7.0% | 0hPa | 2.6V | 00:00:00 | 01:10:38 | 00:00:00 | |
| S57NTA-12 | 2026-09-06 00:15:28 | 45.51277 | 16.65770 | 118° | 84km/h | 16264m | 5.6m/s | -60.5°C | 2.9% | 0hPa | 2.6V | 00:00:00 | 00:00:00 | 00:00:00 | |
| 9A1FER-3 | 2026-09-06 00:15:24 | 45.51323 | 16.65639 | 115° | 86km/h | 16240m | 5.4m/s | -60.5°C | 7.0% | 0hPa | 2.6V | 00:00:00 | 01:10:23 | 00:00:00 | |
| 9A1FER-3 | 2026-09-06 00:15:09 | 45.51454 | 16.65215 | 113° | 86km/h | 16165m | 5.9m/s | -61.1°C | 7.3% | 0hPa | 2.6V | 00:00:00 | 01:10:08 | 00:00:00 | |
| S57NTA-12 | 2026-09-06 00:15:07 | 45.51462 | 16.65188 | 113° | 82km/h | 16160m | 4.0m/s | -61.2°C | 3.0% | 0hPa | 2.6V | 00:00:00 | 00:00:00 | 00:00:00 | |
| PETON7-10 | 2026-09-06 00:14:56 | 45.51549 | 16.64839 | 107° | 89km/h | 16102m | 6.0m/s | 0°C | 0% | 0hPa | 2.6V | 00:00:00 | 00:00:00 | 00:00:00 | |
| 9A1FER-3 | 2026-09-06 00:14:54 | 45.51560 | 16.64779 | 105° | 93km/h | 16092m | 5.8m/s | -61.7°C | 7.5% | 0hPa | 2.6V | 00:00:00 | 01:09:53 | 08:30:00 | |
| S57NTA-12 | 2026-09-06 00:14:47 | 45.51593 | 16.64587 | 104° | 93km/h | 16061m | 4.6m/s | -62.0°C | 3.1% | 0hPa | 2.6V | 00:00:00 | 00:00:00 | 00:00:00 | |
| 9A1FER-3 | 2026-09-06 00:14:39 | 45.51632 | 16.64292 | 96° | 89km/h | 16018m | 4.3m/s | -62.1°C | 7.8% | 0hPa | 2.6V | 00:00:00 | 01:09:38 | 00:00:00 | |
| PETON7-10 | 2026-09-06 00:14:38 | 45.51634 | 16.64258 | 97° | 88km/h | 16013m | 5.0m/s | 0°C | 0% | 0hPa | 2.6V | 00:00:00 | 01:09:37 | 00:00:00 | |
| S57NTA-12 | 2026-09-06 00:14:26 | 45.51671 | 16.63914 | 99° | 91km/h | 15960m | 5.2m/s | -61.8°C | 3.1% | 0hPa | 2.6V | 00:00:00 | 00:00:00 | 00:00:00 | |
| 9A1FER-3 | 2026-09-06 00:14:24 | 45.51675 | 16.63818 | 92° | 77km/h | 15942m | 7.2m/s | -61.6°C | 7.6% | 0hPa | 2.6V | 00:00:00 | 01:09:23 | 00:00:00 | |
| PETON7-10 | 2026-09-06 00:14:23 | 45.51676 | 16.63789 | 92° | 75km/h | 15935m | 5.3m/s | 0°C | 0% | 0hPa | 2.6V | 00:00:00 | 00:00:00 | 00:00:00 | |
| 9A1FER-3 | 2026-09-06 00:14:09 | 45.51714 | 16.63410 | 97° | 77km/h | 15852m | 3.6m/s | -60.7°C | 7.4% | 0hPa | 2.6V | 00:00:00 | 01:09:08 | 00:00:00 | |
| PETON7-10 | 2026-09-06 00:14:08 | 45.51716 | 16.63379 | 94° | 75km/h | 15848m | 4.9m/s | 0°C | 0% | 0hPa | 2.6V | 00:00:00 | 00:00:00 | 00:00:00 | |
| S57NTA-12 | 2026-09-06 00:14:05 | 45.51718 | 16.63323 | 95° | 73km/h | 15836m | 5.7m/s | -60.6°C | 3.0% | 0hPa | 2.6V | 00:00:00 | 00:00:00 | 00:00:00 | |
| 9A1FER-3 | 2026-09-06 00:13:54 | 45.51756 | 16.63005 | 102° | 71km/h | 15768m | 4.3m/s | -60.1°C | 7.1% | 0hPa | 2.6V | 00:00:00 | 01:08:53 | 00:00:00 | |
| S57NTA-12 | 2026-09-06 00:13:45 | 45.51779 | 16.62799 | 100° | 69km/h | 15725m | 5.7m/s | -59.9°C | 3.1% | 0hPa | 2.6V | 00:00:00 | 00:00:00 | 00:00:00 | |
| 9A1FER-3 | 2026-09-06 00:13:39 | 45.51803 | 16.62625 | 101° | 69km/h | 15690m | 4.4m/s | -59.8°C | 7.1% | 0hPa | 2.6V | 00:00:00 | 01:08:38 | 00:00:00 | |
| S57NTA-12 | 2026-09-06 00:13:25 | 45.51845 | 16.62307 | 102° | 66km/h | 15627m | 4.3m/s | -60.4°C | 3.2% | 0hPa | 2.6V | 00:00:00 | 00:00:00 | 00:00:00 | |
| 9A1FER-3 | 2026-09-06 00:13:24 | 45.51852 | 16.62262 | 105° | 68km/h | 15617m | 5.1m/s | -60.5°C | 7.3% | 0hPa | 2.6V | 00:00:00 | 01:08:23 | 00:00:00 | |
| 9A1FER-3 | 2026-09-06 00:13:09 | 45.51942 | 16.61922 | 113° | 71km/h | 15538m | 4.4m/s | -61.3°C | 8.0% | 0hPa | 2.7V | 00:00:00 | 01:08:08 | 00:00:00 | |
| S57NTA-12 | 2026-09-06 00:13:04 | 45.51972 | 16.61831 | 118° | 71km/h | 15517m | 4.9m/s | -61.4°C | 3.7% | 0hPa | 2.7V | 00:00:00 | 00:00:00 | 00:00:00 | |
| 9A1FER-3 | 2026-09-06 00:12:54 | 45.52068 | 16.61586 | 122° | 78km/h | 15466m | 4.7m/s | -61.9°C | 8.8% | 0hPa | 2.7V | 00:00:00 | 01:07:53 | 00:00:00 | |
| S57NTA-12 | 2026-09-06 00:12:44 | 45.52152 | 16.61370 | 119° | 80km/h | 15421m | 5.7m/s | -62.1°C | 4.3% | 0hPa | 2.7V | 00:00:00 | 00:00:00 | 00:00:00 | |
| 9A1FER-3 | 2026-09-06 00:12:39 | 45.52214 | 16.61217 | 122° | 88km/h | 15391m | 5.6m/s | -62.3°C | 9.2% | 0hPa | 2.7V | 00:00:00 | 01:07:38 | 08:30:00 | |
| OE5DRO-10 | 2026-09-06 00:12:30 | 45.52322 | 16.60985 | 123° | 88km/h | 15344m | 4.4m/s | 0°C | 0% | 0hPa | 2.7V | 00:00:00 | 00:00:00 | 00:00:00 | |
| 9A1FER-3 | 2026-09-06 00:12:24 | 45.52390 | 16.60819 | 120° | 88km/h | 15316m | 5.7m/s | -62.5°C | 9.5% | 0hPa | 2.7V | 00:00:00 | 01:07:23 | 00:00:00 | |
| S57NTA-12 | 2026-09-06 00:12:23 | 45.52390 | 16.60819 | 120° | 88km/h | 15316m | 5.7m/s | -62.6°C | 4.6% | 0hPa | 2.7V | 00:00:00 | 00:00:00 | 00:00:00 | |
| OE5DRO-10 | 2026-09-06 00:12:10 | 45.52523 | 16.60419 | 118° | 88km/h | 15247m | 5.0m/s | 0°C | 0% | 0hPa | 2.7V | 00:00:00 | 00:00:00 | 00:00:00 | |
| 9A1FER-3 | 2026-09-06 00:12:09 | 45.52533 | 16.60392 | 117° | 86km/h | 15242m | 5.9m/s | -62.5°C | 9.8% | 0hPa | 2.7V | 00:00:00 | 01:07:08 | 00:00:00 | |
| S57NTA-12 | 2026-09-06 00:12:03 | 45.52579 | 16.60254 | 115° | 88km/h | 15217m | 4.6m/s | -62.7°C | 5.0% | 0hPa | 2.7V | 00:00:00 | 00:00:00 | 00:00:00 | |
| 9A1FER-3 | 2026-09-06 00:11:54 | 45.52679 | 16.59977 | 120° | 86km/h | 15169m | 4.0m/s | -63.0°C | 10.6% | 0hPa | 2.7V | 00:00:00 | 01:06:53 | 00:00:00 | |
| S57NTA-12 | 2026-09-06 00:11:42 | 45.52791 | 16.59671 | 119° | 78km/h | 15116m | 4.4m/s | -62.9°C | 5.5% | 0hPa | 2.7V | 00:00:00 | 00:00:00 | 00:00:00 | |
| 9A1FER-3 | 2026-09-06 00:11:39 | 45.52830 | 16.59571 | 118° | 88km/h | 15096m | 4.6m/s | -62.8°C | 10.9% | 0hPa | 2.7V | 00:00:00 | 01:06:38 | 00:00:00 | |
| OE5DRO-10 | 2026-09-06 00:11:37 | 45.52850 | 16.59516 | 118° | 89km/h | 15085m | 4.7m/s | 0°C | 0% | 0hPa | 2.7V | 00:00:00 | 00:00:00 | 00:00:00 | |
| 9A1FER-3 | 2026-09-06 00:11:24 | 45.52987 | 16.59149 | 118° | 95km/h | 15023m | 4.3m/s | -63.3°C | 11.7% | 0hPa | 2.7V | 00:00:00 | 01:06:23 | 00:00:00 | |
| S57NTA-12 | 2026-09-06 00:11:22 | 45.52998 | 16.59120 | 118° | 91km/h | 15018m | 5.5m/s | -63.3°C | 6.2% | 0hPa | 2.7V | 00:00:00 | 00:00:00 | 00:00:00 | |
| OE3JTB-15 | 2026-09-06 00:11:15 | 45.53097 | 16.58880 | 122° | 84km/h | 14980m | 3.8m/s | -63.5°C | 12.1% | 0hPa | 2.7V | 00:00:00 | 01:06:14 | 00:00:00 | |
| 9A1FER-3 | 2026-09-06 00:11:09 | 45.53167 | 16.58700 | 118° | 100km/h | 14953m | 4.3m/s | -63.7°C | 12.6% | 0hPa | 2.7V | 00:00:00 | 01:06:08 | 00:00:00 | |
| S57NTA-12 | 2026-09-06 00:11:02 | 45.53254 | 16.58477 | 122° | 104km/h | 14918m | 4.7m/s | -63.9°C | 6.5% | 0hPa | 2.7V | 00:00:00 | 00:00:00 | 00:00:00 | |
| 9A1FER-3 | 2026-09-06 00:10:54 | 45.53346 | 16.58222 | 115° | 91km/h | 14880m | 4.9m/s | -63.7°C | 12.2% | 0hPa | 2.7V | 00:00:00 | 01:05:53 | 00:00:00 | |
| S57NTA-12 | 2026-09-06 00:10:40 | 45.53477 | 16.57834 | 111° | 89km/h | 14813m | 5.8m/s | -63.8°C | 6.6% | 0hPa | 2.7V | 00:00:00 | 00:00:00 | 00:00:00 | |
| 9A1FER-3 | 2026-09-06 00:10:39 | 45.53491 | 16.57774 | 109° | 80km/h | 14803m | 4.9m/s | -63.7°C | 12.4% | 0hPa | 2.7V | 00:00:00 | 01:05:38 | 00:00:00 | |
| 9A1FER-3 | 2026-09-06 00:10:24 | 45.53593 | 16.57367 | 108° | 69km/h | 14729m | 4.0m/s | -63.8°C | 13.2% | 0hPa | 2.7V | 00:00:00 | 01:05:23 | 08:30:00 | |
| S57NTA-12 | 2026-09-06 00:10:19 | 45.53610 | 16.57268 | 104° | 66km/h | 14711m | 5.2m/s | -64.0°C | 7.5% | 0hPa | 2.7V | 00:00:00 | 00:00:00 | 00:00:00 | |
| 9A1FER-3 | 2026-09-06 00:10:09 | 45.53660 | 16.57010 | 105° | 71km/h | 14657m | 5.7m/s | -63.8°C | 14.3% | 0hPa | 2.7V | 00:00:00 | 01:05:08 | 00:00:00 | |
| S57NTA-12 | 2026-09-06 00:09:59 | 45.53714 | 16.56790 | 112° | 75km/h | 14616m | 5.1m/s | -63.7°C | 8.7% | 0hPa | 2.7V | 00:00:00 | 00:00:00 | 00:00:00 | |
| 9A1FER-3 | 2026-09-06 00:09:54 | 45.53749 | 16.56652 | 108° | 64km/h | 14589m | 3.5m/s | -63.6°C | 15.9% | 0hPa | 2.7V | 00:00:00 | 01:04:53 | 00:00:00 | |
| 9A1FER-3 | 2026-09-06 00:09:39 | 45.53842 | 16.56329 | 115° | 66km/h | 14521m | 4.7m/s | -63.6°C | 17.5% | 0hPa | 2.7V | 00:00:00 | 01:04:38 | 00:00:00 | |
| S57NTA-12 | 2026-09-06 00:09:38 | 45.53842 | 16.56329 | 115° | 64km/h | 14521m | 4.8m/s | -63.7°C | 10.6% | 0hPa | 2.7V | 00:00:00 | 00:00:00 | 00:00:00 | |
| 9A1FER-3 | 2026-09-06 00:09:24 | 45.53964 | 16.56017 | 123° | 71km/h | 14451m | 3.2m/s | -63.1°C | 19.1% | 0hPa | 2.7V | 00:00:00 | 01:04:23 | 00:00:00 | |
| S57NTA-12 | 2026-09-06 00:09:18 | 45.54022 | 16.55888 | 124° | 69km/h | 14420m | 5.1m/s | -63.0°C | 12.3% | 0hPa | 2.7V | 00:00:00 | 00:00:00 | 00:00:00 | |
| PETON7-10 | 2026-09-06 00:09:15 | 45.54050 | 16.55824 | 123° | 78km/h | 14405m | 5.7m/s | 0°C | 0% | 0hPa | 2.7V | 00:00:00 | 01:04:14 | 00:00:00 | |
| 9A1FER-3 | 2026-09-06 00:09:09 | 45.54107 | 16.55693 | 122° | 80km/h | 14375m | 4.0m/s | -63.1°C | 21.0% | 0hPa | 2.7V | 00:00:00 | 01:04:08 | 00:00:00 | |
| PETON7-10 | 2026-09-06 00:08:58 | 45.54225 | 16.55423 | 124° | 91km/h | 14323m | 6.1m/s | 0°C | 0% | 0hPa | 2.7V | 00:00:00 | 00:00:00 | 00:00:00 | |
| S57NTA-12 | 2026-09-06 00:08:57 | 45.54225 | 16.55423 | 124° | 82km/h | 14323m | 6.1m/s | -63.7°C | 15.3% | 0hPa | 2.7V | 00:00:00 | 00:00:00 | 00:00:00 | |
| OE3JTB-15 | 2026-09-06 00:08:56 | 45.54247 | 16.55372 | 121° | 106km/h | 14313m | 4.4m/s | -63.7°C | 23.8% | 0hPa | 2.7V | 00:00:00 | 00:00:00 | 00:00:00 | |
| 9A1FER-3 | 2026-09-06 00:08:54 | 45.54269 | 16.55320 | 122° | 95km/h | 14303m | 3.4m/s | -63.8°C | 24.5% | 0hPa | 2.7V | 00:00:00 | 01:03:53 | 00:00:00 | |
| 9A1FER-3 | 2026-09-06 00:08:39 | 45.54446 | 16.54869 | 114° | 111km/h | 14232m | 4.8m/s | -64.1°C | 28.2% | 0hPa | 2.7V | 00:00:00 | 01:03:38 | 00:00:00 | |
| S57NTA-12 | 2026-09-06 00:08:36 | 45.54466 | 16.54795 | 111° | 115km/h | 14222m | 7.4m/s | -64.1°C | 18.6% | 0hPa | 2.7V | 00:00:00 | 00:00:00 | 00:00:00 | |
| 9A1FER-3 | 2026-09-06 00:08:24 | 45.54603 | 16.54313 | 110° | 113km/h | 14149m | 4.8m/s | -63.8°C | 29.1% | 0hPa | 2.7V | 00:00:00 | 01:03:23 | 00:00:00 | |
| S57NTA-12 | 2026-09-06 00:08:15 | 45.54690 | 16.54006 | 111° | 111km/h | 14106m | 7.4m/s | -63.7°C | 19.7% | 0hPa | 2.7V | 00:00:00 | 00:00:00 | 00:00:00 | |
| 9A1FER-3 | 2026-09-06 00:08:09 | 45.54749 | 16.53737 | 107° | 117km/h | 14065m | 3.8m/s | -63.4°C | 29.0% | 0hPa | 2.7V | 00:00:00 | 01:03:08 | 08:30:00 | |
| 9A1FER-3 | 2026-09-06 00:07:54 | 45.54865 | 16.53131 | 105° | 117km/h | 14000m | 4.1m/s | -63.6°C | 31.1% | 0hPa | 2.7V | 00:00:00 | 01:02:53 | 00:00:00 | |
| 9A1FER-3 | 2026-09-06 00:07:39 | 45.54960 | 16.52511 | 101° | 113km/h | 13936m | 5.2m/s | -64.0°C | 33.3% | 0hPa | 2.7V | 00:00:00 | 01:02:38 | 00:00:00 | |
| S57NTA-12 | 2026-09-06 00:07:33 | 45.54982 | 16.52303 | 99° | 115km/h | 13914m | 4.8m/s | -64.0°C | 23.6% | 0hPa | 2.7V | 00:00:00 | 00:00:00 | 00:00:00 | |
| 9A1FER-3 | 2026-09-06 00:07:24 | 45.55020 | 16.51905 | 101° | 108km/h | 13871m | 4.2m/s | -63.7°C | 34.4% | 0hPa | 2.7V | 00:00:00 | 01:02:23 | 00:00:00 | |
| OE3JTB-15 | 2026-09-06 00:07:16 | 45.55064 | 16.51599 | 102° | 104km/h | 13836m | 5.9m/s | -63.5°C | 34.2% | 0hPa | 2.7V | 00:00:00 | 00:00:00 | 00:00:00 | |
| S57NTA-12 | 2026-09-06 00:07:12 | 45.55082 | 16.51486 | 104° | 106km/h | 13821m | 4.1m/s | -63.5°C | 24.2% | 0hPa | 2.7V | 00:00:00 | 00:00:00 | 00:00:00 | |
| 9A1FER-3 | 2026-09-06 00:07:09 | 45.55106 | 16.51338 | 103° | 106km/h | 13804m | 4.5m/s | -63.4°C | 34.5% | 0hPa | 2.7V | 00:00:00 | 01:02:08 | 00:00:00 | |
| 9A1FER-3 | 2026-09-06 00:06:54 | 45.55204 | 16.50789 | 101° | 102km/h | 13739m | 3.0m/s | -63.3°C | 35.8% | 0hPa | 2.7V | 00:00:00 | 01:01:53 | 00:00:00 | |
| S57NTA-12 | 2026-09-06 00:06:51 | 45.55215 | 16.50712 | 105° | 110km/h | 13728m | 5.3m/s | -63.6°C | 26.9% | 0hPa | 2.7V | 00:00:00 | 00:00:00 | 00:00:00 | |
| 9A1FER-3 | 2026-09-06 00:06:39 | 45.55314 | 16.50259 | 108° | 102km/h | 13663m | 6.0m/s | -64.1°C | 42.9% | 0hPa | 2.7V | 00:00:00 | 01:01:38 | 00:00:00 | |
| S57NTA-12 | 2026-09-06 00:06:31 | 45.55419 | 16.50045 | 128° | 88km/h | 13629m | 5.6m/s | -63.8°C | 30.2% | 0hPa | 2.7V | 00:00:00 | 00:00:00 | 00:00:00 | |
| 9A1FER-3 | 2026-09-06 00:06:24 | 45.55498 | 16.49775 | 123° | 106km/h | 13569m | 10.6m/s | -63.8°C | 40.9% | 0hPa | 2.7V | 00:00:00 | 01:01:23 | 00:00:00 | |
| S57NTA-12 | 2026-09-06 00:06:11 | 45.55700 | 16.49372 | 130° | 99km/h | 13479m | 5.8m/s | -64.2°C | 31.7% | 0hPa | 2.7V | 00:00:00 | 00:00:00 | 00:00:00 | |
| 9A1FER-3 | 2026-09-06 00:06:10 | 45.55729 | 16.49318 | 125° | 122km/h | 13468m | 5.6m/s | -64.2°C | 43.4% | 0hPa | 2.7V | 00:00:00 | 01:01:08 | 00:00:00 | |
| 9A1FER-3 | 2026-09-06 00:05:54 | 45.56020 | 16.48797 | 131° | 128km/h | 13380m | 4.2m/s | -64.2°C | 45.0% | 0hPa | 2.7V | 00:00:00 | 01:00:53 | 08:30:00 | |
| OE3JTB-15 | 2026-09-06 00:05:50 | 45.56125 | 16.48627 | 131° | 130km/h | 13358m | 3.3m/s | -64.1°C | 45.5% | 0hPa | 2.7V | 00:00:00 | 00:00:00 | 08:30:00 | |
| 9A1FER-3 | 2026-09-06 00:05:39 | 45.56326 | 16.48260 | 129° | 130km/h | 13314m | 5.1m/s | -63.9°C | 44.5% | 0hPa | 2.7V | 00:00:00 | 01:00:38 | 00:00:00 | |
| S57NTA-12 | 2026-09-06 00:05:29 | 45.56508 | 16.47934 | 129° | 131km/h | 13273m | 3.7m/s | -63.7°C | 33.0% | 0hPa | 2.7V | 00:00:00 | 00:00:00 | 00:00:00 | |
| 9A1FER-3 | 2026-09-06 00:05:25 | 45.56625 | 16.47707 | 126° | 130km/h | 13245m | 3.9m/s | -63.5°C | 45.4% | 0hPa | 2.7V | 00:00:00 | 01:00:23 | 00:00:00 | |
| OE3JTB-15 | 2026-09-06 00:05:21 | 45.56702 | 16.47553 | 126° | 128km/h | 13227m | 4.8m/s | -63.3°C | 45.4% | 0hPa | 2.7V | 00:00:00 | 00:00:00 | 00:00:00 | |
| S57NTA-12 | 2026-09-06 00:05:09 | 45.56915 | 16.47143 | 127° | 131km/h | 13173m | 6.7m/s | -62.9°C | 32.5% | 0hPa | 2.7V | 00:00:00 | 00:00:00 | 00:00:00 | |
| 9A1FER-3 | 2026-09-06 00:04:54 | 45.57201 | 16.46594 | 127° | 122km/h | 13099m | 4.7m/s | -62.2°C | 43.7% | 0hPa | 2.7V | 00:00:00 | 00:59:53 | 00:00:00 | |
| OE3JTB-15 | 2026-09-06 00:04:51 | 45.57258 | 16.46485 | 129° | 120km/h | 13084m | 4.4m/s | -62.1°C | 43.8% | 0hPa | 2.7V | 00:00:00 | 00:59:50 | 00:00:00 | |
| S57NTA-12 | 2026-09-06 00:04:47 | 45.57336 | 16.46352 | 131° | 117km/h | 13063m | 4.5m/s | -62.2°C | 34.0% | 0hPa | 2.7V | 00:00:00 | 00:00:00 | 00:00:00 | |
| 9A1FER-3 | 2026-09-06 00:04:39 | 45.57485 | 16.46074 | 126° | 119km/h | 13026m | 4.8m/s | -62.0°C | 45.3% | 0hPa | 2.7V | 00:00:00 | 00:59:38 | 00:00:00 | |
| 9A1FER-3 | 2026-09-06 00:04:24 | 45.57771 | 16.45579 | 130° | 119km/h | 12950m | 4.6m/s | -61.3°C | 43.4% | 0hPa | 2.7V | 00:00:00 | 00:59:23 | 00:00:00 | |
| S57NTA-12 | 2026-09-06 00:04:23 | 45.57771 | 16.45579 | 130° | 117km/h | 12950m | 4.7m/s | -61.4°C | 32.4% | 0hPa | 2.7V | 00:00:00 | 00:00:00 | 00:00:00 | |
| OE3JTB-15 | 2026-09-06 00:04:22 | 45.57810 | 16.45513 | 131° | 120km/h | 12940m | 4.8m/s | -61.2°C | 43.3% | 0hPa | 2.7V | 00:00:00 | 00:00:00 | 00:00:00 | |
| 9A1FER-3 | 2026-09-06 00:04:09 | 45.58067 | 16.45091 | 133° | 122km/h | 12878m | 4.7m/s | -60.7°C | 43.6% | 0hPa | 2.7V | 00:00:00 | 00:59:08 | 00:00:00 | |
| S57NTA-12 | 2026-09-06 00:04:01 | 45.58212 | 16.44861 | 131° | 120km/h | 12845m | 5.6m/s | -60.6°C | 33.7% | 0hPa | 2.7V | 00:00:00 | 00:00:00 | 00:00:00 | |
| 9A1FER-3 | 2026-09-06 00:03:55 | 45.58368 | 16.44592 | 133° | 122km/h | 12806m | 5.4m/s | -60.4°C | 44.7% | 0hPa | 2.7V | 00:00:00 | 00:58:53 | 00:00:00 | |
| OE3JTB-15 | 2026-09-06 00:03:53 | 45.58388 | 16.44560 | 133° | 122km/h | 12801m | 4.4m/s | -60.4°C | 45.2% | 0hPa | 2.7V | 00:00:00 | 00:00:00 | 00:00:00 | |
| S57NTA-12 | 2026-09-06 00:03:41 | 45.58636 | 16.44165 | 132° | 122km/h | 12744m | 4.4m/s | -60.3°C | 35.5% | 0hPa | 2.7V | 00:00:00 | 00:00:00 | 00:00:00 | |
| 9A1FER-3 | 2026-09-06 00:03:40 | 45.58677 | 16.44099 | 131° | 122km/h | 12734m | 5.1m/s | -60.2°C | 46.6% | 0hPa | 2.7V | 00:00:00 | 00:58:38 | 08:30:00 | |
| 9A1FER-3 | 2026-09-06 00:03:26 | 45.58996 | 16.43615 | 133° | 122km/h | 12664m | 4.6m/s | -59.8°C | 47.4% | 0hPa | 2.7V | 00:00:00 | 00:58:23 | 00:00:00 | |
| S57NTA-12 | 2026-09-06 00:03:17 | 45.59253 | 16.43232 | 135° | 122km/h | 12607m | 3.9m/s | -59.6°C | 40.2% | 0hPa | 2.7V | 00:00:00 | 00:00:00 | 00:00:00 | |
| 9A1FER-3 | 2026-09-06 00:03:14 | 45.59316 | 16.43137 | 135° | 119km/h | 12594m | 5.1m/s | -59.6°C | 53.1% | 0hPa | 2.7V | 00:00:00 | 00:58:08 | 00:00:00 | |
| OE3JTB-15 | 2026-09-06 00:03:03 | 45.59616 | 16.42712 | 135° | 120km/h | 12530m | 5.4m/s | -59.2°C | 55.8% | 0hPa | 2.7V | 00:00:00 | 00:00:00 | 00:00:00 | |
| 9A1FER-3 | 2026-09-06 00:03:02 | 45.59637 | 16.42682 | 135° | 122km/h | 12525m | 3.8m/s | -59.2°C | 56.5% | 0hPa | 2.7V | 00:00:00 | 00:57:53 | 00:00:00 | |
| S57NTA-12 | 2026-09-06 00:02:59 | 45.59680 | 16.42621 | 137° | 120km/h | 12516m | 4.5m/s | -59.2°C | 44.6% | 0hPa | 2.7V | 00:00:00 | 00:00:00 | 00:00:00 | |
| 9A1FER-3 | 2026-09-06 00:02:49 | 45.59971 | 16.42217 | 135° | 117km/h | 12455m | 5.7m/s | -58.9°C | 57.0% | 0hPa | 2.7V | 00:00:00 | 00:57:38 | 00:00:00 | |
| S57NTA-12 | 2026-09-06 00:02:33 | 45.60158 | 16.41945 | 134° | 117km/h | 12409m | 5.0m/s | -58.6°C | 43.1% | 0hPa | 2.7V | 00:00:00 | 00:00:00 | 00:00:00 | |
| OE3JTB-15 | 2026-09-06 00:02:28 | 45.60237 | 16.41818 | 131° | 115km/h | 12392m | 5.2m/s | -58.4°C | 54.5% | 0hPa | 2.7V | 00:00:00 | 00:00:00 | 00:00:00 | |
| 9A1FER-3 | 2026-09-06 00:02:25 | 45.60275 | 16.41754 | 132° | 117km/h | 12383m | 5.5m/s | -58.3°C | 53.7% | 0hPa | 2.7V | 00:00:00 | 00:57:23 | 00:00:00 | |
| S57NTA-12 | 2026-09-06 00:02:10 | 45.60547 | 16.41314 | 131° | 115km/h | 12321m | 5.3m/s | -57.8°C | 40.6% | 0hPa | 2.7V | 00:00:00 | 00:00:00 | 00:00:00 | |
| 9A1FER-3 | 2026-09-06 00:02:09 | 45.60566 | 16.41283 | 132° | 113km/h | 12316m | 3.6m/s | -57.7°C | 52.4% | 0hPa | 2.7V | 00:00:00 | 00:57:08 | 00:00:00 | |
| OE3JTB-15 | 2026-09-06 00:01:59 | 45.60793 | 16.40909 | 131° | 111km/h | 12262m | 4.2m/s | -57.3°C | 52.8% | 0hPa | 2.7V | 00:00:00 | 00:56:56 | 00:00:00 | |
| 9A1FER-3 | 2026-09-06 00:01:56 | 45.60849 | 16.40816 | 132° | 111km/h | 12248m | 4.6m/s | -57.2°C | 52.1% | 0hPa | 2.7V | 00:00:00 | 00:56:53 | 00:00:00 | |
| S57NTA-12 | 2026-09-06 00:01:53 | 45.60963 | 16.40634 | 133° | 113km/h | 12219m | 5.2m/s | -57.0°C | 40.6% | 0hPa | 2.7V | 00:00:00 | 00:00:00 | 00:00:00 | |
| 9A1FER-3 | 2026-09-06 00:01:44 | 45.61134 | 16.40367 | 134° | 111km/h | 12178m | 5.0m/s | -56.6°C | 52.7% | 0hPa | 2.7V | 00:00:00 | 00:56:38 | 00:00:00 | |
| OE3JTB-15 | 2026-09-06 00:01:31 | 45.61344 | 16.40040 | 134° | 113km/h | 12127m | 5.2m/s | -56.3°C | 57.1% | 0hPa | 2.7V | 00:00:00 | 00:00:00 | 08:30:00 | |
| S57NTA-12 | 2026-09-06 00:01:29 | 45.61363 | 16.40011 | 134° | 111km/h | 12123m | 3.8m/s | -56.3°C | 46.0% | 0hPa | 2.7V | 00:00:00 | 00:00:00 | 00:00:00 | |
| 9A1FER-3 | 2026-09-06 00:01:26 | 45.61420 | 16.39922 | 133° | 111km/h | 12110m | 4.4m/s | -56.2°C | 56.9% | 0hPa | 2.7V | 00:00:00 | 00:56:23 | 08:30:00 | |
| 9A1FER-3 | 2026-09-06 00:01:11 | 45.61714 | 16.39484 | 134° | 117km/h | 12043m | 4.2m/s | -55.8°C | 59.5% | 0hPa | 2.7V | 00:00:00 | 00:56:08 | 00:00:00 | |
| S57NTA-12 | 2026-09-06 00:01:08 | 45.61775 | 16.39394 | 135° | 117km/h | 12030m | 4.8m/s | -55.8°C | 47.9% | 0hPa | 2.7V | 00:00:00 | 00:00:00 | 00:00:00 | |
| OE3JTB-15 | 2026-09-06 00:01:00 | 45.61921 | 16.39183 | 136° | 117km/h | 11998m | 4.0m/s | -55.5°C | 59.0% | 0hPa | 2.7V | 00:00:00 | 00:00:00 | 00:00:00 | |
| 9A1FER-3 | 2026-09-06 00:00:54 | 45.62026 | 16.39032 | 135° | 115km/h | 11976m | 4.5m/s | -55.3°C | 59.3% | 0hPa | 2.7V | 00:00:00 | 00:55:53 | 00:00:00 | |
| S57NTA-12 | 2026-09-06 00:00:46 | 45.62211 | 16.38762 | 134° | 117km/h | 11934m | 5.1m/s | -55.1°C | 47.7% | 0hPa | 2.7V | 00:00:00 | 00:00:00 | 00:00:00 | |
| 9A1FER-3 | 2026-09-06 00:00:43 | 45.62330 | 16.38581 | 134° | 115km/h | 11907m | 4.0m/s | -54.8°C | 58.3% | 0hPa | 2.7V | 00:00:00 | 00:55:38 | 00:00:00 | |
| OE3JTB-15 | 2026-09-06 00:00:31 | 45.62508 | 16.38304 | 132° | 115km/h | 11864m | 5.6m/s | -54.4°C | 56.8% | 0hPa | 2.7V | 00:00:00 | 00:55:29 | 00:00:00 | |
| 9A1FER-3 | 2026-09-06 00:00:24 | 45.62624 | 16.38123 | 132° | 113km/h | 11838m | 3.7m/s | -54.2°C | 55.4% | 0hPa | 2.7V | 00:00:00 | 00:55:23 | 00:00:00 | |
| 9A1FER-3 | 2026-09-06 00:00:10 | 45.62916 | 16.37669 | 133° | 115km/h | 11774m | 3.9m/s | -53.6°C | 50.3% | 0hPa | 2.7V | 00:00:00 | 00:55:08 | 00:00:00 | |
| S57NTA-12 | 2026-09-06 00:00:04 | 45.62993 | 16.37545 | 133° | 115km/h | 11758m | 3.9m/s | -53.5°C | 40.1% | 0hPa | 2.7V | 00:00:00 | 00:00:00 | 00:00:00 | |
| OE3JTB-15 | 2026-09-06 00:00:02 | 45.63073 | 16.37422 | 134° | 115km/h | 11739m | 3.8m/s | -53.3°C | 49.2% | 0hPa | 2.7V | 00:00:00 | 00:00:00 | 00:00:00 | |
| 9A1FER-3 | 2026-09-05 23:59:54 | 45.63212 | 16.37212 | 133° | 115km/h | 11709m | 3.4m/s | -53.1°C | 47.8% | 0hPa | 2.7V | 00:00:00 | 00:54:53 | 00:00:00 | |
| S57NTA-12 | 2026-09-05 23:59:42 | 45.63426 | 16.36871 | 134° | 117km/h | 11660m | 4.8m/s | -52.7°C | 35.4% | 0hPa | 2.7V | 00:00:00 | 00:00:00 | 00:00:00 | |
| 9A1FER-3 | 2026-09-05 23:59:39 | 45.63505 | 16.36746 | 130° | 115km/h | 11643m | 3.7m/s | -52.5°C | 43.9% | 0hPa | 2.7V | 00:00:00 | 00:54:38 | 00:00:00 | |
| OE3JTB-15 | 2026-09-05 23:59:32 | 45.63634 | 16.36520 | 129° | 115km/h | 11611m | 5.3m/s | -52.2°C | 42.4% | 0hPa | 2.7V | 00:00:00 | 00:00:00 | 00:00:00 | |
| 9A1FER-3 | 2026-09-05 23:59:24 | 45.63784 | 16.36262 | 131° | 115km/h | 11577m | 3.3m/s | -51.9°C | 40.5% | 0hPa | 2.7V | 00:00:00 | 00:54:23 | 00:00:00 | |
| S57NTA-12 | 2026-09-05 23:59:23 | 45.63803 | 16.36230 | 131° | 115km/h | 11573m | 6.3m/s | -51.9°C | 32.2% | 0hPa | 2.7V | 00:00:00 | 00:00:00 | 00:00:00 | |
| 9A1FER-3 | 2026-09-05 23:59:09 | 45.64061 | 16.35776 | 130° | 115km/h | 11508m | 4.4m/s | -51.2°C | 36.1% | 0hPa | 2.7V | 00:00:00 | 00:54:08 | 08:30:00 | |
| OE3JTB-15 | 2026-09-05 23:59:03 | 45.64173 | 16.35586 | 130° | 111km/h | 11479m | 4.3m/s | -51.0°C | 34.3% | 0hPa | 2.9V | 00:00:00 | 00:54:02 | 00:00:00 | |
| S57NTA-12 | 2026-09-05 23:59:02 | 45.64192 | 16.35553 | 130° | 115km/h | 11474m | 5.7m/s | -51.0°C | 27.2% | 0hPa | 2.9V | 00:00:00 | 00:00:00 | 00:00:00 | |
| 9A1FER-3 | 2026-09-05 23:58:54 | 45.64330 | 16.35291 | 128° | 111km/h | 11439m | 5.3m/s | -50.6°C | 33.5% | 0hPa | 2.9V | 00:00:00 | 00:53:53 | 00:00:00 | |
| S57NTA-12 | 2026-09-05 23:58:41 | 45.64537 | 16.34912 | 127° | 113km/h | 11387m | 3.6m/s | -50.4°C | 27.4% | 0hPa | 2.9V | 00:00:00 | 00:00:00 | 00:00:00 | |
| 9A1FER-3 | 2026-09-05 23:58:39 | 45.64588 | 16.34813 | 127° | 108km/h | 11374m | 5.1m/s | -50.3°C | 34.6% | 0hPa | 2.9V | 00:00:00 | 00:53:38 | 00:00:00 | |
| OE3JTB-15 | 2026-09-05 23:58:34 | 45.64672 | 16.34658 | 128° | 106km/h | 11353m | 4.3m/s | -50.2°C | 34.8% | 0hPa | 2.9V | 00:00:00 | 00:00:00 | 00:00:00 | |
| 9A1FER-3 | 2026-09-05 23:58:24 | 45.64830 | 16.34345 | 128° | 106km/h | 11310m | 4.0m/s | -49.9°C | 35.9% | 0hPa | 2.9V | 00:00:00 | 00:53:23 | 00:00:00 | |
| S57NTA-12 | 2026-09-05 23:58:20 | 45.64880 | 16.34254 | 130° | 106km/h | 11296m | 6.0m/s | -49.8°C | 29.2% | 0hPa | 2.9V | 00:00:00 | 00:00:00 | 00:00:00 | |
| 9A1FER-3 | 2026-09-05 23:58:09 | 45.65080 | 16.33896 | 129° | 106km/h | 11243m | 4.0m/s | -49.5°C | 38.0% | 0hPa | 2.9V | 00:00:00 | 00:53:08 | 00:00:00 | |
| OE3JTB-15 | 2026-09-05 23:58:05 | 45.65147 | 16.33777 | 129° | 108km/h | 11227m | 3.1m/s | 0°C | 0% | 0hPa | 2.9V | 00:00:00 | 00:00:00 | 00:00:00 | |
| S57NTA-12 | 2026-09-05 23:57:59 | 45.65230 | 16.33626 | 129° | 108km/h | 11206m | 4.0m/s | -49.3°C | 32.2% | 0hPa | 2.9V | 00:00:00 | 00:00:00 | 00:00:00 | |
| 9A1FER-3 | 2026-09-05 23:57:54 | 45.65332 | 16.33447 | 131° | 108km/h | 11180m | 5.6m/s | -49.1°C | 40.7% | 0hPa | 2.9V | 00:00:00 | 00:52:53 | 00:00:00 | |
| 9A1FER-3 | 2026-09-05 23:57:39 | 45.65592 | 16.32994 | 129° | 106km/h | 11112m | 4.0m/s | -48.6°C | 39.0% | 0hPa | 2.9V | 00:00:00 | 00:52:38 | 00:00:00 | |
| OE3JTB-15 | 2026-09-05 23:57:37 | 45.65661 | 16.32874 | 130° | 104km/h | 11094m | 4.7m/s | 0°C | 0% | 0hPa | 2.9V | 00:00:00 | 00:52:34 | 00:00:00 | |
| 9A1FER-3 | 2026-09-05 23:57:24 | 45.65843 | 16.32551 | 127° | 102km/h | 11046m | 3.9m/s | -48.1°C | 37.2% | 0hPa | 2.9V | 00:00:00 | 00:52:23 | 00:00:00 | |
| S57NTA-12 | 2026-09-05 23:57:18 | 45.65923 | 16.32404 | 129° | 106km/h | 11026m | 3.2m/s | -47.9°C | 30.2% | 0hPa | 2.9V | 00:00:00 | 00:00:00 | 00:00:00 | |
| 9A1FER-3 | 2026-09-05 23:57:09 | 45.66088 | 16.32114 | 128° | 104km/h | 10983m | 5.3m/s | -47.5°C | 36.2% | 0hPa | 2.9V | 00:00:00 | 00:52:08 | 00:00:00 | |
| 9A1FER-3 | 2026-09-05 23:56:54 | 45.66328 | 16.31670 | 128° | 100km/h | 10915m | 2.7m/s | -46.9°C | 35.8% | 0hPa | 2.9V | 00:00:00 | 00:51:53 | 08:30:00 | |
| 9A1FER-3 | 2026-09-05 23:56:39 | 45.66560 | 16.31232 | 130° | 104km/h | 10837m | 4.5m/s | -46.2°C | 33.3% | 0hPa | 2.9V | 00:00:00 | 00:51:38 | 00:00:00 | |
| S57NTA-12 | 2026-09-05 23:56:36 | 45.66595 | 16.31172 | 131° | 110km/h | 10825m | 8.4m/s | -46.2°C | 27.2% | 0hPa | 2.9V | 00:00:00 | 00:00:00 | 00:00:00 | |
| 9A1FER-3 | 2026-09-05 23:56:24 | 45.66807 | 16.30792 | 130° | 102km/h | 10752m | 4.7m/s | -45.6°C | 34.2% | 0hPa | 2.9V | 00:00:00 | 00:51:23 | 00:00:00 | |
| S57NTA-12 | 2026-09-05 23:56:15 | 45.66934 | 16.30553 | 131° | 99km/h | 10716m | 3.2m/s | -45.6°C | 30.7% | 0hPa | 2.9V | 00:00:00 | 00:00:00 | 00:00:00 | |
| OE3JTB-15 | 2026-09-05 23:56:13 | 45.66983 | 16.30472 | 130° | 100km/h | 10702m | 5.1m/s | 0°C | 0% | 0hPa | 2.9V | 00:00:00 | 00:00:00 | 00:00:00 | |
| 9A1FER-3 | 2026-09-05 23:56:09 | 45.67047 | 16.30358 | 128° | 99km/h | 10686m | 4.8m/s | -45.4°C | 37.1% | 0hPa | 2.9V | 00:00:00 | 00:51:08 | 00:00:00 | |
| S57NTA-12 | 2026-09-05 23:55:56 | 45.67251 | 16.29992 | 131° | 97km/h | 10628m | 4.1m/s | -44.9°C | 29.4% | 0hPa | 2.9V | 00:00:00 | 00:00:00 | 00:00:00 | |
| 9A1FER-3 | 2026-09-05 23:55:54 | 45.67282 | 16.29938 | 130° | 97km/h | 10619m | 4.3m/s | -44.8°C | 35.1% | 0hPa | 2.9V | 00:00:00 | 00:50:53 | 00:00:00 | |
| 9A1FER-3 | 2026-09-05 23:55:39 | 45.67523 | 16.29542 | 132° | 97km/h | 10554m | 4.8m/s | -44.3°C | 37.3% | 0hPa | 2.9V | 00:00:00 | 00:50:38 | 00:00:00 | |
| 9A1FER-3 | 2026-09-05 23:55:24 | 45.67765 | 16.29154 | 127° | 93km/h | 10488m | 4.7m/s | -43.9°C | 39.5% | 0hPa | 2.9V | 00:00:00 | 00:50:23 | 00:00:00 | |
| S57NTA-12 | 2026-09-05 23:55:14 | 45.67901 | 16.28919 | 131° | 91km/h | 10445m | 5.0m/s | -43.6°C | 32.8% | 0hPa | 2.9V | 00:00:00 | 00:00:00 | 00:00:00 | |
| 9A1FER-3 | 2026-09-05 23:55:09 | 45.67991 | 16.28761 | 128° | 89km/h | 10417m | 4.2m/s | -43.4°C | 39.1% | 0hPa | 2.9V | 00:00:00 | 00:50:08 | 00:00:00 | |
| 9A1FER-3 | 2026-09-05 23:54:54 | 45.68196 | 16.28377 | 128° | 91km/h | 10350m | 4.8m/s | -42.8°C | 38.2% | 0hPa | 2.9V | 00:00:00 | 00:49:53 | 00:00:00 | |
| 9A1FER-3 | 2026-09-05 23:54:39 | 45.68414 | 16.27998 | 129° | 89km/h | 10284m | 5.4m/s | -42.3°C | 41.0% | 0hPa | 2.9V | 00:00:00 | 00:49:38 | 08:30:00 | |
| S57NTA-12 | 2026-09-05 23:54:33 | 45.68497 | 16.27845 | 130° | 91km/h | 10260m | 4.2m/s | -42.2°C | 37.7% | 0hPa | 2.9V | 00:00:00 | 00:00:00 | 00:00:00 | |
| 9A1FER-3 | 2026-09-05 23:54:24 | 45.68625 | 16.27614 | 127° | 88km/h | 10219m | 4.4m/s | -41.9°C | 49.6% | 0hPa | 2.9V | 00:00:00 | 00:49:23 | 00:00:00 | |
| S57NTA-12 | 2026-09-05 23:54:11 | 45.68788 | 16.27314 | 125° | 89km/h | 10168m | 4.9m/s | -41.6°C | 45.8% | 0hPa | 2.9V | 00:00:00 | 00:00:00 | 00:00:00 | |
| 9A1FER-3 | 2026-09-05 23:54:09 | 45.68827 | 16.27233 | 124° | 89km/h | 10152m | 7.5m/s | -41.4°C | 53.2% | 0hPa | 2.9V | 00:00:00 | 00:49:08 | 00:00:00 | |
| 9A1FER-3 | 2026-09-05 23:53:54 | 45.69035 | 16.26853 | 127° | 88km/h | 10062m | 8.9m/s | -40.9°C | 66.0% | 0hPa | 2.9V | 00:00:00 | 00:48:53 | 00:00:00 | |
| S57NTA-12 | 2026-09-05 23:53:49 | 45.69090 | 16.26756 | 132° | 84km/h | 10035m | 5.4m/s | -40.7°C | 56.9% | 0hPa | 2.9V | 00:00:00 | 00:00:00 | 00:00:00 | |
| 9A1FER-3 | 2026-09-05 23:53:39 | 45.69233 | 16.26477 | 128° | 86km/h | 9975m | 5.8m/s | -40.1°C | 63.0% | 0hPa | 2.9V | 00:00:00 | 00:48:38 | 00:00:00 | |
| S57NTA-12 | 2026-09-05 23:53:28 | 45.69368 | 16.26232 | 124° | 86km/h | 9917m | 7.3m/s | -39.5°C | 51.8% | 0hPa | 2.9V | 00:00:00 | 00:00:00 | 00:00:00 | |
| 9A1FER-3 | 2026-09-05 23:53:24 | 45.69430 | 16.26104 | 128° | 89km/h | 9877m | 7.4m/s | -39.2°C | 57.8% | 0hPa | 2.9V | 00:00:00 | 00:48:23 | 00:00:00 | |
| S57NTA-12 | 2026-09-05 23:53:08 | 45.69646 | 16.25694 | 124° | 91km/h | 9778m | 4.6m/s | -38.3°C | 48.9% | 0hPa | 2.9V | 00:00:00 | 00:00:00 | 00:00:00 | |
| 9A1FER-3 | 2026-09-05 23:52:54 | 45.69821 | 16.25340 | 125° | 89km/h | 9705m | 5.5m/s | -37.6°C | 62.1% | 0hPa | 2.9V | 00:00:00 | 00:47:53 | 00:00:00 | |
| S57NTA-12 | 2026-09-05 23:52:46 | 45.69918 | 16.25131 | 127° | 88km/h | 9669m | 4.1m/s | -37.3°C | 53.2% | 0hPa | 2.9V | 00:00:00 | 00:00:00 | 00:00:00 | |
| 9A1FER-3 | 2026-09-05 23:52:39 | 45.70008 | 16.24940 | 121° | 88km/h | 9638m | 4.9m/s | -36.9°C | 58.2% | 0hPa | 2.9V | 00:00:00 | 00:47:38 | 00:00:00 | |
| 9A1FER-3 | 2026-09-05 23:52:24 | 45.70187 | 16.24533 | 123° | 88km/h | 9572m | 3.4m/s | -36.3°C | 56.3% | 0hPa | 2.9V | 00:00:00 | 00:47:23 | 08:30:00 | |
| 9A1FER-3 | 2026-09-05 23:52:09 | 45.70363 | 16.24126 | 126° | 93km/h | 9492m | 6.5m/s | -35.5°C | 53.3% | 0hPa | 2.9V | 00:00:00 | 00:47:08 | 00:00:00 | |
| S57NTA-12 | 2026-09-05 23:52:01 | 45.70456 | 16.23932 | 123° | 91km/h | 9448m | 9.0m/s | -35.1°C | 45.2% | 0hPa | 2.9V | 00:00:00 | 00:00:00 | 00:00:00 | |
| 9A1FER-3 | 2026-09-05 23:51:54 | 45.70561 | 16.23706 | 125° | 91km/h | 9403m | 5.4m/s | -34.7°C | 50.5% | 0hPa | 2.9V | 00:00:00 | 00:46:53 | 00:00:00 | |
| S57NTA-12 | 2026-09-05 23:51:41 | 45.70719 | 16.23386 | 128° | 99km/h | 9338m | 5.4m/s | 0°C | 0% | 0hPa | 2.9V | 00:00:00 | 00:00:00 | 00:00:00 | |
| 9A1FER-3 | 2026-09-05 23:51:39 | 45.70760 | 16.23300 | 123° | 93km/h | 9320m | 6.4m/s | -33.9°C | 50.5% | 0hPa | 2.9V | 00:00:00 | 00:46:38 | 00:00:00 | |
| 9A1FER-3 | 2026-09-05 23:51:24 | 45.70946 | 16.22879 | 126° | 91km/h | 9238m | 5.7m/s | -33.0°C | 46.1% | 0hPa | 2.9V | 00:00:00 | 00:46:23 | 00:00:00 | |
| S57NTA-12 | 2026-09-05 23:51:21 | 45.70974 | 16.22825 | 128° | 93km/h | 9227m | 6.7m/s | 0°C | 0% | 0hPa | 2.9V | 00:00:00 | 00:00:00 | 00:00:00 | |
| 9A1FER-3 | 2026-09-05 23:51:09 | 45.71135 | 16.22460 | 125° | 95km/h | 9145m | 4.6m/s | -32.2°C | 43.6% | 0hPa | 2.9V | 00:00:00 | 00:46:08 | 00:00:00 | |
| S57NTA-12 | 2026-09-05 23:50:59 | 45.71264 | 16.22219 | 125° | 97km/h | 9090m | 5.4m/s | 0°C | 0% | 0hPa | 2.9V | 00:00:00 | 00:00:00 | 00:00:00 | |
| 9A1FER-3 | 2026-09-05 23:50:54 | 45.71344 | 16.22039 | 122° | 95km/h | 9057m | 5.4m/s | -31.4°C | 42.1% | 0hPa | 2.9V | 00:00:00 | 00:45:53 | 00:00:00 | |
| 9A1FER-3 | 2026-09-05 23:50:39 | 45.71542 | 16.21609 | 124° | 99km/h | 8979m | 6.0m/s | -30.6°C | 37.4% | 0hPa | 2.9V | 00:00:00 | 00:45:38 | 00:00:00 | |
| 9A1FER-3 | 2026-09-05 23:50:24 | 45.71747 | 16.21168 | 119° | 95km/h | 8883m | 5.7m/s | -29.8°C | 30.1% | 0hPa | 2.9V | 00:00:00 | 00:45:23 | 00:00:00 | |
| S57NTA-12 | 2026-09-05 23:50:18 | 45.71808 | 16.21021 | 123° | 97km/h | 8856m | 6.3m/s | 0°C | 0% | 0hPa | 2.9V | 00:00:00 | 00:00:00 | 00:00:00 | |
| 9A1FER-3 | 2026-09-05 23:50:09 | 45.71949 | 16.20741 | 122° | 97km/h | 8794m | 7.7m/s | -29.0°C | 27.9% | 0hPa | 2.9V | 00:00:00 | 00:45:08 | 08:30:00 | |
| 9A1FER-3 | 2026-09-05 23:49:54 | 45.72170 | 16.20317 | 128° | 95km/h | 8698m | 5.2m/s | -28.1°C | 25.8% | 0hPa | 2.9V | 00:00:00 | 00:44:53 | 00:00:00 | |
| 9A1FER-3 | 2026-09-05 23:49:39 | 45.72396 | 16.19913 | 130° | 93km/h | 8623m | 4.2m/s | -27.4°C | 24.6% | 0hPa | 2.9V | 00:00:00 | 00:44:38 | 00:00:00 | |
| 9A1FER-3 | 2026-09-05 23:49:24 | 45.72615 | 16.19518 | 129° | 97km/h | 8537m | 6.2m/s | -26.5°C | 22.7% | 0hPa | 2.9V | 00:00:00 | 00:44:23 | 00:00:00 | |
| 9A1FER-3 | 2026-09-05 23:49:09 | 45.72849 | 16.19116 | 132° | 95km/h | 8465m | 6.6m/s | -25.8°C | 21.0% | 0hPa | 2.9V | 00:00:00 | 00:44:08 | 00:00:00 | |
| 9A1FER-3 | 2026-09-05 23:48:54 | 45.73082 | 16.18716 | 131° | 95km/h | 8370m | 7.5m/s | -25.1°C | 21.6% | 0hPa | 2.9V | 00:00:00 | 00:43:53 | 00:00:00 | |
| 9A1FER-3 | 2026-09-05 23:48:24 | 45.73550 | 16.17925 | 129° | 97km/h | 8209m | 4.8m/s | -23.6°C | 20.9% | 0hPa | 2.9V | 00:00:00 | 00:43:23 | 00:00:00 | |
| 9A1FER-3 | 2026-09-05 23:48:09 | 45.73792 | 16.17524 | 130° | 97km/h | 8138m | 4.0m/s | -23.0°C | 20.3% | 0hPa | 2.9V | 00:00:00 | 00:43:08 | 00:00:00 | |
| 9A1FER-3 | 2026-09-05 23:47:54 | 45.74026 | 16.17125 | 133° | 99km/h | 8057m | 5.2m/s | -22.3°C | 19.8% | 0hPa | 2.9V | 00:00:00 | 00:42:53 | 08:30:00 | |
| 9A1FER-3 | 2026-09-05 23:47:39 | 45.74271 | 16.16724 | 130° | 93km/h | 7974m | 3.9m/s | -21.7°C | 16.4% | 0hPa | 2.9V | 00:00:00 | 00:42:38 | 00:00:00 | |
| 9A1FER-3 | 2026-09-05 23:47:24 | 45.74511 | 16.16351 | 134° | 93km/h | 7888m | 6.8m/s | -21.1°C | 19.2% | 0hPa | 2.9V | 00:00:00 | 00:42:23 | 00:00:00 | |
| 9A1FER-3 | 2026-09-05 23:47:09 | 45.74756 | 16.15993 | 135° | 91km/h | 7799m | 4.4m/s | -20.5°C | 21.1% | 0hPa | 2.9V | 00:00:00 | 00:42:08 | 00:00:00 | |
| 9A1FER-3 | 2026-09-05 23:46:54 | 45.75012 | 16.15658 | 136° | 91km/h | 7710m | 6.3m/s | -20.0°C | 24.7% | 0hPa | 2.9V | 00:00:00 | 00:41:53 | 00:00:00 | |
| 9A1FER-3 | 2026-09-05 23:46:39 | 45.75256 | 16.15311 | 138° | 89km/h | 7623m | 4.1m/s | -19.4°C | 24.8% | 0hPa | 2.9V | 00:00:00 | 00:41:38 | 00:00:00 | |
| 9A1FER-3 | 2026-09-05 23:46:24 | 45.75510 | 16.14987 | 138° | 84km/h | 7547m | 5.9m/s | -18.9°C | 23.2% | 0hPa | 2.9V | 00:00:00 | 00:41:23 | 00:00:00 | |
| 9A1FER-3 | 2026-09-05 23:46:09 | 45.75734 | 16.14660 | 138° | 77km/h | 7456m | 4.6m/s | -18.3°C | 25.2% | 0hPa | 2.9V | 00:00:00 | 00:41:08 | 00:00:00 | |
| 9A1FER-3 | 2026-09-05 23:45:54 | 45.75937 | 16.14365 | 132° | 77km/h | 7371m | 7.3m/s | -17.6°C | 24.2% | 0hPa | 2.9V | 00:00:00 | 00:40:53 | 00:00:00 | |
| 9A1FER-3 | 2026-09-05 23:45:39 | 45.76127 | 16.14050 | 133° | 75km/h | 7283m | 4.6m/s | -16.8°C | 24.3% | 0hPa | 2.9V | 00:00:00 | 00:40:38 | 08:30:00 | |
| 9A1FER-3 | 2026-09-05 23:45:24 | 45.76307 | 16.13734 | 130° | 75km/h | 7196m | 6.9m/s | -16.0°C | 23.8% | 0hPa | 2.9V | 00:00:00 | 00:40:23 | 00:00:00 | |
| 9A1FER-3 | 2026-09-05 23:45:09 | 45.76486 | 16.13418 | 126° | 77km/h | 7116m | 5.7m/s | -15.3°C | 23.3% | 0hPa | 2.9V | 00:00:00 | 00:40:08 | 00:00:00 | |
| 9A1FER-3 | 2026-09-05 23:44:54 | 45.76647 | 16.13078 | 127° | 71km/h | 7020m | 4.6m/s | -14.5°C | 21.9% | 0hPa | 2.9V | 00:00:00 | 00:39:53 | 00:00:00 | |
| 9A1FER-3 | 2026-09-05 23:44:39 | 45.76797 | 16.12752 | 124° | 75km/h | 6929m | 5.1m/s | -13.7°C | 20.8% | 0hPa | 2.9V | 00:00:00 | 00:39:38 | 00:00:00 | |
| 9A1FER-3 | 2026-09-05 23:44:24 | 45.76956 | 16.12414 | 120° | 78km/h | 6842m | 3.1m/s | -12.9°C | 20.4% | 0hPa | 2.9V | 00:00:00 | 00:39:23 | 00:00:00 | |
| 9A1FER-3 | 2026-09-05 23:44:09 | 45.77095 | 16.12036 | 119° | 80km/h | 6750m | 7.1m/s | -12.3°C | 21.8% | 0hPa | 2.9V | 00:00:00 | 00:39:08 | 00:00:00 | |
| 9A1FER-3 | 2026-09-05 23:43:54 | 45.77246 | 16.11658 | 124° | 77km/h | 6656m | 6.8m/s | -11.7°C | 23.1% | 0hPa | 2.7V | 00:00:00 | 00:38:53 | 00:00:00 | |
| 9A1FER-3 | 2026-09-05 23:43:39 | 45.77416 | 16.11327 | 130° | 73km/h | 6560m | 9.5m/s | -11.6°C | 27.0% | 0hPa | 2.7V | 00:00:00 | 00:38:38 | 00:00:00 | |
| 9A1FER-3 | 2026-09-05 23:43:24 | 45.77584 | 16.11012 | 126° | 73km/h | 6477m | 6.6m/s | -11.2°C | 29.2% | 0hPa | 2.7V | 00:00:00 | 00:38:23 | 08:30:00 | |
| 9A1FER-3 | 2026-09-05 23:43:09 | 45.77748 | 16.10684 | 124° | 75km/h | 6394m | 4.6m/s | -11.0°C | 33.4% | 0hPa | 2.9V | 00:00:00 | 00:38:08 | 00:00:00 | |
| 9A1FER-3 | 2026-09-05 23:42:54 | 45.77901 | 16.10349 | 126° | 73km/h | 6304m | 4.9m/s | -10.4°C | 31.5% | 0hPa | 2.9V | 00:00:00 | 00:37:53 | 00:00:00 | |
| 9A1FER-3 | 2026-09-05 23:42:39 | 45.78032 | 16.10003 | 115° | 75km/h | 6217m | 3.4m/s | -9.7°C | 31.3% | 0hPa | 2.9V | 00:00:00 | 00:37:38 | 00:00:00 | |
| 9A1FER-3 | 2026-09-05 23:42:24 | 45.78178 | 16.09662 | 121° | 73km/h | 6139m | 5.5m/s | -9.3°C | 28.2% | 0hPa | 2.9V | 00:00:00 | 00:37:23 | 00:00:00 | |
| 9A1FER-3 | 2026-09-05 23:42:09 | 45.78309 | 16.09308 | 118° | 78km/h | 6054m | 4.1m/s | -8.8°C | 18.8% | 0hPa | 2.9V | 00:00:00 | 00:37:08 | 00:00:00 | |
| 9A1FER-3 | 2026-09-05 23:41:54 | 45.78437 | 16.08928 | 116° | 77km/h | 5972m | 5.5m/s | -8.6°C | 1.8% | 0hPa | 2.9V | 00:00:00 | 00:36:53 | 00:00:00 | |
| 9A1FER-3 | 2026-09-05 23:41:39 | 45.78554 | 16.08556 | 115° | 68km/h | 5888m | 3.8m/s | -8.2°C | 3.5% | 0hPa | 3.0V | 00:00:00 | 00:36:38 | 00:00:00 | |
| 9A1FER-3 | 2026-09-05 23:41:24 | 45.78656 | 16.08219 | 111° | 62km/h | 5807m | 5.0m/s | -7.9°C | 4.0% | 0hPa | 3.0V | 00:00:00 | 00:36:23 | 00:00:00 | |
| 9A1FER-3 | 2026-09-05 23:41:09 | 45.78748 | 16.07906 | 119° | 60km/h | 5731m | 4.4m/s | -7.4°C | 4.8% | 0hPa | 3.0V | 00:00:00 | 00:36:08 | 08:30:00 | |
| 9A1FER-3 | 2026-09-05 23:40:54 | 45.78851 | 16.07617 | 114° | 57km/h | 5667m | 4.2m/s | -7.1°C | 5.5% | 0hPa | 2.9V | 00:00:00 | 00:35:53 | 00:00:00 | |
| 9A1FER-3 | 2026-09-05 23:40:39 | 45.78928 | 16.07327 | 115° | 55km/h | 5587m | 4.7m/s | -6.9°C | 5.8% | 0hPa | 2.9V | 00:00:00 | 00:35:38 | 00:00:00 | |
| 9A1FER-3 | 2026-09-05 23:40:24 | 45.79022 | 16.07056 | 117° | 55km/h | 5518m | 3.6m/s | -6.5°C | 5.7% | 0hPa | 2.9V | 00:00:00 | 00:35:23 | 00:00:00 | |
| 9A1FER-3 | 2026-09-05 23:40:09 | 45.79114 | 16.06791 | 116° | 55km/h | 5437m | 5.5m/s | -5.9°C | 5.8% | 0hPa | 2.9V | 00:00:00 | 00:35:08 | 00:00:00 | |
| 9A1FER-3 | 2026-09-05 23:39:54 | 45.79207 | 16.06526 | 117° | 55km/h | 5364m | 4.6m/s | -5.6°C | 6.5% | 0hPa | 2.9V | 00:00:00 | 00:34:53 | 00:00:00 | |
| 9A1FER-3 | 2026-09-05 23:39:39 | 45.79305 | 16.06263 | 131° | 55km/h | 5296m | 3.0m/s | -5.1°C | 7.1% | 0hPa | 2.9V | 00:00:00 | 00:34:38 | 00:00:00 | |
| 9A1FER-3 | 2026-09-05 23:39:24 | 45.79417 | 16.06019 | 130° | 53km/h | 5213m | 5.4m/s | -4.7°C | 7.5% | 0hPa | 3.0V | 00:00:00 | 00:34:23 | 00:00:00 | |
| 9A1FER-3 | 2026-09-05 23:39:09 | 45.79536 | 16.05787 | 133° | 53km/h | 5131m | 4.9m/s | -4.3°C | 7.7% | 0hPa | 3.0V | 00:00:00 | 00:34:08 | 00:00:00 | |
| 9A1FER-3 | 2026-09-05 23:38:54 | 45.79678 | 16.05578 | 125° | 55km/h | 5048m | 6.5m/s | -3.7°C | 8.0% | 0hPa | 3.0V | 00:00:00 | 00:33:53 | 08:30:00 | |
| 9A1FER-3 | 2026-09-05 23:38:39 | 45.79803 | 16.05340 | 137° | 55km/h | 4970m | 5.8m/s | -3.3°C | 7.6% | 0hPa | 3.0V | 00:00:00 | 00:33:38 | 00:00:00 | |
| 9A1FER-3 | 2026-09-05 23:38:24 | 45.79936 | 16.05116 | 128° | 57km/h | 4900m | 7.6m/s | -2.7°C | 6.7% | 0hPa | 3.0V | 00:00:00 | 00:33:23 | 00:00:00 | |
| 9A1FER-3 | 2026-09-05 23:38:09 | 45.80077 | 16.04880 | 135° | 55km/h | 4823m | 5.9m/s | -2.3°C | 7.3% | 0hPa | 3.0V | 00:00:00 | 00:33:08 | 00:00:00 | |
| 9A1FER-3 | 2026-09-05 23:37:54 | 45.80217 | 16.04662 | 125° | 53km/h | 4748m | 4.1m/s | -2.0°C | 7.2% | 0hPa | 3.0V | 00:00:00 | 00:32:53 | 00:00:00 | |
| 9A1FER-3 | 2026-09-05 23:37:39 | 45.80348 | 16.04442 | 132° | 51km/h | 4672m | 4.3m/s | -2.1°C | 5.9% | 0hPa | 3.0V | 00:00:00 | 00:32:38 | 00:00:00 | |
| 9A1FER-3 | 2026-09-05 23:37:24 | 45.80481 | 16.04242 | 134° | 53km/h | 4608m | 6.8m/s | -1.5°C | 5.3% | 0hPa | 3.0V | 00:00:00 | 00:32:23 | 00:00:00 | |
| 9A1FER-3 | 2026-09-05 23:37:09 | 45.80609 | 16.04022 | 133° | 49km/h | 4522m | 6.4m/s | -1.0°C | 5.4% | 0hPa | 3.0V | 00:00:00 | 00:32:08 | 00:00:00 | |
| 9A1FER-3 | 2026-09-05 23:36:54 | 45.80729 | 16.03815 | 128° | 44km/h | 4443m | 3.5m/s | -1.7°C | 8.6% | 0hPa | 3.0V | 00:00:00 | 00:31:53 | 00:00:00 | |
| 9A1FER-3 | 2026-09-05 23:36:39 | 45.80827 | 16.03628 | 125° | 38km/h | 4379m | 5.2m/s | -1.9°C | 25.0% | 0hPa | 3.0V | 00:00:00 | 00:31:38 | 08:30:00 | |
| 9A1FER-3 | 2026-09-05 23:36:24 | 45.80893 | 16.03447 | 103° | 33km/h | 4300m | 3.5m/s | -3.7°C | 67.9% | 0hPa | 3.0V | 00:00:00 | 00:31:23 | 00:00:00 | |
| 9A1FER-3 | 2026-09-05 23:36:09 | 45.80919 | 16.03277 | 111° | 31km/h | 4232m | 7.1m/s | -3.1°C | 86.7% | 0hPa | 3.0V | 00:00:00 | 00:31:08 | 00:00:00 | |
| 9A1FER-3 | 2026-09-05 23:35:54 | 45.80941 | 16.03110 | 85° | 31km/h | 4155m | 3.5m/s | -2.9°C | 90.7% | 0hPa | 3.0V | 00:00:00 | 00:30:53 | 00:00:00 | |
| 9A1FER-3 | 2026-09-05 23:35:39 | 45.80962 | 16.02951 | 108° | 31km/h | 4080m | 2.6m/s | -1.9°C | 0% | 0hPa | 3.0V | 00:00:00 | 00:30:38 | 00:00:00 | |
| 9A1FER-3 | 2026-09-05 23:35:24 | 45.80989 | 16.02793 | 98° | 31km/h | 4006m | 5.7m/s | -1.7°C | 0% | 0hPa | 3.0V | 00:00:00 | 00:30:23 | 00:00:00 | |
| 9A1FER-3 | 2026-09-05 23:35:09 | 45.81035 | 16.02640 | 112° | 20km/h | 3936m | 5.3m/s | -1.2°C | 0% | 0hPa | 3.0V | 00:00:00 | 00:30:08 | 00:00:00 | |
| 9A1FER-3 | 2026-09-05 23:34:54 | 45.81059 | 16.02541 | 128° | 27km/h | 3862m | 4.0m/s | -0.4°C | 0% | 0hPa | 3.0V | 00:00:00 | 00:29:53 | 00:00:00 | |
| 9A1FER-3 | 2026-09-05 23:34:39 | 45.81087 | 16.02402 | 84° | 16km/h | 3790m | 4.6m/s | 0.0°C | 0% | 0hPa | 3.0V | 00:00:00 | 00:29:38 | 00:00:00 | |
| 9A1FER-3 | 2026-09-05 23:34:24 | 45.81085 | 16.02312 | 136° | 18km/h | 3719m | 4.6m/s | 0.4°C | 0% | 0hPa | 3.0V | 00:00:00 | 00:29:23 | 08:30:00 | |
| 9A1FER-3 | 2026-09-05 23:34:09 | 45.81121 | 16.02226 | 90° | 18km/h | 3638m | 5.1m/s | 1.0°C | 0% | 0hPa | 3.0V | 00:00:00 | 00:29:08 | 00:00:00 | |
| 9A1FER-3 | 2026-09-05 23:33:54 | 45.81148 | 16.02142 | 161° | 18km/h | 3563m | 4.5m/s | 1.5°C | 0% | 0hPa | 3.0V | 00:00:00 | 00:28:53 | 00:00:00 | |
| 9A1FER-3 | 2026-09-05 23:33:39 | 45.81162 | 16.02053 | 66° | 20km/h | 3497m | 6.0m/s | 2.0°C | 98.6% | 0hPa | 3.0V | 00:00:00 | 00:28:38 | 00:00:00 | |
| 9A1FER-3 | 2026-09-05 23:33:24 | 45.81137 | 16.01953 | 62° | 15km/h | 3432m | 3.8m/s | 2.5°C | 0% | 0hPa | 3.0V | 00:00:00 | 00:28:23 | 00:00:00 | |
| 9A1FER-3 | 2026-09-05 23:33:09 | 45.81153 | 16.01886 | 119° | 18km/h | 3367m | 6.3m/s | 2.9°C | 95.2% | 0hPa | 3.0V | 00:00:00 | 00:28:08 | 00:00:00 | |
| 9A1FER-3 | 2026-09-05 23:32:54 | 45.81178 | 16.01810 | 112° | 16km/h | 3301m | 3.8m/s | 3.3°C | 0% | 0hPa | 3.0V | 00:00:00 | 00:27:53 | 00:00:00 | |
| 9A1FER-3 | 2026-09-05 23:32:39 | 45.81198 | 16.01740 | 123° | 15km/h | 3239m | 5.5m/s | 3.8°C | 0% | 0hPa | 3.0V | 00:00:00 | 00:27:38 | 00:00:00 | |
| 9A1FER-3 | 2026-09-05 23:32:24 | 45.81234 | 16.01690 | 156° | 7km/h | 3153m | 6.6m/s | 4.3°C | 0% | 0hPa | 3.0V | 00:00:00 | 00:27:23 | 00:00:00 | |
| 9A1FER-3 | 2026-09-05 23:32:09 | 45.81242 | 16.01668 | 96° | 11km/h | 3070m | 4.2m/s | 4.8°C | 0% | 0hPa | 3.0V | 00:00:00 | 00:27:08 | 08:30:00 | |
| 9A1FER-3 | 2026-09-05 23:31:54 | 45.81272 | 16.01635 | 146° | 11km/h | 2982m | 6.8m/s | 5.5°C | 98.4% | 0hPa | 3.0V | 00:00:00 | 00:26:53 | 00:00:00 | |
| 9A1FER-3 | 2026-09-05 23:31:39 | 45.81309 | 16.01606 | 168° | 9km/h | 2902m | 3.9m/s | 5.8°C | 0% | 0hPa | 3.0V | 00:00:00 | 00:26:38 | 00:00:00 | |
| 9A1FER-3 | 2026-09-05 23:31:24 | 45.81332 | 16.01600 | 132° | 15km/h | 2820m | 7.2m/s | 6.2°C | 0% | 0hPa | 3.0V | 00:00:00 | 00:26:23 | 00:00:00 | |
| 9A1FER-3 | 2026-09-05 23:31:09 | 45.81378 | 16.01590 | 136° | 15km/h | 2739m | 5.0m/s | 6.7°C | 0% | 0hPa | 3.0V | 00:00:00 | 00:26:08 | 00:00:00 | |
| 9A1FER-3 | 2026-09-05 23:30:54 | 45.81426 | 16.01582 | 162° | 16km/h | 2651m | 6.0m/s | 7.5°C | 97.4% | 0hPa | 3.0V | 00:00:00 | 00:25:53 | 00:00:00 | |
| 9A1FER-3 | 2026-09-05 23:30:39 | 45.81484 | 16.01563 | 174° | 9km/h | 2570m | 8.2m/s | 8.1°C | 96.1% | 0hPa | 3.0V | 00:00:00 | 00:25:38 | 00:00:00 | |
| 9A1FER-3 | 2026-09-05 23:30:24 | 45.81484 | 16.01534 | 20° | 9km/h | 2491m | 5.1m/s | 8.7°C | 92.5% | 0hPa | 3.0V | 00:00:00 | 00:25:23 | 00:00:00 | |
| 9A1FER-3 | 2026-09-05 23:30:09 | 45.81491 | 16.01523 | 259° | 5km/h | 2412m | 6.9m/s | 9.2°C | 90.5% | 0hPa | 3.0V | 00:00:00 | 00:25:08 | 00:00:00 | |
| 9A1FER-3 | 2026-09-05 23:29:54 | 45.81486 | 16.01535 | 310° | 11km/h | 2330m | 5.1m/s | 9.7°C | 86.4% | 0hPa | 3.0V | 00:00:00 | 00:24:53 | 08:30:00 | |
| 9A1FER-3 | 2026-09-05 23:29:39 | 45.81463 | 16.01546 | 13° | 11km/h | 2239m | 5.3m/s | 9.7°C | 96.3% | 0hPa | 3.0V | 00:00:00 | 00:24:38 | 00:00:00 | |
| 9A1FER-3 | 2026-09-05 23:29:24 | 45.81427 | 16.01557 | 299° | 11km/h | 2164m | 4.8m/s | 10.1°C | 93.3% | 0hPa | 3.0V | 00:00:00 | 00:24:23 | 00:00:00 | |
| 9A1FER-3 | 2026-09-05 23:29:09 | 45.81393 | 16.01580 | 16° | 9km/h | 2082m | 6.3m/s | 10.9°C | 87.5% | 0hPa | 3.0V | 00:00:00 | 00:24:08 | 00:00:00 | |
| 9A1FER-3 | 2026-09-05 23:28:54 | 45.81366 | 16.01574 | 349° | 9km/h | 2001m | 5.9m/s | 11.6°C | 77.4% | 0hPa | 3.0V | 00:00:00 | 00:23:53 | 00:00:00 | |
| 9A1FER-3 | 2026-09-05 23:28:39 | 45.81349 | 16.01579 | 241° | 11km/h | 1924m | 5.6m/s | 12.3°C | 77.2% | 0hPa | 3.0V | 00:00:00 | 00:23:38 | 00:00:00 | |
| 9A1FER-3 | 2026-09-05 23:28:24 | 45.81332 | 16.01625 | 252° | 9km/h | 1853m | 4.6m/s | 12.7°C | 81.3% | 0hPa | 3.0V | 00:00:00 | 00:23:23 | 00:00:00 | |
| 9A1FER-3 | 2026-09-05 23:28:09 | 45.81321 | 16.01652 | 234° | 13km/h | 1764m | 4.2m/s | 13.5°C | 70.6% | 0hPa | 3.0V | 00:00:00 | 00:23:08 | 00:00:00 | |
| 9A1FER-3 | 2026-09-05 23:27:54 | 45.81349 | 16.01697 | 246° | 11km/h | 1688m | 4.3m/s | 14.2°C | 66.6% | 0hPa | 3.0V | 00:00:00 | 00:22:53 | 00:00:00 | |
| 9A1FER-3 | 2026-09-05 23:27:39 | 45.81367 | 16.01738 | 173° | 9km/h | 1608m | 5.4m/s | 14.9°C | 63.3% | 0hPa | 3.0V | 00:00:00 | 00:22:38 | 08:30:00 | |
| 9A1FER-3 | 2026-09-05 23:27:24 | 45.81393 | 16.01768 | 202° | 18km/h | 1536m | 6.3m/s | 15.4°C | 62.5% | 0hPa | 3.0V | 00:00:00 | 00:22:23 | 00:00:00 | |
| 9A1FER-3 | 2026-09-05 23:27:09 | 45.81442 | 16.01824 | 264° | 18km/h | 1457m | 7.6m/s | 15.9°C | 62.2% | 0hPa | 3.0V | 00:00:00 | 00:22:08 | 00:00:00 | |
| 9A1FER-3 | 2026-09-05 23:26:54 | 45.81494 | 16.01884 | 228° | 18km/h | 1383m | 4.3m/s | 16.6°C | 60.2% | 0hPa | 3.0V | 00:00:00 | 00:21:53 | 00:00:00 | |
| 9A1FER-3 | 2026-09-05 23:26:39 | 45.81537 | 16.01954 | 205° | 18km/h | 1305m | 5.7m/s | 17.2°C | 58.5% | 0hPa | 3.0V | 00:00:00 | 00:21:38 | 00:00:00 | |
| 9A1FER-3 | 2026-09-05 23:26:24 | 45.81599 | 16.02006 | 223° | 24km/h | 1227m | 6.9m/s | 17.8°C | 56.4% | 0hPa | 3.0V | 00:00:00 | 00:21:23 | 00:00:00 | |
| 9A1FER-3 | 2026-09-05 23:26:09 | 45.81684 | 16.02045 | 208° | 22km/h | 1148m | 5.6m/s | 17.4°C | 63.6% | 0hPa | 3.0V | 00:00:00 | 00:21:08 | 00:00:00 | |
| 9A1FER-3 | 2026-09-05 23:25:54 | 45.81751 | 16.02107 | 202° | 26km/h | 1069m | 3.6m/s | 17.6°C | 65.5% | 0hPa | 3.0V | 00:00:00 | 00:20:53 | 00:00:00 | |
| 9A1FER-3 | 2026-09-05 23:25:39 | 45.81817 | 16.02213 | 224° | 27km/h | 1000m | 4.3m/s | 17.6°C | 62.5% | 0hPa | 3.0V | 00:00:00 | 00:20:38 | 00:00:00 | |
| 9A1FER-3 | 2026-09-05 23:25:24 | 45.81889 | 16.02318 | 260° | 26km/h | 927m | 3.9m/s | 18.2°C | 53.9% | 0hPa | 3.0V | 00:00:00 | 00:20:23 | 08:30:00 | |
| 9A1FER-3 | 2026-09-05 23:25:09 | 45.81907 | 16.02451 | 265° | 29km/h | 857m | 7.3m/s | 18.5°C | 53.9% | 0hPa | 3.0V | 00:00:00 | 00:20:08 | 00:00:00 | |
| 9A1FER-3 | 2026-09-05 23:24:54 | 45.81923 | 16.02615 | 258° | 29km/h | 780m | 6.8m/s | 19.1°C | 52.6% | 0hPa | 3.0V | 00:00:00 | 00:19:53 | 00:00:00 | |
| 9A1FER-3 | 2026-09-05 23:24:39 | 45.81932 | 16.02767 | 293° | 26km/h | 706m | 3.6m/s | 19.6°C | 53.4% | 0hPa | 3.0V | 00:00:00 | 00:19:38 | 00:00:00 | |
| 9A1FER-3 | 2026-09-05 23:24:24 | 45.81932 | 16.02906 | 261° | 26km/h | 639m | 4.7m/s | 20.0°C | 55.1% | 0hPa | 0V | 00:00:00 | 00:19:23 | 00:00:00 | |
| 9A1FER-3 | 2026-09-05 23:24:09 | 45.81949 | 16.03038 | 266° | 22km/h | 564m | 4.0m/s | 20.1°C | 57.8% | 0hPa | 0V | 00:00:00 | 00:19:08 | 00:00:00 | |
| 9A1FER-3 | 2026-09-05 23:23:54 | 45.81980 | 16.03144 | 245° | 18km/h | 492m | 5.6m/s | 0°C | 0% | 0hPa | 0V | 00:00:00 | 00:18:53 | 00:00:00 | |
| 9A1FER-3 | 2026-09-05 23:23:39 | 45.81989 | 16.03241 | 237° | 15km/h | 417m | 6.9m/s | 0°C | 0% | 0hPa | 0V | 00:00:00 | 00:18:38 | 00:00:00 | |
| 9A1FER-3 | 2026-09-05 23:23:24 | 45.82014 | 16.03309 | 220° | 18km/h | 346m | 5.4m/s | 0°C | 0% | 0hPa | 0V | 00:00:00 | 00:18:23 | 00:00:00 | |
| 9A1FER-3 | 2026-09-05 23:23:09 | 45.82042 | 16.03364 | 176° | 22km/h | 271m | 5.5m/s | 0°C | 0% | 0hPa | 0V | 00:00:00 | 00:18:08 | 00:00:00 |